Provisional Data: Susquehanna River at Kirkwood, NY


Please select a monitoring station.
Please select start date.
Please select start date.

Toggle Unit: C/F Toggle Unit: C/F
Sample Time Temperature (C) Temperature (F) Specific Conductivity (mS/cm) pH   Turbidity (NTU+) DO (mg/L)
3/7/2021 12:00:00 AM -0.09 31.838 0.519 6.97 72.59 12.49
3/7/2021 12:15:00 AM -0.1 31.82 0.519 6.97 75.82 12.36
3/7/2021 12:30:00 AM -0.1 31.82 0.519 6.97 77.28 13.15
3/7/2021 12:45:00 AM -0.1 31.82 0.519 6.97 78.95 12.88
3/7/2021 1:00:00 AM -0.1 31.82 0.519 6.98 77.84 13.16
3/7/2021 1:15:00 AM -0.1 31.82 0.517 6.98 78.16 12.92
3/7/2021 1:30:00 AM -0.09 31.838 0.516 6.98 78.24 13
3/7/2021 1:45:00 AM -0.09 31.838 0.516 6.98 81 12.97
3/7/2021 2:00:00 AM -0.09 31.838 0.516 6.98 81.06 12.63
3/7/2021 2:15:00 AM -0.09 31.838 0.516 6.99 78.58 11.93
3/7/2021 2:30:00 AM -0.09 31.838 0.515 7 77.24 12.08
3/7/2021 2:45:00 AM -0.09 31.838 0.515 7 76.93 12.71
3/7/2021 3:00:00 AM -0.09 31.838 0.515 7.01 78.97 13.04
3/7/2021 3:15:00 AM -0.09 31.838 0.515 7.01 78.5 13.17
3/7/2021 3:30:00 AM -0.09 31.838 0.514 7.01 77.63 13.57
3/7/2021 3:45:00 AM -0.09 31.838 0.513 7 80.53 13.72
3/7/2021 4:00:00 AM -0.09 31.838 0.512 7 87.07 13.78
3/7/2021 4:15:00 AM -0.1 31.82 0.51 7 84.95 13.8
3/7/2021 4:30:00 AM -0.1 31.82 0.507 7.01 83.99 13.68
3/7/2021 4:45:00 AM -0.1 31.82 0.506 7.01 85.53 13.72
3/7/2021 5:00:00 AM -0.1 31.82 0.505 7.01 90.79 13.59
3/7/2021 5:15:00 AM -0.1 31.82 0.504 7.01 88.74 13.35
3/7/2021 5:30:00 AM -0.09 31.838 0.503 7.01 94.1 13.29
3/7/2021 5:45:00 AM -0.09 31.838 0.503 7.02 92.35 13.19
3/7/2021 6:00:00 AM -0.09 31.838 0.503 7.02 101.83 12.62
3/7/2021 6:15:00 AM -0.09 31.838 0.504 7.02 114.16 11.81
3/7/2021 6:30:00 AM -0.09 31.838 0.504 7.03 260.96 9.3
3/7/2021 6:45:00 AM -0.09 31.838 0.505 7.03 307.23 8.93
3/7/2021 7:00:00 AM -0.08 31.856 0.506 7.03 324.41 7.24
3/7/2021 7:15:00 AM -0.08 31.856 0.506 7.04 329.19 6.09
3/7/2021 7:30:00 AM -0.08 31.856 0.507 7.04 231.58 6.31
3/7/2021 7:45:00 AM -0.08 31.856 0.508 7.04 495.7 6.18
3/7/2021 8:00:00 AM -0.08 31.856 0.509 7.05 363.08 5.27
3/7/2021 8:15:00 AM -0.08 31.856 0.509 7.05 221.02 4.37
3/7/2021 8:30:00 AM -0.08 31.856 0.509 7.06 121.55 4.76
3/7/2021 8:45:00 AM -0.08 31.856 0.509 7.06 122.65 4.54
3/7/2021 9:00:00 AM -0.07 31.874 0.51 7.06 246.21 3.94
3/7/2021 9:15:00 AM -0.07 31.874 0.51 7.07 567 4.34
3/7/2021 9:30:00 AM -0.07 31.874 0.511 7.07 156.25 4.31
3/7/2021 9:45:00 AM -0.06 31.892 0.511 7.07 534.23 5.55
3/7/2021 10:00:00 AM -0.05 31.91 0.512 7.08 288.95 6.29
3/7/2021 10:15:00 AM -0.04 31.928 0.512 7.08 381.33 9.95
3/7/2021 10:30:00 AM -0.02 31.964 0.512 7.08 177.48 9.65
3/7/2021 10:45:00 AM 0 32 0.512 7.09 150.53 10.41
3/7/2021 11:00:00 AM 0.02 32.036 0.512 7.09 194.44 9.45
3/7/2021 11:15:00 AM 0.06 32.108 0.512 7.09 133.16 10.98
3/7/2021 11:30:00 AM 0.13 32.234 0.512 7.09 501.65 10.68
3/7/2021 11:45:00 AM 0.24 32.432 0.511 7.1 122.43 10.9
3/7/2021 12:00:00 PM 0.37 32.666 0.511 7.1 308.96 10.38
3/7/2021 12:15:00 PM 0.5 32.9 0.511 7.11 456.24 8.42
3/7/2021 12:30:00 PM 0.62 33.116 0.512 7.11 249.4 7.05
3/7/2021 12:45:00 PM 0.76 33.368 0.512 7.11 223.27 4.22
3/7/2021 1:00:00 PM 0.92 33.656 0.512 7.11 310.01 5.83
3/7/2021 1:15:00 PM 1.07 33.926 0.512 7.12 968.59 4.54
3/7/2021 1:30:00 PM 1.21 34.178 0.513 7.12 151.64 3.5
3/7/2021 1:45:00 PM 1.32 34.376 0.513 7.12 240.46 4.24
3/7/2021 2:00:00 PM 1.42 34.556 0.514 7.12 242.54 3.88
3/7/2021 2:15:00 PM 1.51 34.718 0.514 7.12 474.24 3.67
3/7/2021 2:30:00 PM 1.59 34.862 0.514 7.13 514.69 3.75
3/7/2021 2:45:00 PM 1.65 34.97 0.515 7.13 655.14 4.71
3/7/2021 3:00:00 PM 1.7 35.06 0.516 7.13 366.74 4.72
3/7/2021 3:15:00 PM 1.73 35.114 0.516 7.13 353.62 4.39
3/7/2021 3:30:00 PM 1.72 35.096 0.516 7.13 365.31 3.16
3/7/2021 3:45:00 PM 1.72 35.096 0.516 7.14 477 4.31
3/7/2021 4:00:00 PM 1.71 35.078 0.517 7.14 483.59 4.59
3/7/2021 4:15:00 PM 1.69 35.042 0.517 7.14 219.62 3.89
3/7/2021 4:30:00 PM 1.65 34.97 0.517 7.14 228.45 4.95
3/7/2021 4:45:00 PM 1.61 34.898 0.518 7.15 325.96 4.36
3/7/2021 5:00:00 PM 1.54 34.772 0.518 7.15 493.18 4.08
3/7/2021 5:15:00 PM 1.46 34.628 0.518 7.15 350.76 4.27
3/7/2021 5:30:00 PM 1.37 34.466 0.519 7.15 520.5 4.22
3/7/2021 5:45:00 PM 1.27 34.286 0.519 7.15 238.59 3.93
3/7/2021 6:00:00 PM 1.17 34.106 0.519 7.15 300.31 3.66
3/7/2021 6:15:00 PM 1.06 33.908 0.52 7.16 391.29 3.81
3/7/2021 6:30:00 PM 0.95 33.71 0.52 7.16 318.36 3.76
3/7/2021 6:45:00 PM 0.85 33.53 0.521 7.16 206.27 4.01
3/7/2021 7:00:00 PM 0.75 33.35 0.522 7.16 492.35 4.05
3/7/2021 7:15:00 PM 0.66 33.188 0.521 7.16 364.8 3.31
3/7/2021 7:30:00 PM 0.59 33.062 0.522 7.16 305.17 4.16
3/7/2021 7:45:00 PM 0.51 32.918 0.522 7.16 419.25 4.12
3/7/2021 8:00:00 PM 0.45 32.81 0.522 7.16 331.62 3.51
3/7/2021 8:15:00 PM 0.39 32.702 0.522 7.16 301.85 4.89
3/7/2021 8:30:00 PM 0.33 32.594 0.523 7.17 272.25 4.57
3/7/2021 8:45:00 PM 0.28 32.504 0.523 7.17 233.68 4.09
3/7/2021 9:00:00 PM 0.23 32.414 0.523 7.17 189.85 4.95
3/7/2021 9:15:00 PM 0.19 32.342 0.523 7.17 175.98 4.29
3/7/2021 9:30:00 PM 0.15 32.27 0.524 7.17 150.06 5.69
3/7/2021 9:45:00 PM 0.12 32.216 0.523 7.17 134.74 4.46
3/7/2021 10:00:00 PM 0.09 32.162 0.523 7.18 124.63 4.7
3/7/2021 10:15:00 PM 0.07 32.126 0.523 7.18 108.69 4.88
3/7/2021 10:30:00 PM 0.06 32.108 0.523 7.18 106.87 5.25
3/7/2021 10:45:00 PM 0.04 32.072 0.523 7.18 87.15 4.33
3/7/2021 11:00:00 PM 0.03 32.054 0.524 7.18 69.02 5.29
3/7/2021 11:15:00 PM 0.03 32.054 0.523 7.18 77.73 5.14
3/7/2021 11:30:00 PM 0.02 32.036 0.523 7.18 79.94 4.63
3/7/2021 11:45:00 PM 0.02 32.036 0.524 7.18 93.82 4.68
3/8/2021 12:00:00 AM 0.02 32.036 0.523 7.18 91.59 3.9
3/8/2021 12:15:00 AM 0.02 32.036 0.523 7.18 86.83 5.47
3/8/2021 12:30:00 AM 0.02 32.036 0.523 7.19 93.34 5.32
3/8/2021 12:45:00 AM 0.02 32.036 0.524 7.19 91.95 5.66
3/8/2021 1:00:00 AM 0.02 32.036 0.523 7.19 90.77 6.27
3/8/2021 1:15:00 AM 0.04 32.072 0.523 7.19 95.88 6.08
3/8/2021 1:30:00 AM 0.03 32.054 0.523 7.19 97.74 5.39
3/8/2021 1:45:00 AM 0.03 32.054 0.523 7.19 94.03 4.66
3/8/2021 2:00:00 AM 0.02 32.036 0.524 7.19 89.47 5.51
3/8/2021 2:15:00 AM 0.02 32.036 0.524 7.19 83.96 7.76
3/8/2021 2:30:00 AM 0.02 32.036 0.524 7.2 89.23 7.08
3/8/2021 2:45:00 AM 0.02 32.036 0.523 7.2 84.27 5.81
3/8/2021 3:00:00 AM 0.02 32.036 0.523 7.2 76.24 8.03
3/8/2021 3:15:00 AM 0.02 32.036 0.523 7.2 80.69 8.24
3/8/2021 3:30:00 AM 0.01 32.018 0.522 7.2 84.97 7.4
3/8/2021 3:45:00 AM 0.01 32.018 0.522 7.2 85.56 8.6
3/8/2021 4:00:00 AM 0.01 32.018 0.522 7.2 82.06 6
3/8/2021 4:15:00 AM 0 32 0.522 7.2 78.02 7.23
3/8/2021 4:30:00 AM 0 32 0.522 7.2 86.96 9.95
3/8/2021 4:45:00 AM -0.01 31.982 0.521 7.2 95.56 7.57
3/8/2021 5:00:00 AM -0.02 31.964 0.521 7.2 104 8.41
3/8/2021 5:15:00 AM -0.03 31.946 0.521 7.2 104.67 9.04
3/8/2021 5:30:00 AM -0.04 31.928 0.521 7.21 100.12 10.01
3/8/2021 5:45:00 AM -0.05 31.91 0.52 7.21 91.56 8.47
3/8/2021 6:00:00 AM -0.07 31.874 0.52 7.21 88.31 8.63
3/8/2021 6:15:00 AM -0.08 31.856 0.519 7.21 94.6 9.8
3/8/2021 6:30:00 AM -0.09 31.838 0.52 7.21 86.26 9.19
3/8/2021 6:45:00 AM -0.1 31.82 0.519 7.21 88.28 8.16
3/8/2021 7:00:00 AM -0.1 31.82 0.519 7.21 91.96 7.79
3/8/2021 7:15:00 AM -0.1 31.82 0.519 7.21 72.59 9.03
3/8/2021 7:30:00 AM -0.1 31.82 0.519 7.22 76.93 9.39
3/8/2021 7:45:00 AM -0.1 31.82 0.519 7.22 73.9 9.51
3/8/2021 8:00:00 AM -0.1 31.82 0.518 7.22 73.78 10.71
3/8/2021 8:15:00 AM -0.09 31.838 0.517 7.22 72.99 11.58
3/8/2021 8:30:00 AM -0.09 31.838 0.517 7.22 79.02 11.98
3/8/2021 8:45:00 AM -0.08 31.856 0.516 7.22 74.92 11.86
3/8/2021 9:00:00 AM -0.07 31.874 0.515 7.22 75.68 11.51
3/8/2021 9:15:00 AM -0.05 31.91 0.515 7.22 76.03 11.06
3/8/2021 9:30:00 AM -0.03 31.946 0.514 7.22 78.64 10.63
3/8/2021 9:45:00 AM 0 32 0.514 7.22 76.28 9.72
3/8/2021 10:00:00 AM 0.04 32.072 0.514 7.22 77.79 10.3
3/8/2021 10:15:00 AM 0.07 32.126 0.514 7.22 73.9 10.69
3/8/2021 10:30:00 AM 0.13 32.234 0.514 7.22 73.72 9.76
3/8/2021 10:45:00 AM 0.23 32.414 0.514 7.22 74.81 5.51
3/8/2021 11:00:00 AM 0.36 32.648 0.514 7.23 73.3 5.85
3/8/2021 11:15:00 AM 0.51 32.918 0.514 7.22 72.14 6.44
3/8/2021 11:30:00 AM 0.66 33.188 0.515 7.22 70.19 5.84
3/8/2021 11:45:00 AM 0.8 33.44 0.514 7.22 69.88 4.19
3/8/2021 12:00:00 PM 0.94 33.692 0.514 7.22 69.06 5.19
3/8/2021 12:15:00 PM 1.09 33.962 0.515 7.23 66.56 5.07
3/8/2021 12:30:00 PM 1.23 34.214 0.515 7.22 67.01 4.78
3/8/2021 12:45:00 PM 1.38 34.484 0.516 7.22 67.35 3.67
3/8/2021 1:00:00 PM 1.52 34.736 0.516 7.22 66.87 3.62
3/8/2021 1:15:00 PM 1.66 34.988 0.516 7.22 66.21 3.57
3/8/2021 1:30:00 PM 1.76 35.168 0.517 7.22 64.55 3.29
3/8/2021 1:45:00 PM 1.83 35.294 0.517 7.22 63.51 2.46
3/8/2021 2:00:00 PM 1.88 35.384 0.517 7.22 62.23 3.92
3/8/2021 2:15:00 PM 1.9 35.42 0.518 7.22 62.24 2.78
3/8/2021 2:30:00 PM 1.91 35.438 0.519 7.22 61.97 2.96
3/8/2021 2:45:00 PM 1.9 35.42 0.519 7.22 61.29 2.5
3/8/2021 3:00:00 PM 1.89 35.402 0.519 7.22 61.49 2.97
3/8/2021 3:15:00 PM 1.86 35.348 0.52 7.22 60.95 2
3/8/2021 3:30:00 PM 1.83 35.294 0.52 7.22 60.73 3.04
3/8/2021 3:45:00 PM 1.8 35.24 0.521 7.21 59.61 2.49
3/8/2021 4:00:00 PM 1.76 35.168 0.521 7.21 59.12 2.03
3/8/2021 4:15:00 PM 1.73 35.114 0.52 7.21 59.84 2.84
3/8/2021 4:30:00 PM 1.69 35.042 0.521 7.21 59.16 1.79
3/8/2021 4:45:00 PM 1.66 34.988 0.521 7.21 58.76 2.7
3/8/2021 5:00:00 PM 1.62 34.916 0.522 7.21 58.5 3.25
3/8/2021 5:15:00 PM 1.56 34.808 0.522 7.21 58.11 1.56
3/8/2021 5:30:00 PM 1.5 34.7 0.522 7.21 59.91 2.52
3/8/2021 5:45:00 PM 1.42 34.556 0.522 7.21 59.64 2.27
3/8/2021 6:00:00 PM 1.35 34.43 0.522 7.21 58.87 2
3/8/2021 6:15:00 PM 1.26 34.268 0.523 7.21 58.96 2.42
3/8/2021 6:30:00 PM 1.18 34.124 0.523 7.21 59.48 2.65
3/8/2021 6:45:00 PM 1.1 33.98 0.523 7.21 58.47 2.66
3/8/2021 7:00:00 PM 1.03 33.854 0.523 7.21 58 1.88
3/8/2021 7:15:00 PM 0.96 33.728 0.523 7.21 57.86 2.91
3/8/2021 7:30:00 PM 0.9 33.62 0.523 7.21 58.38 2.25
3/8/2021 7:45:00 PM 0.85 33.53 0.524 7.21 58.82 2.87
3/8/2021 8:00:00 PM 0.81 33.458 0.523 7.21 59.19 2.15
3/8/2021 8:15:00 PM 0.77 33.386 0.524 7.21 58.83 2.78
3/8/2021 8:30:00 PM 0.75 33.35 0.524 7.21 59.19 3.19
3/8/2021 8:45:00 PM 0.74 33.332 0.524 7.21 59.35 2.15
3/8/2021 9:00:00 PM 0.73 33.314 0.524 7.21 58.85 2.25
3/8/2021 9:15:00 PM 0.73 33.314 0.524 7.21 59.54 3.08
3/8/2021 9:30:00 PM 0.73 33.314 0.524 7.21 59.49 2.15
3/8/2021 9:45:00 PM 0.74 33.332 0.525 7.21 58.74 1.82
3/8/2021 10:00:00 PM 0.75 33.35 0.525 7.21 58.79 2.7
3/8/2021 10:15:00 PM 0.76 33.368 0.524 7.21 58.49 1.9
3/8/2021 10:30:00 PM 0.78 33.404 0.525 7.21 58.49 2.19
3/8/2021 10:45:00 PM 0.8 33.44 0.525 7.21 58.18 2.58
3/8/2021 11:00:00 PM 0.81 33.458 0.525 7.21 59.02 1.67
3/8/2021 11:15:00 PM 0.84 33.512 0.526 7.21 58.08 2.03
3/8/2021 11:30:00 PM 0.86 33.548 0.526 7.21 58.87 2.11
3/8/2021 11:45:00 PM 0.89 33.602 0.526 7.21 59.13 1.91
3/9/2021 12:00:00 AM 0.91 33.638 0.526 7.21 58.3 1.85
3/9/2021 12:15:00 AM 0.94 33.692 0.526 7.21 58.07 2.02
3/9/2021 12:30:00 AM 0.98 33.764 0.526 7.21 57.89 3
3/9/2021 12:45:00 AM 1.01 33.818 0.526 7.21 58.17 3.11
3/9/2021 1:00:00 AM 1.05 33.89 0.526 7.21 58.85 3.9
3/9/2021 1:15:00 AM 1.08 33.944 0.525 7.21 59.09 2.84
3/9/2021 1:30:00 AM 1.11 33.998 0.525 7.21 58.45 3.51
3/9/2021 1:45:00 AM 1.13 34.034 0.525 7.21 58.34 3.05
3/9/2021 2:00:00 AM 1.15 34.07 0.525 7.21 58.84 4.2
3/9/2021 2:15:00 AM 1.17 34.106 0.525 7.21 58.38 2.88
3/9/2021 2:30:00 AM 1.18 34.124 0.525 7.21 58.02 3.8
3/9/2021 2:45:00 AM 1.19 34.142 0.525 7.21 58.06 4.47
3/9/2021 3:00:00 AM 1.2 34.16 0.525 7.21 57.5 3.51
3/9/2021 3:15:00 AM 1.21 34.178 0.526 7.21 57.83 3.91
3/9/2021 3:30:00 AM 1.22 34.196 0.526 7.21 58.39 3.74
3/9/2021 3:45:00 AM 1.24 34.232 0.526 7.21 57.69 3.12
3/9/2021 4:00:00 AM 1.25 34.25 0.526 7.21 57.52 3.57
3/9/2021 4:15:00 AM 1.27 34.286 0.526 7.21 58.11 3.45
3/9/2021 4:30:00 AM 1.28 34.304 0.526 7.21 57.41 3.74
3/9/2021 4:45:00 AM 1.29 34.322 0.526 7.21 57.39 3.92
3/9/2021 5:00:00 AM 1.29 34.322 0.527 7.21 57.39 3.89
3/9/2021 5:15:00 AM 1.28 34.304 0.527 7.21 56.71 4.59
3/9/2021 5:30:00 AM 1.28 34.304 0.527 7.21 57.33 2.9
3/9/2021 5:45:00 AM 1.27 34.286 0.527 7.21 57.26 4.26
3/9/2021 6:00:00 AM 1.25 34.25 0.526 7.21 56.64 4.95
3/9/2021 6:15:00 AM 1.24 34.232 0.526 7.21 56.76 2.97
3/9/2021 6:30:00 AM 1.22 34.196 0.526 7.21 56.26 2.63
3/9/2021 6:45:00 AM 1.2 34.16 0.527 7.21 55.06 3.29
3/9/2021 7:00:00 AM 1.18 34.124 0.526 7.21 54.79 4.06
3/9/2021 7:15:00 AM 1.16 34.088 0.526 7.21 54.82 5.17
3/9/2021 7:30:00 AM 1.15 34.07 0.526 7.2 55.44 4.28
3/9/2021 7:45:00 AM 1.14 34.052 0.526 7.2 55.16 3.32
3/9/2021 8:00:00 AM 1.13 34.034 0.527 7.2 55.2 4.92
3/9/2021 8:15:00 AM 1.13 34.034 0.526 7.2 55.83 5.63
3/9/2021 8:30:00 AM 1.14 34.052 0.526 7.2 54.8 3.01
3/9/2021 8:45:00 AM 1.16 34.088 0.527 7.2 54.9 3.85
3/9/2021 9:00:00 AM 1.18 34.124 0.526 7.2 54.89 4.4
3/9/2021 9:15:00 AM 1.21 34.178 0.527 7.2 56.15 3.97
3/9/2021 9:30:00 AM 1.26 34.268 0.527 7.2 55.85 3.43
3/9/2021 9:45:00 AM 1.31 34.358 0.527 7.2 55.98 5.1
3/9/2021 10:00:00 AM 1.37 34.466 0.527 7.2 55.28 5.28
3/9/2021 10:15:00 AM 1.45 34.61 0.527 7.2 54.87 3.61
3/9/2021 10:30:00 AM 1.53 34.754 0.527 7.2 55.9 5.23
3/9/2021 10:45:00 AM 1.63 34.934 0.527 7.2 57.8 4.17
3/9/2021 11:00:00 AM 1.72 35.096 0.527 7.2 56.15 2.73
3/9/2021 11:15:00 AM 1.8 35.24 0.532 7.2 55.72 4.83
3/9/2021 11:30:00 AM 1.88 35.384 0.532 7.2 55.87 3.13
3/9/2021 11:45:00 AM 1.96 35.528 0.532 7.2 56.8 4.38
3/9/2021 12:00:00 PM 2.03 35.654 0.533 7.2 54.45 5.03
3/9/2021 12:15:00 PM 2.1 35.78 0.533 7.2 55 2.83
3/9/2021 12:30:00 PM 2.2 35.96 0.533 7.2 55.55 4.44
3/9/2021 12:45:00 PM 2.33 36.194 0.533 7.2 55.36 4.29
3/9/2021 1:00:00 PM 2.48 36.464 0.533 7.19 56.19 4.06
3/9/2021 1:15:00 PM 2.63 36.734 0.533 7.19 56.51 3.51
3/9/2021 1:30:00 PM 2.78 37.004 0.533 7.19 56.24 2.24
3/9/2021 1:45:00 PM 2.91 37.238 0.533 7.19 56.92 3.35
3/9/2021 2:00:00 PM 3.02 37.436 0.533 7.19 58.2 2.73
3/9/2021 2:15:00 PM 3.11 37.598 0.534 7.19 56.95 3.41
3/9/2021 2:30:00 PM 3.2 37.76 0.534 7.19 57.19 4.75
3/9/2021 2:45:00 PM 3.27 37.886 0.534 7.19 57.42 5.01
3/9/2021 3:00:00 PM 3.33 37.994 0.535 7.19 57.5 2.99
3/9/2021 3:15:00 PM 3.39 38.102 0.535 7.18 57.04 4.5
3/9/2021 3:30:00 PM 3.43 38.174 0.536 7.18 56.49 2.91
3/9/2021 3:45:00 PM 3.45 38.21 0.536 7.18 57.08 3.57
3/9/2021 4:00:00 PM 3.48 38.264 0.536 7.18 54.66 3.39
3/9/2021 4:15:00 PM 3.49 38.282 0.536 7.18 54.29 4.57
3/9/2021 4:30:00 PM 3.48 38.264 0.536 7.18 55.48 3.59
3/9/2021 4:45:00 PM 3.46 38.228 0.537 7.18 54.73 2.88
3/9/2021 5:00:00 PM 3.42 38.156 0.537 7.18 56.44 3.22
3/9/2021 5:15:00 PM 3.36 38.048 0.537 7.18 57.28 4.38
3/9/2021 5:30:00 PM 3.3 37.94 0.538 7.18 57.86 2.83
3/9/2021 5:45:00 PM 3.22 37.796 0.538 7.18 58.18 4.05
3/9/2021 6:00:00 PM 3.14 37.652 0.538 7.18 59.71 2.47
3/9/2021 6:15:00 PM 3.05 37.49 0.539 7.18 59 4
3/9/2021 6:30:00 PM 2.97 37.346 0.539 7.17 59.19 3.13
3/9/2021 6:45:00 PM 2.89 37.202 0.539 7.17 58.97 2.7
3/9/2021 7:00:00 PM 2.81 37.058 0.539 7.17 56.91 3.36
3/9/2021 7:15:00 PM 2.74 36.932 0.539 7.17 56.91 2.47
3/9/2021 7:30:00 PM 2.68 36.824 0.539 7.17 57.69 3.35
3/9/2021 7:45:00 PM 2.62 36.716 0.54 7.17 55.98 2.45
3/9/2021 8:00:00 PM 2.57 36.626 0.54 7.17 55.38 2.62
3/9/2021 8:15:00 PM 2.52 36.536 0.54 7.17 55.54 2.32
3/9/2021 8:30:00 PM 2.48 36.464 0.541 7.17 54.88 2.51
3/9/2021 8:45:00 PM 2.45 36.41 0.54 7.17 53.55 2.05
3/9/2021 9:00:00 PM 2.42 36.356 0.541 7.17 53.52 2.26
3/9/2021 9:15:00 PM 2.4 36.32 0.541 7.17 52.91 1.47
3/9/2021 9:30:00 PM 2.38 36.284 0.541 7.17 52.85 2.06
3/9/2021 9:45:00 PM 2.37 36.266 0.541 7.17 52.63 1.26
3/9/2021 10:00:00 PM 2.37 36.266 0.542 7.17 54.04 1.34
3/9/2021 10:15:00 PM 2.37 36.266 0.542 7.17 56.33 1.7
3/9/2021 10:30:00 PM 2.38 36.284 0.543 7.17 56.6 1.58
3/9/2021 10:45:00 PM 2.38 36.284 0.543 7.16 54.05 1.52
3/9/2021 11:00:00 PM 2.38 36.284 0.543 7.16 52.38 1.58
3/9/2021 11:15:00 PM 2.39 36.302 0.544 7.16 50.47 1.51
3/9/2021 11:30:00 PM 2.39 36.302 0.544 7.16 50.85 1.68
3/9/2021 11:45:00 PM 2.4 36.32 0.544 7.16 51.71 1.01
3/10/2021 12:00:00 AM 2.4 36.32 0.545 7.16 51.71 0.81
3/10/2021 12:15:00 AM 2.41 36.338 0.545 7.16 53.31 1.01
3/10/2021 12:30:00 AM 2.41 36.338 0.545 7.16 52.31 1.16
3/10/2021 12:45:00 AM 2.42 36.356 0.545 7.16 52.15 1.01
3/10/2021 1:00:00 AM 2.42 36.356 0.545 7.16 53.17 1.28
3/10/2021 1:15:00 AM 2.43 36.374 0.546 7.16 56.02 0.88
3/10/2021 1:30:00 AM 2.43 36.374 0.547 7.16 55.48 0.68
3/10/2021 1:45:00 AM 2.43 36.374 0.546 7.16 55.6 0.75
3/10/2021 2:00:00 AM 2.44 36.392 0.547 7.16 55.36 0.45
3/10/2021 2:15:00 AM 2.44 36.392 0.548 7.16 54.95 0.46
3/10/2021 2:30:00 AM 2.45 36.41 0.548 7.16 55.68 0.52
3/10/2021 2:45:00 AM 2.45 36.41 0.548 7.16 54.44 0.36
3/10/2021 3:00:00 AM 2.45 36.41 0.549 7.16 54.25 0.73
3/10/2021 3:15:00 AM 2.45 36.41 0.549 7.16 54.15 0.48
3/10/2021 3:30:00 AM 2.45 36.41 0.549 7.16 57.17 0.36
3/10/2021 3:45:00 AM 2.45 36.41 0.55 7.16 57.52 0.49
3/10/2021 4:00:00 AM 2.45 36.41 0.55 7.16 58.42 0.5
3/10/2021 4:15:00 AM 2.44 36.392 0.549 7.16 57.27 0.61
3/10/2021 4:30:00 AM 2.44 36.392 0.548 7.16 56.18 0.5
3/10/2021 4:45:00 AM 2.43 36.374 0.549 7.16 56.49 0.47
3/10/2021 5:00:00 AM 2.42 36.356 0.548 7.16 56.05 0.46
3/10/2021 5:15:00 AM 2.41 36.338 0.548 7.16 56.35 0.64
3/10/2021 5:30:00 AM 2.4 36.32 0.548 7.16 58.98 0.81
3/10/2021 5:45:00 AM 2.38 36.284 0.55 7.16 57.74 0.66
3/10/2021 6:00:00 AM 2.36 36.248 0.55 7.16 58.19 0.91
3/10/2021 6:15:00 AM 2.35 36.23 0.551 7.16 58.72 0.84
3/10/2021 6:30:00 AM 2.32 36.176 0.552 7.16 58.65 0.81
3/10/2021 6:45:00 AM 2.3 36.14 0.553 7.16 57.57 0.77
3/10/2021 7:00:00 AM 2.28 36.104 0.553 7.16 57.81 0.68
3/10/2021 7:15:00 AM 2.25 36.05 0.553 7.16 55.35 0.67
3/10/2021 7:30:00 AM 2.23 36.014 0.555 7.16 55.94 0.73
3/10/2021 7:45:00 AM 2.21 35.978 0.555 7.16 56.21 0.51
3/10/2021 8:00:00 AM 2.19 35.942 0.556 7.17 56.71 0.65
3/10/2021 8:15:00 AM 2.18 35.924 0.556 7.16 56.8 0.63
3/10/2021 8:30:00 AM 2.17 35.906 0.556 7.16 57.84 0.52
3/10/2021 8:45:00 AM 2.17 35.906 0.558 7.16 57.48 0.64
3/10/2021 9:00:00 AM 2.18 35.924 0.558 7.16 59.17 0.83
3/10/2021 9:15:00 AM 2.2 35.96 0.559 7.16 60.12 0.61
3/10/2021 9:30:00 AM 2.23 36.014 0.56 7.16 59.78 0.61
3/10/2021 9:45:00 AM 2.27 36.086 0.56 7.16 58.73 0.82
3/10/2021 10:00:00 AM 2.32 36.176 0.561 7.16 59.94 0.51
3/10/2021 10:15:00 AM 2.38 36.284 0.561 7.16 58.82 0.56
3/10/2021 10:30:00 AM 2.45 36.41 0.563 7.16 59.27 0.75
3/10/2021 10:45:00 AM 2.53 36.554 0.563 7.15 58.73 0.97
3/10/2021 11:00:00 AM 2.61 36.698 0.562 7.16 57.09 0.64
3/10/2021 11:15:00 AM 2.7 36.86 0.564 7.15 59.98 0.63
3/10/2021 11:30:00 AM 2.79 37.022 0.563 7.15 58.79 0.48
3/10/2021 11:45:00 AM 2.9 37.22 0.564 7.15 59.66 0.61
3/10/2021 12:00:00 PM 3 37.4 0.563 7.15 56.66 0.45
3/10/2021 12:15:00 PM 3.1 37.58 0.564 7.15 53.95 0.61
3/10/2021 12:30:00 PM 3.21 37.778 0.564 7.15 54.03 0.62
3/10/2021 12:45:00 PM 3.33 37.994 0.564 7.14 55.16 0.46
3/10/2021 1:00:00 PM 3.44 38.192 0.564 7.15 56.07 0.56
3/10/2021 1:15:00 PM 3.54 38.372 0.564 7.14 55.06 0.66
3/10/2021 1:30:00 PM 3.64 38.552 0.565 7.14 54.5 0.69
3/10/2021 1:45:00 PM 3.73 38.714 0.566 7.14 55.47 0.6
3/10/2021 2:00:00 PM 3.83 38.894 0.566 7.14 55.19 0.62
3/10/2021 2:15:00 PM 3.92 39.056 0.565 7.14 53.18 0.67
3/10/2021 2:30:00 PM 4 39.2 0.566 7.14 49.86 0.56
3/10/2021 2:45:00 PM 4.07 39.326 0.566 7.14 51.9 0.6
3/10/2021 3:00:00 PM 4.13 39.434 0.567 7.13 50.51 0.75
3/10/2021 3:15:00 PM 4.18 39.524 0.568 7.13 54.65 0.62
3/10/2021 3:30:00 PM 4.21 39.578 0.569 7.13 53.08 0.63
3/10/2021 3:45:00 PM 4.22 39.596 0.57 7.13 53.72 0.62
3/10/2021 4:00:00 PM 4.22 39.596 0.569 7.13 51.84 0.62
3/10/2021 4:15:00 PM 4.22 39.596 0.569 7.13 53.04 0.43
3/10/2021 4:30:00 PM 4.21 39.578 0.57 7.13 53.48 0.53
3/10/2021 4:45:00 PM 4.2 39.56 0.571 7.13 54.2 0.42
3/10/2021 5:00:00 PM 4.17 39.506 0.571 7.12 54.79 0.52
3/10/2021 5:15:00 PM 4.13 39.434 0.572 7.12 54.07 0.44
3/10/2021 5:30:00 PM 4.09 39.362 0.572 7.12 50.93 0.5
3/10/2021 5:45:00 PM 4.04 39.272 0.573 7.12 53.38 0.36
3/10/2021 6:00:00 PM 3.98 39.164 0.573 7.12 51.82 0.65
3/10/2021 6:15:00 PM 3.92 39.056 0.574 7.12 52.31 0.47
3/10/2021 6:30:00 PM 3.86 38.948 0.575 7.12 53.56 0.39
3/10/2021 6:45:00 PM 3.8 38.84 0.574 7.12 51.99 0.48
3/10/2021 7:00:00 PM 3.75 38.75 0.574 7.12 54.83 0.48
3/10/2021 7:15:00 PM 3.7 38.66 0.573 7.12 57.95 0.44
3/10/2021 7:30:00 PM 3.67 38.606 0.573 7.11 61.9 0.49
3/10/2021 7:45:00 PM 3.64 38.552 0.573 7.11 60.71 0.56
3/10/2021 8:00:00 PM 3.62 38.516 0.574 7.11 58.78 0.55
3/10/2021 8:15:00 PM 3.61 38.498 0.574 7.11 58.56 0.47
3/10/2021 8:30:00 PM 3.6 38.48 0.575 7.11 57.29 0.52
3/10/2021 8:45:00 PM 3.6 38.48 0.576 7.11 60.08 0.51
3/10/2021 9:00:00 PM 3.6 38.48 0.577 7.11 61.73 0.48
3/10/2021 9:15:00 PM 3.61 38.498 0.577 7.11 59.81 0.47
3/10/2021 9:30:00 PM 3.62 38.516 0.578 7.11 58.51 0.42
3/10/2021 9:45:00 PM 3.63 38.534 0.579 7.11 60.37 0.5
3/10/2021 10:00:00 PM 3.64 38.552 0.579 7.1 57.18 0.53
3/10/2021 10:15:00 PM 3.66 38.588 0.58 7.1 59.63 0.47
3/10/2021 10:30:00 PM 3.68 38.624 0.58 7.1 56.49 0.41
3/10/2021 10:45:00 PM 3.69 38.642 0.581 7.1 57.05 0.48
3/10/2021 11:00:00 PM 3.71 38.678 0.581 7.1 55.88 0.42
3/10/2021 11:15:00 PM 3.72 38.696 0.582 7.1 54.12 0.46
3/10/2021 11:30:00 PM 3.73 38.714 0.582 7.1 56.73 0.45
3/10/2021 11:45:00 PM 3.75 38.75 0.584 7.1 53.67 0.52
3/11/2021 12:00:00 AM 3.76 38.768 0.583 7.1 53.27 0.44
3/11/2021 12:15:00 AM 3.77 38.786 0.584 7.1 52.13 0.38
3/11/2021 12:30:00 AM 3.79 38.822 0.587 7.1 53.59 0.64
3/11/2021 12:45:00 AM 3.8 38.84 0.588 7.1 52.66 0.38
3/11/2021 1:00:00 AM 3.81 38.858 0.588 7.09 49.78 0.52
3/11/2021 1:15:00 AM 3.81 38.858 0.587 7.09 51.43 0.38
3/11/2021 1:30:00 AM 3.82 38.876 0.589 7.09 52.5 0.51
3/11/2021 1:45:00 AM 3.83 38.894 0.589 7.09 51.94 0.45
3/11/2021 2:00:00 AM 3.83 38.894 0.589 7.09 51.52 0.48
3/11/2021 2:15:00 AM 3.83 38.894 0.589 7.09 51.12 0.5
3/11/2021 2:30:00 AM 3.82 38.876 0.588 7.09 50.04 0.47
3/11/2021 2:45:00 AM 3.81 38.858 0.589 7.09 53.21 0.48
3/11/2021 3:00:00 AM 3.79 38.822 0.587 7.09 53.18 0.4
3/11/2021 3:15:00 AM 3.78 38.804 0.587 7.09 51.98 0.48
3/11/2021 3:30:00 AM 3.75 38.75 0.587 7.09 51.95 0.42
3/11/2021 3:45:00 AM 3.73 38.714 0.584 7.09 51.65 0.45
3/11/2021 4:00:00 AM 3.7 38.66 0.588 7.09 52.9 0.5
3/11/2021 4:15:00 AM 3.66 38.588 0.586 7.09 51.69 0.48
3/11/2021 4:30:00 AM 3.63 38.534 0.586 7.09 51.49 0.54
3/11/2021 4:45:00 AM 3.58 38.444 0.586 7.09 52.47 0.55
3/11/2021 5:00:00 AM 3.54 38.372 0.584 7.09 53.08 0.34
3/11/2021 5:15:00 AM 3.49 38.282 0.583 7.09 53.31 0.42
3/11/2021 5:30:00 AM 3.44 38.192 0.583 7.09 53.24 0.34
3/11/2021 5:45:00 AM 3.4 38.12 0.583 7.09 50.28 0.39
3/11/2021 6:00:00 AM 3.35 38.03 0.581 7.09 51.67 0.36
3/11/2021 6:15:00 AM 3.3 37.94 0.579 7.09 55.5 0.38
3/11/2021 6:30:00 AM 3.25 37.85 0.579 7.09 56.17 0.32
3/11/2021 6:45:00 AM 3.2 37.76 0.577 7.09 56.58 0.3
3/11/2021 7:00:00 AM 3.16 37.688 0.574 7.09 56.23 0.38
3/11/2021 7:15:00 AM 3.12 37.616 0.571 7.09 58.04 0.37
3/11/2021 7:30:00 AM 3.08 37.544 0.57 7.09 62.37 0.32
3/11/2021 7:45:00 AM 3.05 37.49 0.569 7.09 60.26 0.32
3/11/2021 8:00:00 AM 3.02 37.436 0.566 7.09 58.49 0.36
3/11/2021 8:15:00 AM 3 37.4 0.566 7.09 61.09 0.32
3/11/2021 8:30:00 AM 2.97 37.346 0.562 7.09 59.93 0.31
3/11/2021 8:45:00 AM 2.95 37.31 0.561 7.09 61.81 0.32
3/11/2021 9:00:00 AM 2.94 37.292 0.559 7.09 64.16 0.3
3/11/2021 9:15:00 AM 2.95 37.31 0.558 7.09 60.83 0.29
3/11/2021 9:30:00 AM 2.97 37.346 0.558 7.09 58.83 0.31
3/11/2021 9:45:00 AM 2.99 37.382 0.555 7.09 56.54 0.29
3/11/2021 10:00:00 AM 3.04 37.472 0.554 7.09 56.78 0.31
3/11/2021 10:15:00 AM 3.1 37.58 0.556 7.09 55.34 0.3
3/11/2021 10:30:00 AM 3.17 37.706 0.554 7.09 55.28 0.31
3/11/2021 10:45:00 AM 3.24 37.832 0.55 7.09 56.48 0.31
3/11/2021 11:00:00 AM 3.31 37.958 0.551 7.09 57.09 0.6
3/11/2021 11:15:00 AM 3.39 38.102 0.549 7.09 56.19 0.52
3/11/2021 11:30:00 AM 3.48 38.264 0.549 7.09 56.51 0.52
3/11/2021 11:45:00 AM 3.58 38.444 0.547 7.09 57.51 0.57
3/11/2021 12:00:00 PM 3.69 38.642 0.548 7.09 60.76 0.45
3/11/2021 12:15:00 PM 3.81 38.858 0.547 7.09 59.28 0.63
3/11/2021 12:30:00 PM 3.93 39.074 0.548 7.09 60.69 0.76
3/11/2021 12:45:00 PM 4.03 39.254 0.547 7.09 58.59 0.77
3/11/2021 1:00:00 PM 4.12 39.416 0.549 7.09 59.42 0.53
3/11/2021 1:15:00 PM 4.2 39.56 0.547 7.09 61.98 1.34
3/11/2021 1:30:00 PM 4.26 39.668 0.549 7.09 61.98 1.11
3/11/2021 1:45:00 PM 4.3 39.74 0.55 7.09 62.15 0.88
3/11/2021 2:00:00 PM 4.33 39.794 0.548 7.09 62.07 0.61
3/11/2021 2:15:00 PM 4.35 39.83 0.549 7.09 61.48 0.91
3/11/2021 2:30:00 PM 4.37 39.866 0.55 7.09 62.34 0.84
3/11/2021 2:45:00 PM 4.37 39.866 0.55 7.09 61.41 0.67
3/11/2021 3:00:00 PM 4.39 39.902 0.55 7.08 60.85 1.15
3/11/2021 3:15:00 PM 4.41 39.938 0.55 7.08 60.37 1.1
3/11/2021 3:30:00 PM 4.44 39.992 0.55 7.08 61.39 0.5
3/11/2021 3:45:00 PM 4.46 40.028 0.551 7.08 61.66 0.47
3/11/2021 4:00:00 PM 4.49 40.082 0.55 7.08 61.18 0.57
3/11/2021 4:15:00 PM 4.51 40.118 0.55 7.08 61.39 0.45
3/11/2021 4:30:00 PM 4.54 40.172 0.548 7.08 61.01 0.4
3/11/2021 4:45:00 PM 4.56 40.208 0.547 7.08 60.63 0.37
3/11/2021 5:00:00 PM 4.59 40.262 0.548 7.08 60.35 0.43
3/11/2021 5:15:00 PM 4.61 40.298 0.547 7.08 59.94 0.49
3/11/2021 5:30:00 PM 4.63 40.334 0.547 7.08 61.41 0.53
3/11/2021 5:45:00 PM 4.65 40.37 0.545 7.08 61.6 1.07
3/11/2021 6:00:00 PM 4.66 40.388 0.547 7.08 61.42 0.35
3/11/2021 6:15:00 PM 4.68 40.424 0.544 7.08 62.16 0.47
3/11/2021 6:30:00 PM 4.7 40.46 0.541 7.08 61.42 0.36
3/11/2021 6:45:00 PM 4.72 40.496 0.541 7.08 62.55 0.33
3/11/2021 7:00:00 PM 4.74 40.532 0.539 7.08 61.03 0.4
3/11/2021 7:15:00 PM 4.76 40.568 0.538 7.08 60.22 0.29
3/11/2021 7:30:00 PM 4.78 40.604 0.536 7.07 60.61 0.28
3/11/2021 7:45:00 PM 4.79 40.622 0.535 7.07 60.3 0.26
3/11/2021 8:00:00 PM 4.8 40.64 0.532 7.07 61.07 0.39
3/11/2021 8:15:00 PM 4.81 40.658 0.53 7.07 60.91 0.28
3/11/2021 8:30:00 PM 4.81 40.658 0.529 7.07 60.03 0.5
3/11/2021 8:45:00 PM 4.82 40.676 0.53 7.07 60.78 0.32
3/11/2021 9:00:00 PM 4.83 40.694 0.527 7.07 59.83 0.31
3/11/2021 9:15:00 PM 4.83 40.694 0.523 7.07 59.76 0.33
3/11/2021 9:30:00 PM 4.83 40.694 0.522 7.07 59.93 0.29
3/11/2021 9:45:00 PM 4.82 40.676 0.521 7.07 59.3 0.33
3/11/2021 10:00:00 PM 4.82 40.676 0.521 7.07 60.04 0.45
3/11/2021 10:15:00 PM 4.81 40.658 0.519 7.07 60.4 0.39
3/11/2021 10:30:00 PM 4.8 40.64 0.519 7.07 61.43 0.6
3/11/2021 10:45:00 PM 4.78 40.604 0.518 7.07 60.76 0.48
3/11/2021 11:00:00 PM 4.77 40.586 0.517 7.07 60.99 0.52
3/11/2021 11:15:00 PM 4.75 40.55 0.516 7.07 61.76 0.38
3/11/2021 11:30:00 PM 4.73 40.514 0.516 7.07 60.97 0.39
3/11/2021 11:45:00 PM 4.71 40.478 0.516 7.07 59.97 0.38
3/12/2021 12:00:00 AM 4.68 40.424 0.516 7.07 60.74 0.42
3/12/2021 12:15:00 AM 4.64 40.352 0.513 7.07 60.18 0.41
3/12/2021 12:30:00 AM 4.61 40.298 0.514 7.07 60.69 0.41
3/12/2021 12:45:00 AM 4.57 40.226 0.512 7.07 59.81 0.4
3/12/2021 1:00:00 AM 4.54 40.172 0.512 7.07 60.33 0.37
3/12/2021 1:15:00 AM 4.5 40.1 0.512 7.07 59.01 0.42
3/12/2021 1:30:00 AM 4.46 40.028 0.511 7.07 59.08 0.42
3/12/2021 1:45:00 AM 4.41 39.938 0.512 7.07 59.43 0.49
3/12/2021 2:00:00 AM 4.37 39.866 0.51 7.08 60.48 0.37
3/12/2021 2:15:00 AM 4.32 39.776 0.511 7.08 60.2 0.35
3/12/2021 2:30:00 AM 4.27 39.686 0.508 7.08 59.9 0.36
3/12/2021 2:45:00 AM 4.22 39.596 0.51 7.08 59.65 0.4
3/12/2021 3:00:00 AM 4.17 39.506 0.508 7.08 60.65 0.41
3/12/2021 3:15:00 AM 4.12 39.416 0.509 7.08 61.01 0.44
3/12/2021 3:30:00 AM 4.07 39.326 0.508 7.08 59.52 0.53
3/12/2021 3:45:00 AM 4.03 39.254 0.51 7.08 60.21 0.53
3/12/2021 4:00:00 AM 3.98 39.164 0.507 7.08 60.65 0.4
3/12/2021 4:15:00 AM 3.94 39.092 0.509 7.08 61.51 0.71
3/12/2021 4:30:00 AM 3.9 39.02 0.507 7.08 61.18 0.49
3/12/2021 4:45:00 AM 3.86 38.948 0.508 7.08 60.87 0.45
3/12/2021 5:00:00 AM 3.83 38.894 0.507 7.08 60.96 0.59
3/12/2021 5:15:00 AM 3.8 38.84 0.505 7.08 59.67 0.52
3/12/2021 5:30:00 AM 3.78 38.804 0.506 7.08 60.14 0.61
3/12/2021 5:45:00 AM 3.76 38.768 0.506 7.08 59.7 0.52
3/12/2021 6:00:00 AM 3.74 38.732 0.506 7.09 58.81 0.54
3/12/2021 6:15:00 AM 3.72 38.696 0.506 7.08 59.42 0.61
3/12/2021 6:30:00 AM 3.72 38.696 0.506 7.08 59.55 0.72
3/12/2021 6:45:00 AM 3.71 38.678 0.505 7.08 59.93 0.51
3/12/2021 7:00:00 AM 3.72 38.696 0.505 7.09 58.78 0.52
3/12/2021 7:15:00 AM 3.72 38.696 0.504 7.09 58.18 0.54
3/12/2021 7:30:00 AM 3.73 38.714 0.505 7.09 58.21 0.51
3/12/2021 7:45:00 AM 3.74 38.732 0.504 7.09 58.22 0.51
3/12/2021 8:00:00 AM 3.76 38.768 0.504 7.08 59.04 0.42
3/12/2021 8:15:00 AM 3.78 38.804 0.505 7.08 59.19 0.58
3/12/2021 8:30:00 AM 3.8 38.84 0.504 7.08 59.2 0.48
3/12/2021 8:45:00 AM 3.82 38.876 0.504 7.08 58.87 0.37
3/12/2021 9:00:00 AM 3.85 38.93 0.504 7.08 59.12 0.43
3/12/2021 9:15:00 AM 3.88 38.984 0.504 7.08 58.41 0.41
3/12/2021 9:30:00 AM 3.92 39.056 0.504 7.08 58.59 0.43
3/12/2021 9:45:00 AM 3.96 39.128 0.504 7.08 57.9 0.38
3/12/2021 10:00:00 AM 4 39.2 0.504 7.08 58.44 0.47
3/12/2021 10:15:00 AM 4.04 39.272 0.504 7.08 58.78 0.4
3/12/2021 10:30:00 AM 4.09 39.362 0.503 7.08 58.21 0.44
3/12/2021 10:45:00 AM 4.14 39.452 0.504 7.07 58.07 0.35
3/12/2021 11:00:00 AM 4.19 39.542 0.503 7.07 58.1 0.48
3/12/2021 11:15:00 AM 4.25 39.65 0.503 7.07 58.09 0.39
3/12/2021 11:30:00 AM 4.31 39.758 0.502 7.07 58.1 0.35
3/12/2021 11:45:00 AM 4.36 39.848 0.502 7.07 57.94 0.41
3/12/2021 12:00:00 PM 4.42 39.956 0.502 7.07 57.59 0.36
3/12/2021 12:15:00 PM 4.47 40.046 0.502 7.07 57.6 0.36
3/12/2021 12:30:00 PM 4.52 40.136 0.501 7.07 57.09 0.28
3/12/2021 12:45:00 PM 4.57 40.226 0.501 7.06 57.18 0.27
3/12/2021 1:00:00 PM 4.61 40.298 0.5 7.06 57.49 0.24
3/12/2021 1:15:00 PM 4.65 40.37 0.5 7.06 57.3 0.24
3/12/2021 1:30:00 PM 4.68 40.424 0.499 7.06 57.29 0.24
3/12/2021 1:45:00 PM 4.71 40.478 0.498 7.06 58.19 0.25
3/12/2021 2:00:00 PM 4.73 40.514 0.497 7.06 57.49 0.24
3/12/2021 2:15:00 PM 4.75 40.55 0.497 7.06 58.1 0.25
3/12/2021 2:30:00 PM 4.76 40.568 0.496 7.06 57.86 0.24
3/12/2021 2:45:00 PM 4.77 40.586 0.496 7.06 57.76 0.24
3/12/2021 3:00:00 PM 4.78 40.604 0.495 7.06 58.2 0.24
3/12/2021 3:15:00 PM 4.78 40.604 0.494 7.06 57.82 0.23
3/12/2021 3:30:00 PM 4.78 40.604 0.493 7.06 57.54 0.23
3/12/2021 3:45:00 PM 4.78 40.604 0.492 7.06 57.11 0.24
3/12/2021 4:00:00 PM 4.78 40.604 0.491 7.06 56.89 0.23
3/12/2021 4:15:00 PM 4.78 40.604 0.491 7.06 57.04 0.24
3/12/2021 4:30:00 PM 4.78 40.604 0.489 7.06 57.05 0.24
3/12/2021 4:45:00 PM 4.77 40.586 0.487 7.06 57.26 0.23
3/12/2021 5:00:00 PM 4.77 40.586 0.486 7.06 56.69 0.24
3/12/2021 5:15:00 PM 4.76 40.568 0.485 7.06 57.16 0.24
3/12/2021 5:30:00 PM 4.75 40.55 0.484 7.05 56.94 0.24
3/12/2021 5:45:00 PM 4.74 40.532 0.484 7.05 57.21 0.24
3/12/2021 6:00:00 PM 4.72 40.496 0.482 7.05 57.22 0.24
3/12/2021 6:15:00 PM 4.71 40.478 0.481 7.05 57.89 0.24
3/12/2021 6:30:00 PM 4.7 40.46 0.479 7.05 58.06 0.24
3/12/2021 6:45:00 PM 4.69 40.442 0.478 7.05 57.59 0.24
3/12/2021 7:00:00 PM 4.68 40.424 0.478 7.05 57.5 0.23
3/12/2021 7:15:00 PM 4.68 40.424 0.475 7.05 57.05 0.23
3/12/2021 7:30:00 PM 4.67 40.406 0.474 7.05 56.62 0.23
3/12/2021 7:45:00 PM 4.67 40.406 0.473 7.05 56.74 0.23
3/12/2021 8:00:00 PM 4.66 40.388 0.472 7.06 56.69 0.23
3/12/2021 8:15:00 PM 4.66 40.388 0.469 7.06 56.84 0.23
3/12/2021 8:30:00 PM 4.65 40.37 0.468 7.06 57.47 0.24
3/12/2021 8:45:00 PM 4.65 40.37 0.467 7.05 57.92 0.23
3/12/2021 9:00:00 PM 4.64 40.352 0.467 7.05 57.64 0.23
3/12/2021 9:15:00 PM 4.64 40.352 0.466 7.05 58.33 0.23
3/12/2021 9:30:00 PM 4.63 40.334 0.465 7.05 58.14 0.23
3/12/2021 9:45:00 PM 4.62 40.316 0.464 7.05 57.65 0.23
3/12/2021 10:00:00 PM 4.62 40.316 0.464 7.05 57.66 0.23
3/12/2021 10:15:00 PM 4.61 40.298 0.463 7.05 58.05 0.23
3/12/2021 10:30:00 PM 4.59 40.262 0.461 7.05 58.2 0.23
3/12/2021 10:45:00 PM 4.58 40.244 0.46 7.05 58.5 0.23
3/12/2021 11:00:00 PM 4.56 40.208 0.459 7.04 58.16 0.23
3/12/2021 11:15:00 PM 4.54 40.172 0.459 7.04 59.06 0.23
3/12/2021 11:30:00 PM 4.52 40.136 0.458 7.04 58.63 0.23
3/12/2021 11:45:00 PM 4.5 40.1 0.457 7.04 58.45 0.23
3/13/2021 12:00:00 AM 4.47 40.046 0.457 7.04 58.87 0.23
3/13/2021 12:15:00 AM 4.45 40.01 0.457 7.04 58.69 0.23
3/13/2021 12:30:00 AM 4.42 39.956 0.455 7.04 58.44 0.23
3/13/2021 12:45:00 AM 4.4 39.92 0.455 7.04 59.12 0.23
3/13/2021 1:00:00 AM 4.37 39.866 0.453 7.03 58.54 0.23
3/13/2021 1:15:00 AM 4.35 39.83 0.453 7.03 58.4 0.23
3/13/2021 1:30:00 AM 4.31 39.758 0.452 7.03 58.69 0.23
3/13/2021 1:45:00 AM 4.28 39.704 0.452 7.03 58.14 0.24
3/13/2021 2:00:00 AM 4.25 39.65 0.451 7.03 58.42 0.24
3/13/2021 2:15:00 AM 4.22 39.596 0.451 7.04 58.48 0.24
3/13/2021 2:30:00 AM 4.2 39.56 0.45 7.03 58.49 0.23
3/13/2021 2:45:00 AM 4.17 39.506 0.449 7.03 58.15 0.24
3/13/2021 3:00:00 AM 4.15 39.47 0.448 7.03 57.81 0.24
3/13/2021 3:15:00 AM 4.12 39.416 0.448 7.04 57.8 0.23
3/13/2021 3:30:00 AM 4.09 39.362 0.446 7.04 57.55 0.23
3/13/2021 3:45:00 AM 4.07 39.326 0.446 7.04 57.8 0.23
3/13/2021 4:00:00 AM 4.04 39.272 0.444 7.03 57.93 0.24
3/13/2021 4:15:00 AM 4.01 39.218 0.444 7.03 57.68 0.23
3/13/2021 4:30:00 AM 3.98 39.164 0.443 7.04 57.55 0.24
3/13/2021 4:45:00 AM 3.95 39.11 0.442 7.03 57.52 0.23
3/13/2021 5:00:00 AM 3.92 39.056 0.442 7.04 58.14 0.23
3/13/2021 5:15:00 AM 3.89 39.002 0.442 7.04 57.51 0.24
3/13/2021 5:30:00 AM 3.86 38.948 0.441 7.04 57.84 0.24
3/13/2021 5:45:00 AM 3.83 38.894 0.441 7.04 57.63 0.24
3/13/2021 6:00:00 AM 3.8 38.84 0.44 7.04 58.46 0.23
3/13/2021 6:15:00 AM 3.77 38.786 0.441 7.04 58.17 0.24
3/13/2021 6:30:00 AM 3.73 38.714 0.44 7.04 58.32 0.24
3/13/2021 6:45:00 AM 3.7 38.66 0.44 7.04 58.24 0.24
3/13/2021 7:00:00 AM 3.67 38.606 0.44 7.04 58.32 0.24
3/13/2021 7:15:00 AM 3.63 38.534 0.44 7.04 58.36 0.24
3/13/2021 7:30:00 AM 3.6 38.48 0.441 7.04 58.48 0.24
3/13/2021 7:45:00 AM 3.57 38.426 0.441 7.04 58.31 0.24
3/13/2021 8:00:00 AM 3.54 38.372 0.441 7.04 58.06 0.24
3/13/2021 8:15:00 AM 3.51 38.318 0.441 7.04 58.36 0.24
3/13/2021 8:30:00 AM 3.48 38.264 0.441 7.04 57.25 0.24
3/13/2021 8:45:00 AM 3.46 38.228 0.441 7.04 57.88 0.24
3/13/2021 9:00:00 AM 3.44 38.192 0.44 7.03 57.46 0.24
3/13/2021 9:15:00 AM 3.42 38.156 0.44 7.03 57.68 0.24
3/13/2021 9:30:00 AM 3.41 38.138 0.44 7.03 58.19 0.24
3/13/2021 9:45:00 AM 3.4 38.12 0.44 7.03 58.18 0.24
3/13/2021 10:00:00 AM 3.4 38.12 0.44 7.04 58.18 0.24
3/13/2021 10:15:00 AM 3.41 38.138 0.44 7.04 58.45 0.24
3/13/2021 10:30:00 AM 3.42 38.156 0.44 7.04 58.07 0.24
3/13/2021 10:45:00 AM 3.43 38.174 0.44 7.04 58.39 0.24
3/13/2021 11:00:00 AM 3.44 38.192 0.44 7.04 57.83 0.24
3/13/2021 11:15:00 AM 3.46 38.228 0.44 7.04 58.47 0.24
3/13/2021 11:30:00 AM 3.49 38.282 0.44 7.04 57.84 0.24
3/13/2021 11:45:00 AM 3.51 38.318 0.441 7.04 58.28 0.24
3/13/2021 12:00:00 PM 3.54 38.372 0.44 7.04 58.49 0.24
3/13/2021 12:15:00 PM 3.56 38.408 0.44 7.04 57.89 0.24
3/13/2021 12:30:00 PM 3.59 38.462 0.441 7.04 58.05 0.24
3/13/2021 12:45:00 PM 3.62 38.516 0.44 7.04 57.95 0.24
3/13/2021 1:00:00 PM 3.65 38.57 0.44 7.04 58.03 0.24
3/13/2021 1:15:00 PM 3.69 38.642 0.44 7.04 57.9 0.24
3/13/2021 1:30:00 PM 3.72 38.696 0.44 7.04 58 0.24
3/13/2021 1:45:00 PM 3.75 38.75 0.44 7.04 57.69 0.24
3/13/2021 2:00:00 PM 3.78 38.804 0.439 7.04 58.45 0.24
3/13/2021 2:15:00 PM 3.82 38.876 0.439 7.04 58.16 0.24
3/13/2021 2:30:00 PM 3.85 38.93 0.439 7.04 58.11 0.24
3/13/2021 2:45:00 PM 3.88 38.984 0.438 7.04 57.67 0.24
3/13/2021 3:00:00 PM 3.9 39.02 0.438 7.04 58.13 0.24
3/13/2021 3:15:00 PM 3.93 39.074 0.437 7.04 57.56 0.24
3/13/2021 3:30:00 PM 3.95 39.11 0.437 7.04 57.64 0.23
3/13/2021 3:45:00 PM 3.98 39.164 0.436 7.04 57.67 0.23
3/13/2021 4:00:00 PM 4 39.2 0.436 7.03 57.63 0.24
3/13/2021 4:15:00 PM 4.01 39.218 0.434 7.03 57.9 0.23
3/13/2021 4:30:00 PM 4.02 39.236 0.434 7.03 57.81 0.23
3/13/2021 4:45:00 PM 4.03 39.254 0.433 7.03 57.93 0.23
3/13/2021 5:00:00 PM 4.04 39.272 0.43 7.03 57.8 0.23
3/13/2021 5:15:00 PM 4.04 39.272 0.43 7.03 57.79 0.23
3/13/2021 5:30:00 PM 4.03 39.254 0.43 7.03 57.18 0.23
3/13/2021 5:45:00 PM 4.03 39.254 0.43 7.03 56.99 0.23
3/13/2021 6:00:00 PM 4.02 39.236 0.428 7.03 57.18 0.23
3/13/2021 6:15:00 PM 4 39.2 0.429 7.03 56.76 0.23
3/13/2021 6:30:00 PM 3.98 39.164 0.429 7.03 57.1 0.23
3/13/2021 6:45:00 PM 3.96 39.128 0.428 7.03 56.94 0.23
3/13/2021 7:00:00 PM 3.94 39.092 0.428 7.03 56.7 0.24
3/13/2021 7:15:00 PM 3.92 39.056 0.427 7.03 56.77 0.23
3/13/2021 7:30:00 PM 3.9 39.02 0.427 7.03 56.71 0.23
3/13/2021 7:45:00 PM 3.87 38.966 0.427 7.03 56.93 0.24
3/13/2021 8:00:00 PM 3.85 38.93 0.427 7.03 56.99 0.24
3/13/2021 8:15:00 PM 3.82 38.876 0.427 7.03 56.39 0.23
3/13/2021 8:30:00 PM 3.79 38.822 0.427 7.03 56.52 0.23
3/13/2021 8:45:00 PM 3.76 38.768 0.428 7.03 56.62 0.23
3/13/2021 9:00:00 PM 3.73 38.714 0.428 7.03 56.26 0.23
3/13/2021 9:15:00 PM 3.7 38.66 0.428 7.03 56.51 0.24
3/13/2021 9:30:00 PM 3.67 38.606 0.428 7.03 57.39 0.23
3/13/2021 9:45:00 PM 3.64 38.552 0.427 7.03 57.22 0.24
3/13/2021 10:00:00 PM 3.62 38.516 0.427 7.03 56.67 0.24
3/13/2021 10:15:00 PM 3.59 38.462 0.428 7.03 56.85 0.23
3/13/2021 10:30:00 PM 3.56 38.408 0.428 7.04 56.59 0.23
3/13/2021 10:45:00 PM 3.53 38.354 0.429 7.04 56.83 0.24
3/13/2021 11:00:00 PM 3.5 38.3 0.43 7.04 57.14 0.24
3/13/2021 11:15:00 PM 3.48 38.264 0.431 7.04 56.71 0.24
3/13/2021 11:30:00 PM 3.45 38.21 0.432 7.04 56.68 0.24
3/13/2021 11:45:00 PM 3.43 38.174 0.433 7.04 56.41 0.24
3/14/2021 12:00:00 AM 3.41 38.138 0.434 7.04 56.71 0.24
3/14/2021 12:15:00 AM 3.39 38.102 0.436 7.04 56.42 0.24
3/14/2021 12:30:00 AM 3.37 38.066 0.437 7.05 56.41 0.24
3/14/2021 12:45:00 AM 3.35 38.03 0.439 7.05 56.83 0.24
3/14/2021 1:00:00 AM 3.34 38.012 0.44 7.05 56.95 0.24
3/14/2021 1:15:00 AM 3.32 37.976 0.443 7.05 56.74 0.24
3/14/2021 1:30:00 AM 3.3 37.94 0.444 7.05 56.85 0.24
3/14/2021 1:45:00 AM 3.29 37.922 0.445 7.05 57.29 0.24
3/14/2021 3:00:00 AM 3.23 37.814 0.456 7.06 56.98 0.24
3/14/2021 4:15:00 AM 3.22 37.796 0.458 7.06 56.74 0.24
3/14/2021 4:30:00 AM 3.21 37.778 0.461 7.06 56.57 0.24
3/14/2021 4:45:00 AM 3.2 37.76 0.465 7.06 56.39 0.24
3/14/2021 5:00:00 AM 3.19 37.742 0.473 7.07 55.77 0.24
3/14/2021 5:15:00 AM 3.18 37.724 0.566 7.05 55.26 0.24
3/14/2021 5:30:00 AM 3.17 37.706 0.564 7.06 55.6 0.24
3/14/2021 5:45:00 AM 3.15 37.67 0.564 7.06 55.87 0.24
3/14/2021 6:00:00 AM 3.14 37.652 0.565 7.07 55.7 0.24
3/14/2021 6:15:00 AM 3.12 37.616 0.566 7.07 55.82 0.24
3/14/2021 6:30:00 AM 3.1 37.58 0.565 7.08 55.83 0.24
3/14/2021 6:45:00 AM 3.08 37.544 0.566 7.08 55.62 0.24
3/14/2021 7:00:00 AM 3.07 37.526 0.567 7.08 55.74 0.24
3/14/2021 7:15:00 AM 3.05 37.49 0.567 7.08 55.68 0.24
3/14/2021 7:30:00 AM 3.03 37.454 0.567 7.08 55.87 0.24
3/14/2021 7:45:00 AM 3.01 37.418 0.567 7.09 55.85 0.24
3/14/2021 8:00:00 AM 2.99 37.382 0.568 7.09 56.07 0.24
3/14/2021 8:15:00 AM 2.97 37.346 0.569 7.09 56.33 0.24
3/14/2021 8:30:00 AM 2.95 37.31 0.569 7.09 56.44 0.24
3/14/2021 8:45:00 AM 2.93 37.274 0.57 7.09 56.48 0.24
3/14/2021 9:00:00 AM 2.91 37.238 0.57 7.09 56.61 0.24
3/14/2021 9:15:00 AM 2.89 37.202 0.57 7.09 56.43 0.24
3/14/2021 9:30:00 AM 2.88 37.184 0.571 7.1 56.32 0.24
3/14/2021 9:45:00 AM 2.87 37.166 0.571 7.1 56.46 0.24
3/14/2021 10:00:00 AM 2.86 37.148 0.571 7.1 56.24 0.24
3/14/2021 10:15:00 AM 2.85 37.13 0.572 7.1 56.29 0.24
3/14/2021 10:30:00 AM 2.84 37.112 0.572 7.1 56.27 0.24
3/14/2021 10:45:00 AM 2.83 37.094 0.572 7.1 56.32 0.24
3/14/2021 11:00:00 AM 2.83 37.094 0.572 7.1 56.5 0.24
3/14/2021 11:15:00 AM 2.84 37.112 0.573 7.1 56.64 0.24
3/14/2021 11:30:00 AM 2.85 37.13 0.573 7.1 56.56 0.24
3/14/2021 11:45:00 AM 2.87 37.166 0.573 7.1 56.57 0.24
3/14/2021 12:00:00 PM 2.87 37.166 0.574 7.11 56.81 0.24
3/14/2021 12:15:00 PM 2.88 37.184 0.574 7.11 56.88 0.24
3/14/2021 12:30:00 PM 2.88 37.184 0.575 7.11 56.98 0.24
3/14/2021 12:45:00 PM 2.89 37.202 0.576 7.11 56.84 0.24
3/14/2021 1:00:00 PM 2.9 37.22 0.576 7.11 56.8 0.24
3/14/2021 1:15:00 PM 2.91 37.238 0.577 7.11 56.74 0.24
3/14/2021 1:30:00 PM 2.93 37.274 0.577 7.11 56.74 0.24
3/14/2021 1:45:00 PM 2.94 37.292 0.578 7.11 56.67 0.24
3/14/2021 2:00:00 PM 2.96 37.328 0.579 7.12 56.58 0.24
3/14/2021 2:15:00 PM 2.98 37.364 0.58 7.12 56.54 0.24
3/14/2021 2:30:00 PM 3.01 37.418 0.58 7.12 56.53 0.24
3/14/2021 2:45:00 PM 3.03 37.454 0.58 7.12 56.48 0.24
3/14/2021 3:00:00 PM 3.05 37.49 0.581 7.12 56.79 0.24
3/14/2021 3:15:00 PM 3.07 37.526 0.581 7.12 56.53 0.24
3/14/2021 3:30:00 PM 3.08 37.544 0.582 7.12 56.55 0.24
3/14/2021 3:45:00 PM 3.08 37.544 0.583 7.12 56.41 0.24
3/14/2021 4:00:00 PM 3.1 37.58 0.583 7.12 56.43 0.24
3/14/2021 4:15:00 PM 3.11 37.598 0.584 7.12 56.65 0.24
3/14/2021 4:30:00 PM 3.11 37.598 0.584 7.12 56.84 0.24
3/14/2021 4:45:00 PM 3.12 37.616 0.584 7.12 56.61 0.24
3/14/2021 5:00:00 PM 3.12 37.616 0.584 7.12 56.51 0.24
3/14/2021 5:15:00 PM 3.12 37.616 0.584 7.12 56.4 0.24
3/14/2021 5:30:00 PM 3.13 37.634 0.585 7.12 56.15 0.24
3/14/2021 5:45:00 PM 3.13 37.634 0.585 7.12 56.08 0.24
3/14/2021 6:00:00 PM 3.13 37.634 0.585 7.12 56.2 0.24
3/14/2021 6:15:00 PM 3.13 37.634 0.585 7.12 56.24 0.24
3/14/2021 6:30:00 PM 3.13 37.634 0.585 7.12 56.41 0.24
3/14/2021 6:45:00 PM 3.12 37.616 0.585 7.12 56.46 0.24
3/14/2021 7:00:00 PM 3.11 37.598 0.585 7.12 56.38 0.24
3/14/2021 7:15:00 PM 3.1 37.58 0.585 7.12 56.64 0.24
3/14/2021 7:30:00 PM 3.09 37.562 0.585 7.12 56.57 0.24
3/14/2021 7:45:00 PM 3.07 37.526 0.585 7.12 56.41 0.24
3/14/2021 8:00:00 PM 3.06 37.508 0.585 7.12 56.37 0.24
3/14/2021 8:15:00 PM 3.04 37.472 0.585 7.12 56.41 0.24
3/14/2021 8:30:00 PM 3.02 37.436 0.585 7.12 56.27 0.24
3/14/2021 8:45:00 PM 2.99 37.382 0.586 7.12 56.33 0.24
3/14/2021 9:00:00 PM 2.97 37.346 0.586 7.12 56.25 0.24
3/14/2021 9:15:00 PM 2.95 37.31 0.586 7.12 56.19 0.24
3/14/2021 9:30:00 PM 2.93 37.274 0.586 7.12 56.3 0.24
3/14/2021 9:45:00 PM 2.91 37.238 0.587 7.12 56.37 0.24
3/14/2021 10:00:00 PM 2.89 37.202 0.587 7.12 56.46 0.24
3/14/2021 10:15:00 PM 2.86 37.148 0.587 7.12 56.47 0.24
3/14/2021 10:30:00 PM 2.84 37.112 0.587 7.12 56.39 0.24
3/14/2021 10:45:00 PM 2.81 37.058 0.587 7.12 56.39 0.24
3/14/2021 11:00:00 PM 2.78 37.004 0.587 7.12 56.28 0.24
3/14/2021 11:15:00 PM 2.75 36.95 0.586 7.13 56.21 0.24
3/14/2021 11:30:00 PM 2.72 36.896 0.584 7.13 56.12 0.24
3/14/2021 11:45:00 PM 2.69 36.842 0.583 7.13 55.79 0.24
3/15/2021 12:00:00 AM 2.65 36.77 0.584 7.13 55.55 0.24
3/15/2021 12:15:00 AM 2.61 36.698 0.607 7.13 55.96 0.24
3/15/2021 12:30:00 AM 2.58 36.644 0.604 7.13 55.96 0.24
3/15/2021 12:45:00 AM 2.54 36.572 0.601 7.14 56.02 0.24
3/15/2021 1:00:00 AM 2.5 36.5 0.596 7.14 55.9 0.24
3/15/2021 1:15:00 AM 2.46 36.428 0.592 7.15 56.27 0.24
3/15/2021 1:30:00 AM 2.42 36.356 0.588 7.15 56.25 0.24
3/15/2021 1:45:00 AM 2.38 36.284 0.585 7.16 56.21 0.24
3/15/2021 2:00:00 AM 2.34 36.212 0.582 7.16 56.36 0.24
3/15/2021 2:15:00 AM 2.31 36.158 0.579 7.16 56.5 0.24
3/15/2021 2:30:00 AM 2.27 36.086 0.576 7.16 56.65 0.24
3/15/2021 2:45:00 AM 2.24 36.032 0.574 7.17 56.82 0.24
3/15/2021 3:00:00 AM 2.2 35.96 0.572 7.17 56.96 0.24
3/15/2021 3:15:00 AM 2.17 35.906 0.571 7.17 57.06 0.24
3/15/2021 3:30:00 AM 2.14 35.852 0.569 7.17 57.16 0.25
3/15/2021 3:45:00 AM 2.11 35.798 0.567 7.17 57.14 0.25
3/15/2021 4:00:00 AM 2.09 35.762 0.566 7.17 57.04 0.25
3/15/2021 4:15:00 AM 2.06 35.708 0.564 7.18 56.99 0.25
3/15/2021 4:30:00 AM 2.03 35.654 0.561 7.18 56.68 0.25
3/15/2021 4:45:00 AM 2.01 35.618 0.557 7.18 56.44 0.24
3/15/2021 5:00:00 AM 1.98 35.564 0.554 7.18 56.16 0.25
3/15/2021 5:15:00 AM 1.95 35.51 0.596 7.18 55.4 0.25
3/15/2021 5:30:00 AM 1.92 35.456 0.591 7.19 55.38 0.25
3/15/2021 5:45:00 AM 1.9 35.42 0.585 7.2 55.44 0.25
3/15/2021 6:00:00 AM 1.87 35.366 0.581 7.2 55.39 0.25
3/15/2021 6:15:00 AM 1.85 35.33 0.578 7.21 55.42 0.25
3/15/2021 6:30:00 AM 1.83 35.294 0.576 7.21 55.17 0.25
3/15/2021 6:45:00 AM 1.8 35.24 0.573 7.21 55.43 0.25
3/15/2021 7:00:00 AM 1.78 35.204 0.569 7.21 55.55 0.25
3/15/2021 7:15:00 AM 1.76 35.168 0.567 7.21 55.81 0.25
3/15/2021 7:30:00 AM 1.74 35.132 0.564 7.21 55.52 0.25
3/15/2021 7:45:00 AM 1.71 35.078 0.562 7.21 55.55 0.25
3/15/2021 8:00:00 AM 1.69 35.042 0.561 7.21 55.64 0.25
3/15/2021 8:15:00 AM 1.67 35.006 0.559 7.21 55.57 0.25
3/15/2021 8:30:00 AM 1.65 34.97 0.558 7.21 55.61 0.25
3/15/2021 8:45:00 AM 1.63 34.934 0.557 7.21 55.63 0.25
3/15/2021 9:00:00 AM 1.61 34.898 0.556 7.21 55.65 0.25
3/15/2021 9:15:00 AM 1.59 34.862 0.554 7.21 55.56 0.25
3/15/2021 9:30:00 AM 1.58 34.844 0.553 7.21 55.78 0.25
3/15/2021 9:45:00 AM 1.56 34.808 0.551 7.21 55.72 0.25
3/15/2021 10:00:00 AM 1.54 34.772 0.549 7.21 55.29 0.25
3/15/2021 10:15:00 AM 1.53 34.754 0.548 7.21 55.19 0.25
3/15/2021 10:30:00 AM 1.52 34.736 0.547 7.2 55.58 0.25
3/15/2021 10:45:00 AM 1.52 34.736 0.545 7.21 55.53 0.25
3/15/2021 11:00:00 AM 1.52 34.736 0.544 7.2 55.62 0.25
3/15/2021 11:15:00 AM 1.53 34.754 0.543 7.2 55.79 0.25
3/15/2021 11:30:00 AM 1.54 34.772 0.541 7.2 55.85 0.25
3/15/2021 11:45:00 AM 1.56 34.808 0.54 7.2 55.84 0.25
3/15/2021 12:00:00 PM 1.59 34.862 0.539 7.2 55.8 0.25
3/15/2021 12:15:00 PM 1.62 34.916 0.537 7.2 55.73 0.25
3/15/2021 12:30:00 PM 1.65 34.97 0.536 7.2 55.79 0.25
3/15/2021 12:45:00 PM 1.69 35.042 0.536 7.2 55.99 0.25
3/15/2021 1:00:00 PM 1.73 35.114 0.535 7.2 56.12 0.25
3/15/2021 1:15:00 PM 1.76 35.168 0.534 7.2 56.23 0.25
3/15/2021 1:30:00 PM 1.8 35.24 0.532 7.2 56.04 0.25
3/15/2021 1:45:00 PM 1.84 35.312 0.531 7.2 56.11 0.25
3/15/2021 2:00:00 PM 1.88 35.384 0.529 7.2 56.4 0.25
3/15/2021 2:15:00 PM 1.92 35.456 0.528 7.2 56.23 0.25
3/15/2021 2:30:00 PM 1.96 35.528 0.528 7.2 56.31 0.25
3/15/2021 2:45:00 PM 2 35.6 0.527 7.2 56.03 0.25
3/15/2021 3:00:00 PM 2.03 35.654 0.525 7.2 56.08 0.25
3/15/2021 3:15:00 PM 2.07 35.726 0.524 7.2 55.7 0.25
3/15/2021 3:30:00 PM 2.1 35.78 0.522 7.19 55.46 0.25
3/15/2021 3:45:00 PM 2.14 35.852 0.522 7.19 55.16 0.24
3/15/2021 4:00:00 PM 2.17 35.906 0.521 7.19 54.93 0.24
3/15/2021 4:15:00 PM 2.19 35.942 0.522 7.19 54.6 0.24
3/15/2021 4:30:00 PM 2.22 35.996 0.548 7.19 53.93 0.25
3/15/2021 4:45:00 PM 2.24 36.032 0.547 7.2 53.81 0.24
3/15/2021 5:00:00 PM 2.26 36.068 0.544 7.21 53.85 0.24
3/15/2021 5:15:00 PM 2.27 36.086 0.542 7.21 54.08 0.25
3/15/2021 5:30:00 PM 2.28 36.104 0.539 7.21 53.97 0.24
3/15/2021 5:45:00 PM 2.29 36.122 0.536 7.21 54.05 0.24
3/15/2021 6:00:00 PM 2.28 36.104 0.534 7.2 54.04 0.25
3/15/2021 6:15:00 PM 2.28 36.104 0.532 7.2 53.85 0.24
3/15/2021 6:30:00 PM 2.27 36.086 0.531 7.2 54.06 0.25
3/15/2021 6:45:00 PM 2.25 36.05 0.528 7.2 54.23 0.24
3/15/2021 7:00:00 PM 2.24 36.032 0.526 7.2 54.17 0.25
3/15/2021 7:15:00 PM 2.22 35.996 0.524 7.19 54.35 0.24
3/15/2021 7:30:00 PM 2.21 35.978 0.522 7.19 54.4 0.24
3/15/2021 7:45:00 PM 2.19 35.942 0.521 7.19 54.46 0.24
3/15/2021 8:00:00 PM 2.17 35.906 0.519 7.19 54.57 0.24
3/15/2021 8:15:00 PM 2.16 35.888 0.516 7.19 54.7 0.24
3/15/2021 8:30:00 PM 2.15 35.87 0.514 7.19 55.11 0.25
3/15/2021 8:45:00 PM 2.14 35.852 0.512 7.18 55.27 0.24
3/15/2021 9:00:00 PM 2.13 35.834 0.51 7.18 55.33 0.25
3/15/2021 9:15:00 PM 2.12 35.816 0.508 7.18 55.33 0.24
3/15/2021 9:30:00 PM 2.11 35.798 0.507 7.18 55.58 0.25
3/15/2021 9:45:00 PM 2.1 35.78 0.505 7.18 55.58 0.24
3/15/2021 10:00:00 PM 2.09 35.762 0.503 7.18 55.58 0.25
3/15/2021 10:15:00 PM 2.08 35.744 0.502 7.18 55.65 0.25
3/15/2021 10:30:00 PM 2.07 35.726 0.501 7.18 55.85 0.25
3/15/2021 10:45:00 PM 2.06 35.708 0.5 7.18 55.8 0.25
3/15/2021 11:00:00 PM 2.05 35.69 0.499 7.18 55.66 0.25
3/15/2021 11:15:00 PM 2.04 35.672 0.497 7.18 56.09 0.25
3/15/2021 11:30:00 PM 2.03 35.654 0.496 7.18 55.85 0.25
3/15/2021 11:45:00 PM 2.02 35.636 0.495 7.18 55.67 0.25
3/16/2021 12:00:00 AM 2 35.6 0.494 7.18 55.74 0.25
3/16/2021 12:15:00 AM 1.99 35.582 0.494 7.18 55.51 0.24
3/16/2021 12:30:00 AM 1.97 35.546 0.493 7.18 55.47 0.24
3/16/2021 12:45:00 AM 1.95 35.51 0.493 7.18 55.43 0.25
3/16/2021 1:00:00 AM 1.93 35.474 0.493 7.18 55.43 0.25
3/16/2021 1:15:00 AM 1.91 35.438 0.543 7.19 55.3 0.24
3/16/2021 1:30:00 AM 1.89 35.402 0.537 7.2 56.31 0.25
3/16/2021 1:45:00 AM 1.87 35.366 0.53 7.2 57.37 0.25
3/16/2021 2:00:00 AM 1.85 35.33 0.524 7.21 57.76 0.25
3/16/2021 2:15:00 AM 1.83 35.294 0.519 7.21 58.53 0.25
3/16/2021 2:30:00 AM 1.8 35.24 0.514 7.21 59.72 0.25
3/16/2021 2:45:00 AM 1.78 35.204 0.51 7.21 60.3 0.25
3/16/2021 3:00:00 AM 1.76 35.168 0.505 7.21 61.47 0.25
3/16/2021 3:15:00 AM 1.74 35.132 0.501 7.21 61.89 0.25
3/16/2021 3:30:00 AM 1.72 35.096 0.498 7.21 63.19 0.25
3/16/2021 3:45:00 AM 1.7 35.06 0.494 7.21 63.59 0.25
3/16/2021 4:00:00 AM 1.69 35.042 0.49 7.21 69.03 0.25
3/16/2021 4:15:00 AM 1.67 35.006 0.486 7.21 69.42 0.25
3/16/2021 4:30:00 AM 1.66 34.988 0.484 7.21 70.67 0.25
3/16/2021 4:45:00 AM 1.65 34.97 0.483 7.21 71.26 0.25
3/16/2021 5:00:00 AM 1.64 34.952 0.483 7.21 71.49 0.25
3/16/2021 5:15:00 AM 1.63 34.934 0.52 7.24 85.13 0.25
3/16/2021 5:30:00 AM 1.63 34.934 0.509 7.24 94.24 0.25
3/16/2021 5:45:00 AM 1.62 34.916 0.501 7.24 107.2 0.25
3/16/2021 6:00:00 AM 1.61 34.898 0.494 7.23 116.38 0.25
3/16/2021 6:15:00 AM 1.61 34.898 0.488 7.23 129.67 0.25
3/16/2021 6:30:00 AM 1.6 34.88 0.482 7.23 182.69 0.25
3/16/2021 6:45:00 AM 1.6 34.88 0.475 7.23 192.04 0.25
3/16/2021 7:00:00 AM 1.59 34.862 0.47 7.23 202.67 0.25
3/16/2021 7:15:00 AM 1.59 34.862 0.467 7.22 206.94 0.25
3/16/2021 7:30:00 AM 1.59 34.862 0.465 7.22 212.38 0.25
3/16/2021 7:45:00 AM 1.59 34.862 0.517 7.21 227.06 0.25
3/16/2021 8:00:00 AM 1.58 34.844 0.508 7.19 221.4 0.25
3/16/2021 8:15:00 AM 1.58 34.844 0.496 7.22 283.92 0.25
3/16/2021 8:30:00 AM 1.58 34.844 0.486 7.22 289.3 0.25
3/16/2021 8:45:00 AM 1.58 34.844 0.478 7.22 282.89 0.25
3/16/2021 9:00:00 AM 1.58 34.844 0.472 7.21 287.32 0.25
3/16/2021 9:15:00 AM 1.58 34.844 0.466 7.21 308.2 0.25
3/16/2021 9:30:00 AM 1.59 34.862 0.461 7.21 311.35 0.25
3/16/2021 9:45:00 AM 1.59 34.862 0.454 7.2 307.26 0.25
3/16/2021 10:00:00 AM 1.59 34.862 0.448 7.2 363.42 0.25
3/16/2021 10:15:00 AM 1.59 34.862 0.443 7.2 414.18 0.25
3/16/2021 10:30:00 AM 1.59 34.862 0.482 7.2 385.58 0.25
3/16/2021 10:45:00 AM 1.6 34.88 0.48 7.16 409.68 0.25
3/16/2021 11:00:00 AM 1.6 34.88 0.474 7.2 430.95 0.25
3/16/2021 11:15:00 AM 1.6 34.88 0.468 7.21 401.33 0.25
3/16/2021 11:30:00 AM 1.6 34.88 0.463 7.21 410.04 0.25
3/16/2021 11:45:00 AM 1.6 34.88 0.459 7.21 411.57 0.25
3/16/2021 12:00:00 PM 1.6 34.88 0.454 7.2 405.75 0.25
3/16/2021 12:15:00 PM 1.6 34.88 0.45 7.2 347.44 0.25
3/16/2021 12:30:00 PM 1.6 34.88 0.446 7.2 351.31 0.25
3/16/2021 12:45:00 PM 1.6 34.88 0.441 7.19 353.38 0.25
3/16/2021 1:00:00 PM 1.59 34.862 0.434 7.19 345.33 0.25
3/16/2021 1:15:00 PM 1.59 34.862 0.429 7.19 411.48 0.25
3/16/2021 1:30:00 PM 1.59 34.862 0.462 7.2 253.17 0.25
3/16/2021 1:45:00 PM 1.59 34.862 0.458 7.21 338.82 0.25
3/16/2021 2:00:00 PM 1.59 34.862 0.454 7.21 368.9 0.25
3/16/2021 2:15:00 PM 1.6 34.88 0.449 7.21 382 0.25
3/16/2021 2:30:00 PM 1.61 34.898 0.445 7.21 393.39 0.25
3/16/2021 2:45:00 PM 1.62 34.916 0.442 7.21 399.88 0.25
3/16/2021 3:00:00 PM 1.62 34.916 0.438 7.2 412.71 0.25
3/16/2021 3:15:00 PM 1.61 34.898 0.435 7.2 409.64 0.25
3/16/2021 3:30:00 PM 1.6 34.88 0.431 7.2 416.85 0.25
3/16/2021 3:45:00 PM 1.59 34.862 0.427 7.19 424.52 0.25
3/16/2021 4:00:00 PM 1.58 34.844 0.422 7.19 430.62 0.25
3/16/2021 4:15:00 PM 1.56 34.808 0.418 7.19 437.42 0.25
3/16/2021 4:30:00 PM 1.54 34.772 0.415 7.19 441.77 0.25
3/16/2021 4:45:00 PM 1.52 34.736 0.458 7.18 316.48 0.25
3/16/2021 5:00:00 PM 1.5 34.7 0.449 7.17 283.3 0.25
3/16/2021 5:15:00 PM 1.47 34.646 0.442 7.16 301.97 0.25
3/16/2021 5:30:00 PM 1.45 34.61 0.438 7.15 313.71 0.25
3/16/2021 5:45:00 PM 1.43 34.574 0.433 7.15 266.93 0.25
3/16/2021 6:00:00 PM 1.41 34.538 0.428 7.15 270.65 0.25
3/16/2021 6:15:00 PM 1.39 34.502 0.42 7.14 281.55 0.25
3/16/2021 6:30:00 PM 1.38 34.484 0.41 7.14 291.21 0.25
3/16/2021 6:45:00 PM 1.37 34.466 0.443 7.14 263.21 0.25
3/16/2021 7:00:00 PM 1.36 34.448 0.433 7.17 268.02 0.25
3/16/2021 7:15:00 PM 1.34 34.412 0.423 7.17 281.57 0.25
3/16/2021 7:30:00 PM 1.33 34.394 0.408 7.17 299.96 0.25
3/16/2021 7:45:00 PM 1.32 34.376 0.43 7.18 245.5 0.25
3/16/2021 8:00:00 PM 1.31 34.358 0.419 7.18 231.65 0.25
3/16/2021 8:15:00 PM 1.3 34.34 0.402 7.18 244.68 0.25
3/16/2021 8:30:00 PM 1.29 34.322 0.433 7.18 229.28 0.25
3/16/2021 8:45:00 PM 1.28 34.304 0.418 7.18 233.8 0.25
3/16/2021 9:00:00 PM 1.27 34.286 0.401 7.18 307.67 0.25
3/16/2021 9:15:00 PM 1.27 34.286 0.413 7.18 280.33 0.25
3/16/2021 9:30:00 PM 1.27 34.286 0.408 7.14 256.09 0.25
3/16/2021 9:45:00 PM 1.27 34.286 0.401 7.14 260.55 0.25
3/16/2021 10:00:00 PM 1.27 34.286 0.383 7.15 279.8 0.25
3/16/2021 10:15:00 PM 1.27 34.286 0.405 7.15 180.52 0.25
3/16/2021 10:30:00 PM 1.27 34.286 0.397 7.13 197.56 0.25
3/16/2021 10:45:00 PM 1.27 34.286 0.386 7.13 237.05 0.25
3/16/2021 11:00:00 PM 1.28 34.304 0.378 7.13 254.18 0.25
3/16/2021 11:15:00 PM 1.28 34.304 0.364 7.13 280.22 0.25
3/16/2021 11:30:00 PM 1.28 34.304 0.392 7.05 188.91 0.25
3/16/2021 11:45:00 PM 1.28 34.304 0.387 7.01 199.14 0.25
3/17/2021 12:00:00 AM 1.28 34.304 0.384 7.02 205.41 0.25
3/17/2021 12:15:00 AM 1.28 34.304 0.382 7.02 207.06 0.25
3/17/2021 12:30:00 AM 1.28 34.304 0.38 7.03 210.2 0.25
3/17/2021 12:45:00 AM 1.27 34.286 0.378 7.02 212.84 0.25
3/17/2021 1:00:00 AM 1.27 34.286 0.376 7.02 217.63 0.25
3/17/2021 1:15:00 AM 1.27 34.286 0.375 7.02 220.22 0.25
3/17/2021 1:30:00 AM 1.27 34.286 0.373 7.02 220.16 0.25
3/17/2021 1:45:00 AM 1.27 34.286 0.371 7.02 222.59 0.25
3/17/2021 2:00:00 AM 1.27 34.286 0.369 7.02 221.33 0.25
3/17/2021 2:15:00 AM 1.26 34.268 0.367 7.02 222.55 0.25
3/17/2021 2:30:00 AM 1.26 34.268 0.366 7.02 224.04 0.25
3/17/2021 2:45:00 AM 1.26 34.268 0.364 7.02 223.2 0.25
3/17/2021 3:00:00 AM 1.26 34.268 0.363 7.02 225.11 0.25
3/17/2021 3:15:00 AM 1.26 34.268 0.362 7.02 227.52 0.25
3/17/2021 3:30:00 AM 1.27 34.286 0.361 7.02 227.25 0.25
3/17/2021 3:45:00 AM 1.27 34.286 0.36 7.02 229.15 0.25
3/17/2021 4:00:00 AM 1.28 34.304 0.36 7.02 230.19 0.25
3/17/2021 4:15:00 AM 1.28 34.304 0.359 7.02 232.96 0.25
3/17/2021 4:30:00 AM 1.29 34.322 0.358 7.02 235.74 0.25
3/17/2021 4:45:00 AM 1.29 34.322 0.358 7.02 237.81 0.25
3/17/2021 5:00:00 AM 1.3 34.34 0.357 7.02 239.05 0.25
3/17/2021 5:15:00 AM 1.3 34.34 0.356 7.02 242.21 0.25
3/17/2021 5:30:00 AM 1.31 34.358 0.355 7.02 244.56 0.25
3/17/2021 5:45:00 AM 1.32 34.376 0.353 7.02 243.08 0.25
3/17/2021 6:00:00 AM 1.33 34.394 0.352 7.02 243.05 0.25
3/17/2021 6:15:00 AM 1.34 34.412 0.351 7.02 242.46 0.25
3/17/2021 6:30:00 AM 1.35 34.43 0.35 7.02 243.4 0.25
3/17/2021 6:45:00 AM 1.36 34.448 0.349 7.02 245.18 0.25
3/17/2021 7:00:00 AM 1.36 34.448 0.348 7.02 247.71 0.25
3/17/2021 7:15:00 AM 1.37 34.466 0.347 7.02 249.88 0.25
3/17/2021 7:30:00 AM 1.38 34.484 0.347 7.02 251.7 0.25
3/17/2021 7:45:00 AM 1.39 34.502 0.347 7.02 252.27 0.25
3/17/2021 8:00:00 AM 1.39 34.502 0.347 7.02 254.07 0.25
3/17/2021 8:15:00 AM 1.4 34.52 0.388 7.1 185.9 0.25
3/17/2021 8:30:00 AM 1.41 34.538 0.386 7.09 173.86 0.25
3/17/2021 8:45:00 AM 1.41 34.538 0.383 7.09 177.71 0.25
3/17/2021 9:00:00 AM 1.42 34.556 0.379 7.08 196.29 0.25
3/17/2021 9:15:00 AM 1.43 34.574 0.374 7.07 195.68 0.25
3/17/2021 9:30:00 AM 1.43 34.574 0.37 7.06 197.01 0.25
3/17/2021 9:45:00 AM 1.44 34.592 0.367 7.06 198.88 0.25
3/17/2021 10:00:00 AM 1.45 34.61 0.363 7.06 201.27 0.25
3/17/2021 10:15:00 AM 1.46 34.628 0.358 7.05 207.91 0.25
3/17/2021 10:30:00 AM 1.47 34.646 0.351 7.05 208.95 0.25
3/17/2021 10:45:00 AM 1.48 34.664 0.383 7.09 143.84 0.25
3/17/2021 11:00:00 AM 1.5 34.7 0.379 7.07 146.67 0.25
3/17/2021 11:15:00 AM 1.51 34.718 0.373 7.06 164.41 0.25
3/17/2021 11:30:00 AM 1.52 34.736 0.368 7.06 180.58 0.25
3/17/2021 11:45:00 AM 1.54 34.772 0.363 7.06 191.77 0.25
3/17/2021 12:00:00 PM 1.56 34.808 0.359 7.05 195.64 0.24
3/17/2021 12:15:00 PM 1.59 34.862 0.342 7.05 194.83 0.25
3/17/2021 12:30:00 PM 1.61 34.898 0.366 7.05 163.72 0.25
3/17/2021 12:45:00 PM 1.64 34.952 0.363 7.05 156.07 0.25
3/17/2021 1:00:00 PM 1.67 35.006 0.36 7.05 150.52 0.25
3/17/2021 1:15:00 PM 1.7 35.06 0.357 7.06 141.81 0.24
3/17/2021 1:30:00 PM 1.73 35.114 0.355 7.06 139.79 0.24
3/17/2021 1:45:00 PM 1.77 35.186 0.352 7.06 143.93 0.24
3/17/2021 2:00:00 PM 1.81 35.258 0.35 7.06 149.51 0.24
3/17/2021 2:15:00 PM 1.85 35.33 0.349 7.06 152.38 0.24
3/17/2021 2:30:00 PM 1.91 35.438 0.348 7.06 154.58 0.24
3/17/2021 2:45:00 PM 1.97 35.546 0.347 7.05 157.43 0.24
3/17/2021 3:00:00 PM 2.04 35.672 0.346 7.05 156.48 0.24
3/17/2021 3:15:00 PM 2.1 35.78 0.344 7.05 152.05 0.24
3/17/2021 3:30:00 PM 2.16 35.888 0.344 7.06 154.21 0.24
3/17/2021 3:45:00 PM 2.21 35.978 0.343 7.05 155.32 0.24
3/17/2021 4:00:00 PM 2.25 36.05 0.342 7.05 157.56 0.24
3/17/2021 4:15:00 PM 2.28 36.104 0.342 7.04 160.44 0.24
3/17/2021 4:30:00 PM 2.31 36.158 0.341 7.04 163.48 0.24
3/17/2021 4:45:00 PM 2.34 36.212 0.339 7.04 164.59 0.24
3/17/2021 5:00:00 PM 2.36 36.248 0.336 7.04 172.81 0.24
3/17/2021 5:15:00 PM 2.38 36.284 0.346 7.06 132.55 0.24
3/17/2021 5:30:00 PM 2.39 36.302 0.347 7.12 134.67 0.24
3/17/2021 5:45:00 PM 2.4 36.32 0.345 7.12 127.39 0.24
3/17/2021 6:00:00 PM 2.39 36.302 0.343 7.12 125.19 0.24
3/17/2021 6:15:00 PM 2.38 36.284 0.342 7.11 131.54 0.24
3/17/2021 6:30:00 PM 2.36 36.248 0.339 7.11 138.71 0.24
3/17/2021 6:45:00 PM 2.34 36.212 0.338 7.1 160.99 0.24
3/17/2021 7:00:00 PM 2.31 36.158 0.337 7.1 171.09 0.24
3/17/2021 7:15:00 PM 2.29 36.122 0.336 7.09 176.59 0.24
3/17/2021 7:30:00 PM 2.26 36.068 0.336 7.09 177.55 0.24
3/17/2021 7:45:00 PM 2.24 36.032 0.335 7.08 177.71 0.24
3/17/2021 8:00:00 PM 2.22 35.996 0.334 7.08 153.23 0.24
3/17/2021 8:15:00 PM 2.2 35.96 0.334 7.08 162.23 0.24
3/17/2021 8:30:00 PM 2.18 35.924 0.333 7.08 162.09 0.24
3/17/2021 8:45:00 PM 2.16 35.888 0.333 7.08 166.71 0.24
3/17/2021 9:00:00 PM 2.15 35.87 0.333 7.07 169.15 0.24
3/17/2021 9:15:00 PM 2.14 35.852 0.332 7.07 171.54 0.24
3/17/2021 9:30:00 PM 2.13 35.834 0.331 7.07 174.33 0.24
3/17/2021 9:45:00 PM 2.13 35.834 0.33 7.07 180.17 0.24
3/17/2021 10:00:00 PM 2.12 35.816 0.328 7.07 169.96 0.24
3/17/2021 10:15:00 PM 2.12 35.816 0.344 7.08 132.51 0.24
3/17/2021 10:30:00 PM 2.11 35.798 0.34 7.09 130.31 0.24
3/17/2021 10:45:00 PM 2.1 35.78 0.336 7.09 120.72 0.24
3/17/2021 11:00:00 PM 2.1 35.78 0.333 7.09 113.52 0.24
3/17/2021 11:15:00 PM 2.09 35.762 0.331 7.08 116.24 0.24
3/17/2021 11:30:00 PM 2.09 35.762 0.33 7.08 113.05 0.24
3/17/2021 11:45:00 PM 2.09 35.762 0.329 7.07 108.75 0.24
3/18/2021 12:00:00 AM 2.09 35.762 0.328 7.07 109.44 0.24
3/18/2021 12:15:00 AM 2.09 35.762 0.327 7.07 113.4 0.24
3/18/2021 12:30:00 AM 2.09 35.762 0.325 7.06 117.61 0.24
3/18/2021 12:45:00 AM 2.09 35.762 0.324 7.06 122.85 0.24
3/18/2021 1:00:00 AM 2.09 35.762 0.323 7.06 125.35 0.24
3/18/2021 1:15:00 AM 2.09 35.762 0.322 7.06 132.73 0.24
3/18/2021 1:30:00 AM 2.09 35.762 0.321 7.07 130.38 0.24
3/18/2021 1:45:00 AM 2.08 35.744 0.32 7.07 138.17 0.24
3/18/2021 2:00:00 AM 2.08 35.744 0.32 7.07 124.96 0.24
3/18/2021 2:15:00 AM 2.07 35.726 0.35 7.09 110.19 0.24
3/18/2021 2:30:00 AM 2.07 35.726 0.339 7.1 100.59 0.24
3/18/2021 2:45:00 AM 2.06 35.708 0.333 7.1 103.58 0.24
3/18/2021 3:00:00 AM 2.05 35.69 0.332 7.1 104.13 0.24
3/18/2021 3:15:00 AM 2.04 35.672 0.33 7.1 104.77 0.24
3/18/2021 3:30:00 AM 2.03 35.654 0.328 7.1 108.26 0.24
3/18/2021 3:45:00 AM 2.02 35.636 0.327 7.1 111.09 0.24
3/18/2021 4:00:00 AM 2.01 35.618 0.326 7.1 116.86 0.24
3/18/2021 4:15:00 AM 2 35.6 0.327 7.1 120.38 0.24
3/18/2021 4:30:00 AM 1.99 35.582 0.327 7.1 124.55 0.24
3/18/2021 4:45:00 AM 1.99 35.582 0.327 7.1 128.62 0.24
3/18/2021 5:00:00 AM 1.98 35.564 0.327 7.1 131.75 0.24
3/18/2021 5:15:00 AM 1.97 35.546 0.327 7.1 132.75 0.24
3/18/2021 5:30:00 AM 1.97 35.546 0.325 7.1 135.53 0.24
3/18/2021 5:45:00 AM 1.96 35.528 0.323 7.1 136.07 0.24
3/18/2021 6:00:00 AM 1.96 35.528 0.32 7.09 137.19 0.24
3/18/2021 6:15:00 AM -99999.99 -179968 -99999.99 -99999.99 -99999.99 -99999.99
3/18/2021 6:30:00 AM -99999.99 -179968 -99999.99 -99999.99 -99999.99 -99999.99
3/18/2021 6:45:00 AM -99999.99 -179968 -99999.99 -99999.99 -99999.99 -99999.99
3/18/2021 7:00:00 AM 1.95 35.51 0.321 7.09 135.19 0.24
3/18/2021 7:15:00 AM 1.95 35.51 0.348 7.07 82.44 0.24
3/18/2021 7:30:00 AM 1.95 35.51 0.343 7.06 82.08 0.24
3/18/2021 7:45:00 AM 1.95 35.51 0.336 7.06 88.75 0.24
3/18/2021 8:00:00 AM 1.96 35.528 0.327 7.05 95.04 0.24
3/18/2021 8:15:00 AM 1.97 35.546 0.318 7.02 97.4 0.24
3/18/2021 8:30:00 AM 1.98 35.564 0.312 6.97 111.88 0.24
3/18/2021 8:45:00 AM 1.99 35.582 0.309 6.96 114.24 0.24
3/18/2021 9:00:00 AM 2 35.6 0.307 6.96 119.26 0.24
3/18/2021 9:15:00 AM 2.02 35.636 0.305 6.95 123.56 0.24
3/18/2021 9:30:00 AM 2.04 35.672 0.312 7.04 102.7 0.24
3/18/2021 9:45:00 AM 2.07 35.726 0.315 7.02 93.82 0.24
3/18/2021 10:00:00 AM 2.08 35.744 0.31 7.03 105.58 0.24
3/18/2021 10:15:00 AM 2.1 35.78 0.305 7.03 114.84 0.24
3/18/2021 10:30:00 AM 2.13 35.834 0.302 7.02 126.97 0.24
3/18/2021 10:45:00 AM 2.15 35.87 0.299 7.02 131.28 0.24
3/18/2021 11:00:00 AM 2.17 35.906 0.296 7.02 137.68 0.24
3/18/2021 11:15:00 AM 2.2 35.96 0.295 7.02 144.77 0.24
3/18/2021 11:30:00 AM 2.22 35.996 0.294 7.01 148.9 0.24
3/18/2021 11:45:00 AM 2.24 36.032 0.293 7.01 149.97 0.24
3/18/2021 12:00:00 PM 2.27 36.086 0.303 7.08 88.82 0.24
3/18/2021 12:15:00 PM 2.29 36.122 0.295 7.08 95.56 0.24
3/18/2021 12:30:00 PM 2.31 36.158 0.291 7.08 100.89 0.24
3/18/2021 12:45:00 PM 2.33 36.194 0.289 7.07 107.81 0.24
3/18/2021 1:00:00 PM 2.35 36.23 0.286 7.07 111.43 0.24
3/18/2021 1:15:00 PM 2.37 36.266 0.296 7.1 92.7 0.24
3/18/2021 1:30:00 PM 2.39 36.302 0.279 7.1 97.37 0.24
3/18/2021 1:45:00 PM 2.4 36.32 0.306 7.1 85.64 0.24
3/18/2021 2:00:00 PM 2.42 36.356 0.295 7.09 97.16 0.24
3/18/2021 2:15:00 PM 2.43 36.374 0.287 7.07 107.34 0.24
3/18/2021 2:30:00 PM 2.44 36.392 0.282 7.06 114.88 0.24
3/18/2021 2:45:00 PM 2.46 36.428 0.276 7.05 118.45 0.24
3/18/2021 3:00:00 PM 2.47 36.446 0.305 7.11 89.25 0.24
3/18/2021 3:15:00 PM 2.47 36.446 0.299 7.1 97.71 0.24
3/18/2021 3:30:00 PM 2.48 36.464 0.29 7.06 106.29 0.24
3/18/2021 3:45:00 PM 2.48 36.464 0.283 7.05 107.42 0.24
3/18/2021 4:00:00 PM 2.48 36.464 0.275 7.04 116.54 0.24
3/18/2021 4:15:00 PM 2.49 36.482 0.268 7.03 128.97 0.24
3/18/2021 4:30:00 PM 2.49 36.482 0.294 7.05 86.98 0.24
3/18/2021 4:45:00 PM 2.49 36.482 0.287 7.01 107.33 0.24
3/18/2021 5:00:00 PM 2.49 36.482 0.279 7.01 116.63 0.24
3/18/2021 5:15:00 PM 2.49 36.482 0.272 7 123.88 0.24
3/18/2021 5:30:00 PM 2.48 36.464 0.263 6.99 124.13 0.24
3/18/2021 5:45:00 PM 2.48 36.464 0.286 7 104.64 0.24
3/18/2021 6:00:00 PM 2.48 36.464 0.271 6.99 121.13 0.23
3/18/2021 6:15:00 PM 2.47 36.446 0.285 7.08 106.48 0.24
3/18/2021 6:30:00 PM 2.47 36.446 0.283 7.03 116.71 0.24
3/18/2021 6:45:00 PM 2.46 36.428 0.279 7.02 121.08 0.24
3/18/2021 7:00:00 PM 2.46 36.428 0.276 7.02 129.29 0.24
3/18/2021 7:15:00 PM 2.45 36.41 0.273 7.02 134.25 0.24
3/18/2021 7:30:00 PM 2.44 36.392 0.269 7.02 137.16 0.24
3/18/2021 7:45:00 PM 2.44 36.392 0.26 7.01 137.34 0.24
3/18/2021 8:00:00 PM 2.43 36.374 0.266 7.06 122.78 0.24
3/18/2021 8:15:00 PM 2.43 36.374 0.271 7.04 102.86 0.24
3/18/2021 8:30:00 PM 2.42 36.356 0.273 7.02 119.92 0.24
3/18/2021 8:45:00 PM 2.42 36.356 0.269 7.02 129.87 0.23
3/18/2021 9:00:00 PM 2.41 36.338 0.265 7.02 135.93 0.24
3/18/2021 9:15:00 PM 2.41 36.338 0.258 7.02 136.45 0.24
3/18/2021 9:30:00 PM 2.41 36.338 0.267 7.06 110.08 0.24
3/18/2021 9:45:00 PM 2.4 36.32 0.262 7.03 130.67 0.24
3/18/2021 10:00:00 PM 2.4 36.32 0.254 7.04 134.74 0.24
3/18/2021 10:15:00 PM 2.4 36.32 0.266 7.06 99.29 0.24
3/18/2021 10:30:00 PM 2.4 36.32 0.268 7.01 108.92 0.24
3/18/2021 10:45:00 PM 2.39 36.302 0.265 7.01 118.76 0.24
3/18/2021 11:00:00 PM 2.39 36.302 0.263 7.01 124.14 0.24
3/18/2021 11:15:00 PM 2.39 36.302 0.261 7 128.84 0.24
3/18/2021 11:30:00 PM 2.39 36.302 0.26 7 131 0.24
3/18/2021 11:45:00 PM 2.38 36.284 0.257 7 132.34 0.24
3/19/2021 12:00:00 AM 2.38 36.284 0.254 7 132.46 0.24
3/19/2021 12:15:00 AM 2.38 36.284 0.25 6.99 134.95 0.24
3/19/2021 12:30:00 AM 2.38 36.284 0.246 6.99 136.62 0.24
3/19/2021 12:45:00 AM 2.37 36.266 0.265 7.03 95.53 0.24
3/19/2021 1:00:00 AM 2.37 36.266 0.26 7.02 103.04 0.24
3/19/2021 1:15:00 AM 2.36 36.248 0.255 7.02 112.85 0.23
3/19/2021 1:30:00 AM 2.36 36.248 0.253 7.02 123.3 0.24
3/19/2021 1:45:00 AM 2.35 36.23 0.25 7.02 133.12 0.24
3/19/2021 2:00:00 AM 2.34 36.212 0.245 7.01 137.4 0.23
3/19/2021 2:15:00 AM 2.34 36.212 0.268 7.03 99.03 0.24
3/19/2021 2:30:00 AM 2.33 36.194 0.263 7.03 110.79 0.24
3/19/2021 2:45:00 AM 2.32 36.176 0.258 7.02 125.65 0.24
3/19/2021 3:00:00 AM 2.31 36.158 0.254 7.02 133.26 0.24
3/19/2021 3:15:00 AM 2.3 36.14 0.25 7.02 142.23 0.24
3/19/2021 3:30:00 AM 2.29 36.122 0.246 7 146.3 0.24
3/19/2021 3:45:00 AM 2.29 36.122 0.255 7.11 96.88 0.26
3/19/2021 4:00:00 AM 2.27 36.086 0.259 7.04 93.86 0.25
3/19/2021 4:15:00 AM 2.26 36.068 0.256 7.01 102.55 0.24
3/19/2021 4:30:00 AM 2.25 36.05 0.249 7.02 113.76 0.24
3/19/2021 4:45:00 AM 2.23 36.014 0.263 7.08 90.19 0.5
3/19/2021 5:00:00 AM 2.22 35.996 0.262 7.02 94.45 0.24
3/19/2021 5:15:00 AM 2.2 35.96 0.256 7.03 99.13 0.24
3/19/2021 5:30:00 AM 2.19 35.942 0.253 7.01 108.14 0.24
3/19/2021 5:45:00 AM 2.17 35.906 0.251 7.01 117.05 0.24
3/19/2021 6:00:00 AM 2.15 35.87 0.248 7.02 125.69 0.24
3/19/2021 6:15:00 AM 2.14 35.852 0.246 7.02 133.86 0.24
3/19/2021 6:30:00 AM 2.12 35.816 0.243 7.03 138.25 0.24
3/19/2021 6:45:00 AM 2.1 35.78 0.241 7.07 138.19 0.24
3/19/2021 7:00:00 AM 2.09 35.762 0.278 7.01 79.95 1.23
3/19/2021 7:15:00 AM 2.07 35.726 0.283 6.99 81.56 0.3
3/19/2021 7:30:00 AM 2.05 35.69 0.284 6.99 83.7 0.24
3/19/2021 7:45:00 AM 2.03 35.654 0.285 7 84.9 0.24
3/19/2021 8:00:00 AM 2.01 35.618 0.284 7 87.48 0.24
3/19/2021 8:15:00 AM 1.99 35.582 0.285 7 91.13 0.24
3/19/2021 8:30:00 AM 1.97 35.546 0.286 7 92.67 0.24
3/19/2021 8:45:00 AM 1.94 35.492 0.286 7 95.94 0.24
3/19/2021 9:00:00 AM 1.92 35.456 0.286 7 99.61 0.24
3/19/2021 9:15:00 AM 1.9 35.42 0.286 7 99.44 0.24
3/19/2021 9:30:00 AM 1.89 35.402 0.287 6.99 101.6 0.24
3/19/2021 9:45:00 AM 1.88 35.384 0.288 6.99 104.68 0.24
3/19/2021 10:00:00 AM 1.88 35.384 0.288 6.99 107.17 0.24
3/19/2021 10:15:00 AM 1.88 35.384 0.289 6.98 108.17 0.24
3/19/2021 10:30:00 AM 1.88 35.384 0.288 6.98 110.45 0.24
3/19/2021 10:45:00 AM 1.88 35.384 0.288 6.98 111.3 0.24
3/19/2021 11:00:00 AM 1.9 35.42 0.287 6.98 110.37 0.24
3/19/2021 11:15:00 AM 1.91 35.438 0.286 6.98 110.91 0.24
3/19/2021 11:30:00 AM 1.93 35.474 0.286 6.98 112.22 0.24
3/19/2021 11:45:00 AM 1.96 35.528 0.284 6.98 113.86 0.24
3/19/2021 12:00:00 PM 1.98 35.564 0.285 6.98 117.47 0.24
3/19/2021 12:15:00 PM 2.01 35.618 0.284 6.98 118.21 0.24
3/19/2021 12:30:00 PM 2.04 35.672 0.283 6.98 117.85 0.24
3/19/2021 12:45:00 PM 2.08 35.744 0.282 6.98 120.64 0.24
3/19/2021 1:00:00 PM 2.11 35.798 0.281 6.98 121.2 0.24
3/19/2021 1:15:00 PM 2.14 35.852 0.282 6.99 122.21 0.24
3/19/2021 1:30:00 PM 2.18 35.924 0.279 6.98 123.46 0.24
3/19/2021 1:45:00 PM 2.22 35.996 0.281 6.98 123.54 0.24
3/19/2021 2:00:00 PM 2.26 36.068 0.28 6.98 121.39 0.24
3/19/2021 2:15:00 PM 2.3 36.14 0.28 6.98 122.3 0.24
3/19/2021 2:30:00 PM 2.34 36.212 0.279 6.99 122.22 0.24
3/19/2021 2:45:00 PM 2.38 36.284 0.279 6.98 123.16 0.24
3/19/2021 3:00:00 PM 2.42 36.356 0.278 6.98 123.39 0.24
3/19/2021 3:15:00 PM 2.45 36.41 0.276 6.98 123.25 0.24
3/19/2021 3:30:00 PM 2.49 36.482 0.277 6.98 123.46 0.24
3/19/2021 3:45:00 PM 2.52 36.536 0.276 6.98 123.36 0.24
3/19/2021 4:00:00 PM 2.56 36.608 0.276 6.98 123.35 0.24
3/19/2021 4:15:00 PM 2.59 36.662 0.275 6.98 124.08 0.24
3/19/2021 4:30:00 PM 2.62 36.716 0.272 6.98 124.25 0.24
3/19/2021 4:45:00 PM 2.64 36.752 0.271 6.98 123.11 0.24
3/19/2021 5:00:00 PM 2.67 36.806 0.298 6.98 109.08 0.24
3/19/2021 5:15:00 PM 2.69 36.842 0.306 6.94 97.96 0.38
3/19/2021 5:30:00 PM 2.7 36.86 0.308 6.94 96.79 0.32
3/19/2021 5:45:00 PM 2.71 36.878 0.308 6.96 93.98 0.26
3/19/2021 6:00:00 PM 2.72 36.896 0.309 6.98 93.06 0.24
3/19/2021 6:15:00 PM 2.72 36.896 0.307 6.98 92.86 0.24
3/19/2021 6:30:00 PM 2.71 36.878 0.308 6.99 93.05 0.27
3/19/2021 6:45:00 PM 2.71 36.878 0.309 6.98 93.29 0.24
3/19/2021 7:00:00 PM 2.69 36.842 0.309 6.98 92.99 0.24
3/19/2021 7:15:00 PM 2.68 36.824 0.309 6.98 92.63 0.23
3/19/2021 7:30:00 PM 2.67 36.806 0.311 6.98 92.61 0.23
3/19/2021 7:45:00 PM 2.66 36.788 0.312 6.95 91.55 0.24
3/19/2021 8:00:00 PM 2.64 36.752 0.312 6.95 89.95 0.24
3/19/2021 8:15:00 PM 2.63 36.734 0.312 6.92 90.6 0.23
3/19/2021 8:30:00 PM 2.62 36.716 0.312 6.95 90.1 0.23
3/19/2021 8:45:00 PM 2.61 36.698 0.312 6.95 89.09 0.23
3/19/2021 9:00:00 PM 2.6 36.68 0.313 6.93 87.94 0.24
3/19/2021 9:15:00 PM 2.58 36.644 0.313 6.94 87.06 0.24
3/19/2021 9:30:00 PM 2.57 36.626 0.312 6.93 86.48 0.24
3/19/2021 9:45:00 PM 2.55 36.59 0.314 6.95 86.54 0.24
3/19/2021 10:00:00 PM 2.54 36.572 0.313 6.95 86.43 0.24
3/19/2021 10:15:00 PM 2.52 36.536 0.314 6.94 85.8 0.24
3/19/2021 10:30:00 PM 2.5 36.5 0.315 6.94 85.88 0.24
3/19/2021 10:45:00 PM 2.48 36.464 0.314 6.94 85.99 0.28
3/19/2021 11:00:00 PM 2.46 36.428 0.314 6.95 85.37 0.27
3/19/2021 11:15:00 PM 2.45 36.41 0.315 6.94 85.2 0.27
3/19/2021 11:30:00 PM 2.43 36.374 0.315 6.94 84.75 0.25
3/19/2021 11:45:00 PM 2.41 36.338 0.313 6.94 84.44 0.24
3/20/2021 12:00:00 AM 2.39 36.302 0.314 6.94 84.04 0.25
3/20/2021 12:15:00 AM 2.36 36.248 0.311 6.93 84.08 0.24
3/20/2021 12:30:00 AM 2.34 36.212 0.311 6.93 84.08 0.24
3/20/2021 12:45:00 AM 2.32 36.176 0.31 6.93 83.21 0.24
3/20/2021 1:00:00 AM 2.3 36.14 0.31 6.93 83.09 0.24
3/20/2021 1:15:00 AM 2.28 36.104 0.31 6.94 83.12 0.24
3/20/2021 1:30:00 AM 2.26 36.068 0.307 6.94 82.94 0.24
3/20/2021 1:45:00 AM 2.24 36.032 0.306 6.94 82.67 0.24
3/20/2021 2:00:00 AM 2.22 35.996 0.309 6.94 82.88 0.24
3/20/2021 2:15:00 AM 2.21 35.978 0.308 6.95 82.58 0.24
3/20/2021 2:30:00 AM 2.19 35.942 0.308 6.95 82.89 0.24
3/20/2021 2:45:00 AM 2.18 35.924 0.307 6.95 82.63 0.24
3/20/2021 3:00:00 AM 2.17 35.906 0.31 6.94 82.46 0.24
3/20/2021 3:15:00 AM 2.15 35.87 0.31 6.95 82.25 0.24
3/20/2021 3:30:00 AM 2.14 35.852 0.31 6.95 82.04 0.24
3/20/2021 3:45:00 AM 2.14 35.852 0.309 6.95 81.92 0.24
3/20/2021 4:00:00 AM 2.13 35.834 0.308 6.95 81.7 0.24
3/20/2021 4:15:00 AM 2.12 35.816 0.308 6.96 81.01 0.25
3/20/2021 4:30:00 AM 2.11 35.798 0.309 6.96 80.94 0.24
3/20/2021 4:45:00 AM 2.11 35.798 0.31 6.98 80.76 0.25
3/20/2021 5:00:00 AM 2.11 35.798 0.311 6.97 81.08 0.24
3/20/2021 5:15:00 AM 2.1 35.78 0.313 6.97 81.09 0.25
3/20/2021 5:30:00 AM 2.1 35.78 0.313 6.96 81.03 0.26
3/20/2021 5:45:00 AM 2.09 35.762 0.312 6.96 80.75 0.25
3/20/2021 6:00:00 AM 2.09 35.762 0.311 6.96 80.54 0.24
3/20/2021 6:15:00 AM 2.09 35.762 0.313 6.96 80.62 0.24
3/20/2021 6:30:00 AM 2.08 35.744 0.314 6.96 80.54 0.24
3/20/2021 6:45:00 AM 2.08 35.744 0.314 6.99 80.32 0.24
3/20/2021 7:00:00 AM 2.07 35.726 0.314 6.96 80.18 0.24
3/20/2021 7:15:00 AM 2.07 35.726 0.314 6.96 80.01 0.24
3/20/2021 7:30:00 AM 2.06 35.708 0.315 6.96 79.84 0.24
3/20/2021 7:45:00 AM 2.05 35.69 0.314 6.95 79.59 0.24
3/20/2021 8:00:00 AM 2.04 35.672 0.315 6.96 79.58 0.24
3/20/2021 8:15:00 AM 2.03 35.654 0.314 6.96 79.38 0.24
3/20/2021 8:30:00 AM 2.02 35.636 0.316 6.96 79.31 0.24
3/20/2021 8:45:00 AM 2.02 35.636 0.316 6.96 79.31 0.24
3/20/2021 9:00:00 AM 2.01 35.618 0.314 6.96 79.03 0.24
3/20/2021 9:15:00 AM 2.01 35.618 0.317 6.96 78.75 0.25
3/20/2021 9:30:00 AM 2.01 35.618 0.316 6.96 78.86 0.24
3/20/2021 9:45:00 AM 2.01 35.618 0.317 6.96 78.57 0.24
3/20/2021 10:00:00 AM 2.02 35.636 0.317 6.95 78.53 0.25
3/20/2021 10:15:00 AM 2.03 35.654 0.318 6.96 78.18 0.24
3/20/2021 10:30:00 AM 2.04 35.672 0.316 6.96 78.18 0.24
3/20/2021 10:45:00 AM 2.06 35.708 0.318 6.96 77.9 0.24
3/20/2021 11:00:00 AM 2.09 35.762 0.318 6.96 77.83 0.24
3/20/2021 11:15:00 AM 2.11 35.798 0.318 6.97 77.97 0.24
3/20/2021 11:30:00 AM 2.14 35.852 0.319 6.97 77.95 0.24
3/20/2021 11:45:00 AM 2.18 35.924 0.318 6.97 77.71 0.24
3/20/2021 12:00:00 PM 2.22 35.996 0.318 6.98 77.61 0.24
3/20/2021 12:15:00 PM 2.26 36.068 0.319 6.99 77.62 0.24
3/20/2021 12:30:00 PM 2.31 36.158 0.318 6.99 77.48 0.24
3/20/2021 12:45:00 PM 2.36 36.248 0.317 6.98 77.31 0.25
3/20/2021 1:00:00 PM 2.4 36.32 0.32 6.98 77.09 0.24
3/20/2021 1:15:00 PM 2.45 36.41 0.319 6.98 76.93 0.25
3/20/2021 1:30:00 PM 2.51 36.518 0.32 6.98 76.92 0.25
3/20/2021 1:45:00 PM 2.56 36.608 0.319 6.98 76.77 0.25
3/20/2021 2:00:00 PM 2.61 36.698 0.319 6.97 76.6 0.25
3/20/2021 2:15:00 PM 2.66 36.788 0.32 6.97 76.67 0.25
3/20/2021 2:30:00 PM 2.71 36.878 0.319 6.97 76.53 0.24
3/20/2021 2:45:00 PM 2.76 36.968 0.32 6.96 76.38 0.24
3/20/2021 3:00:00 PM 2.81 37.058 0.32 6.96 76.71 0.24
3/20/2021 3:15:00 PM 2.85 37.13 0.32 6.96 76.55 0.24
3/20/2021 3:30:00 PM 2.9 37.22 0.321 6.96 76.54 0.24
3/20/2021 3:45:00 PM 2.94 37.292 0.319 6.96 76.54 0.25
3/20/2021 4:00:00 PM 2.98 37.364 0.317 6.96 76.7 0.27
3/20/2021 4:15:00 PM 3.02 37.436 0.318 6.95 76.52 0.24
3/20/2021 4:30:00 PM 3.05 37.49 0.317 6.95 76.79 0.25
3/20/2021 4:45:00 PM 3.08 37.544 0.32 6.95 76.78 0.26
3/20/2021 5:00:00 PM 3.11 37.598 0.319 6.95 76.49 0.25
3/20/2021 5:15:00 PM 3.14 37.652 0.318 6.95 76.37 0.26
3/20/2021 5:30:00 PM 3.16 37.688 0.319 6.95 76.26 0.3
3/20/2021 5:45:00 PM 3.18 37.724 0.318 6.95 76.36 0.31
3/20/2021 6:00:00 PM 3.19 37.742 0.318 6.95 76.34 0.28
3/20/2021 6:15:00 PM 3.2 37.76 0.32 6.95 76.56 0.26
3/20/2021 6:30:00 PM 3.21 37.778 0.319 6.94 76.16 0.34
3/20/2021 6:45:00 PM 3.21 37.778 0.318 6.94 76.23 0.26
3/20/2021 7:00:00 PM 3.21 37.778 0.319 6.94 75.84 0.41
3/20/2021 7:15:00 PM 3.2 37.76 0.318 6.94 75.58 0.4
3/20/2021 7:30:00 PM 3.2 37.76 0.318 6.94 75.2 0.34
3/20/2021 7:45:00 PM 3.2 37.76 0.318 6.94 75.07 0.34
3/20/2021 8:00:00 PM 3.2 37.76 0.316 6.94 74.15 0.38
3/20/2021 8:15:00 PM 3.2 37.76 0.318 6.95 74.49 0.7
3/20/2021 8:30:00 PM 3.2 37.76 0.316 6.95 74.61 0.49
3/20/2021 8:45:00 PM 3.2 37.76 0.316 6.95 74.53 0.62
3/20/2021 9:00:00 PM 3.2 37.76 0.316 6.95 74.38 0.68
3/20/2021 9:15:00 PM 3.2 37.76 0.315 6.95 74.3 0.64
3/20/2021 9:30:00 PM 3.21 37.778 0.315 6.96 74.8 0.55
3/20/2021 9:45:00 PM 3.21 37.778 0.316 6.96 74.82 0.5
3/20/2021 10:00:00 PM 3.21 37.778 0.317 6.96 74.52 0.55
3/20/2021 10:15:00 PM 3.21 37.778 0.315 6.96 75.06 0.61
3/20/2021 10:30:00 PM 3.21 37.778 0.316 6.95 74.8 0.4
3/20/2021 10:45:00 PM 3.2 37.76 0.315 6.95 74.8 0.28
3/20/2021 11:00:00 PM 3.2 37.76 0.315 6.95 74.9 0.26
3/20/2021 11:15:00 PM 3.2 37.76 0.315 6.94 74.75 0.25
3/20/2021 11:30:00 PM 3.19 37.742 0.315 6.94 74.76 0.24
3/20/2021 11:45:00 PM 3.18 37.724 0.314 6.94 74.63 0.24
3/21/2021 12:00:00 AM 3.18 37.724 0.313 6.94 74.81 0.25
3/21/2021 12:15:00 AM 3.17 37.706 0.313 6.93 74.72 0.28
3/21/2021 12:30:00 AM 3.16 37.688 0.31 6.94 74.87 0.25
3/21/2021 12:45:00 AM 3.14 37.652 0.312 6.94 75.08 0.24
3/21/2021 1:00:00 AM 3.13 37.634 0.31 6.93 75.05 0.24
3/21/2021 1:15:00 AM 3.12 37.616 0.309 6.94 75.1 0.24
3/21/2021 1:30:00 AM 3.1 37.58 0.308 6.94 75.08 0.24
3/21/2021 1:45:00 AM 3.08 37.544 0.309 6.94 75.03 0.24
3/21/2021 2:00:00 AM 3.06 37.508 0.308 6.94 75.1 0.24
3/21/2021 2:15:00 AM 3.04 37.472 0.31 6.93 74.52 0.24
3/21/2021 2:30:00 AM 3.02 37.436 0.307 6.94 74.74 0.24
3/21/2021 2:45:00 AM 3 37.4 0.309 6.94 74.69 0.26
3/21/2021 3:00:00 AM 2.98 37.364 0.309 6.94 74.95 0.24
3/21/2021 3:15:00 AM 2.96 37.328 0.308 6.94 74.72 0.25
3/21/2021 3:30:00 AM 2.94 37.292 0.309 6.94 74.3 0.26
3/21/2021 3:45:00 AM 2.92 37.256 0.309 6.93 74.67 0.25
3/21/2021 4:00:00 AM 2.9 37.22 0.311 6.93 74.4 0.24
3/21/2021 4:15:00 AM 2.89 37.202 0.309 6.93 74.36 0.24
3/21/2021 4:30:00 AM 2.87 37.166 0.307 6.93 74.36 0.24
3/21/2021 4:45:00 AM 2.85 37.13 0.308 6.93 74.46 0.24
3/21/2021 5:00:00 AM 2.83 37.094 0.307 6.92 74.48 0.25
3/21/2021 5:15:00 AM 2.81 37.058 0.307 6.92 74.82 0.25
3/21/2021 5:30:00 AM 2.8 37.04 0.308 6.92 74.81 0.29
3/21/2021 5:45:00 AM 2.78 37.004 0.308 6.92 74.48 0.31
3/21/2021 6:00:00 AM 2.76 36.968 0.309 6.92 74.63 0.26
3/21/2021 6:15:00 AM 2.75 36.95 0.31 6.92 73.4 0.25
3/21/2021 6:30:00 AM 2.73 36.914 0.308 6.92 73.73 0.24
3/21/2021 6:45:00 AM 2.72 36.896 0.308 6.92 73.74 0.24
3/21/2021 7:00:00 AM 2.7 36.86 0.309 6.91 73.66 0.24
3/21/2021 7:15:00 AM 2.69 36.842 0.31 6.91 74.39 0.25
3/21/2021 7:30:00 AM 2.68 36.824 0.308 6.91 74.01 0.26
3/21/2021 7:45:00 AM 2.67 36.806 0.309 6.9 74.32 0.25
3/21/2021 8:00:00 AM 2.65 36.77 0.308 6.9 74.39 0.24
3/21/2021 8:15:00 AM 2.65 36.77 0.308 6.9 74.5 0.24
3/21/2021 8:30:00 AM 2.64 36.752 0.307 6.89 74.79 0.24
3/21/2021 8:45:00 AM 2.64 36.752 0.308 6.89 74.55 0.24
3/21/2021 9:00:00 AM 2.64 36.752 0.307 6.89 74.28 0.24
3/21/2021 9:15:00 AM 2.65 36.77 0.311 6.89 73.98 0.24
3/21/2021 9:30:00 AM 2.66 36.788 0.308 6.89 74.19 0.26
3/21/2021 9:45:00 AM 2.67 36.806 0.312 6.89 74.07 0.27
3/21/2021 10:00:00 AM 2.69 36.842 0.312 6.89 74.78 0.25
3/21/2021 10:15:00 AM 2.72 36.896 0.312 6.89 74.85 0.25
3/21/2021 10:30:00 AM 2.75 36.95 0.315 6.88 74.41 0.25
3/21/2021 10:45:00 AM 2.78 37.004 0.318 6.88 74.11 0.26
3/21/2021 11:00:00 AM 2.83 37.094 0.319 6.88 74.29 0.25
3/21/2021 11:15:00 AM 2.88 37.184 0.319 6.88 74.69 0.29
3/21/2021 11:30:00 AM 2.93 37.274 0.319 6.88 74.64 0.36
3/21/2021 11:45:00 AM 2.99 37.382 0.32 6.88 74.73 0.45
3/21/2021 12:00:00 PM 3.06 37.508 0.321 6.88 74.31 0.49
3/21/2021 12:15:00 PM 3.13 37.634 0.321 6.88 74.53 0.68
3/21/2021 12:30:00 PM 3.2 37.76 0.323 6.88 74.81 0.6
3/21/2021 12:45:00 PM 3.27 37.886 0.323 6.88 74.46 0.71
3/21/2021 1:00:00 PM 3.35 38.03 0.323 6.88 74.61 0.87
3/21/2021 1:15:00 PM 3.42 38.156 0.323 6.88 74.41 0.81
3/21/2021 1:30:00 PM 3.49 38.282 0.323 6.88 74.33 0.62
3/21/2021 1:45:00 PM 3.56 38.408 0.324 6.88 73.83 0.52
3/21/2021 2:00:00 PM 3.64 38.552 0.324 6.88 74.43 1.02
3/21/2021 2:15:00 PM 3.7 38.66 0.326 6.87 73.95 1.07
3/21/2021 2:30:00 PM 3.77 38.786 0.326 6.87 73.75 1.13
3/21/2021 2:45:00 PM 3.83 38.894 0.327 6.87 74.16 1.27
3/21/2021 3:00:00 PM 3.89 39.002 0.325 6.87 74.03 1.51
3/21/2021 3:15:00 PM 3.94 39.092 0.327 6.87 73.97 1.57
3/21/2021 3:30:00 PM 3.99 39.182 0.328 6.87 74.09 1.4
3/21/2021 3:45:00 PM 4.03 39.254 0.33 6.87 74.23 1.18
3/21/2021 4:00:00 PM 4.07 39.326 0.328 6.87 73.94 1.16
3/21/2021 4:15:00 PM 4.1 39.38 0.33 6.87 74 1.23
3/21/2021 4:30:00 PM 4.13 39.434 0.331 6.86 73.92 1.48
3/21/2021 4:45:00 PM 4.15 39.47 0.331 6.86 74.15 1.27
3/21/2021 5:00:00 PM 4.16 39.488 0.331 6.86 74.23 1.09
3/21/2021 5:15:00 PM 4.17 39.506 0.332 6.86 74.25 0.88
3/21/2021 5:30:00 PM 4.17 39.506 0.332 6.86 74.18 0.67
3/21/2021 5:45:00 PM 4.17 39.506 0.331 6.86 74.21 0.49
3/21/2021 6:00:00 PM 4.17 39.506 0.331 6.86 74.15 0.52
3/21/2021 6:15:00 PM 4.16 39.488 0.328 6.86 74.06 0.45
3/21/2021 6:30:00 PM 4.14 39.452 0.328 6.86 74.06 0.45
3/21/2021 6:45:00 PM 4.12 39.416 0.33 6.86 74.39 0.45
3/21/2021 7:00:00 PM 4.1 39.38 0.33 6.86 74.12 0.42
3/21/2021 7:15:00 PM 4.08 39.344 0.33 6.86 73.99 0.38
3/21/2021 7:30:00 PM 4.05 39.29 0.327 6.85 73.98 0.31
3/21/2021 7:45:00 PM 4.03 39.254 0.327 6.86 73.84 0.29
3/21/2021 8:00:00 PM 4.01 39.218 0.328 6.86 73.81 0.28
3/21/2021 8:15:00 PM 4 39.2 0.329 6.86 73.29 0.49
3/21/2021 8:30:00 PM 3.99 39.182 0.329 6.86 73.21 0.6
3/21/2021 8:45:00 PM 3.98 39.164 0.331 6.85 73.69 0.68
3/21/2021 9:00:00 PM 3.97 39.146 0.33 6.85 73.71 0.52
3/21/2021 9:15:00 PM 3.97 39.146 0.33 6.85 73.42 0.47
3/21/2021 9:30:00 PM 3.96 39.128 0.329 6.85 73.41 0.55
3/21/2021 9:45:00 PM 3.96 39.128 0.33 6.85 73.42 0.5
3/21/2021 10:00:00 PM 3.95 39.11 0.332 6.85 73.49 0.52
3/21/2021 10:15:00 PM 3.95 39.11 0.329 6.85 73.43 0.37
3/21/2021 10:30:00 PM 3.94 39.092 0.328 6.85 73.26 0.38
3/21/2021 10:45:00 PM 3.94 39.092 0.33 6.85 73.41 0.38
3/21/2021 11:00:00 PM 3.93 39.074 0.33 6.85 73.36 0.5
3/21/2021 11:15:00 PM 3.93 39.074 0.327 6.85 73.25 0.41
3/21/2021 11:30:00 PM 3.92 39.056 0.327 6.85 73.3 0.72
3/21/2021 11:45:00 PM 3.91 39.038 0.327 6.85 73.23 0.58
3/22/2021 12:00:00 AM 3.91 39.038 0.328 6.85 73.23 0.4
3/22/2021 12:15:00 AM 3.9 39.02 0.329 6.85 73.34 0.45
3/22/2021 12:30:00 AM 3.88 38.984 0.329 6.85 73.07 0.32
3/22/2021 12:45:00 AM 3.87 38.966 0.327 6.85 73.3 0.35
3/22/2021 1:00:00 AM 3.86 38.948 0.329 6.85 73.33 0.26
3/22/2021 1:15:00 AM 3.84 38.912 0.329 6.85 73.47 0.29
3/22/2021 1:30:00 AM 3.82 38.876 0.327 6.85 73.24 0.27
3/22/2021 1:45:00 AM 3.8 38.84 0.327 6.85 73.23 0.28
3/22/2021 2:00:00 AM 3.78 38.804 0.326 6.85 73.6 0.24
3/22/2021 2:15:00 AM 3.76 38.768 0.326 6.85 73.13 0.23
3/22/2021 2:30:00 AM 3.74 38.732 0.328 6.85 73.33 0.24
3/22/2021 2:45:00 AM 3.72 38.696 0.324 6.85 73.29 0.27
3/22/2021 3:00:00 AM 3.7 38.66 0.326 6.85 73.35 0.25
3/22/2021 3:15:00 AM 3.68 38.624 0.323 6.86 73.19 0.26
3/22/2021 3:30:00 AM 3.66 38.588 0.322 6.85 73.33 0.47
3/22/2021 3:45:00 AM 3.65 38.57 0.322 6.85 73.45 0.45
3/22/2021 4:00:00 AM 3.63 38.534 0.32 6.85 73.59 0.7
3/22/2021 4:15:00 AM 3.62 38.516 0.317 6.85 73.29 0.94
3/22/2021 4:30:00 AM 3.61 38.498 0.319 6.86 73.29 0.78
3/22/2021 4:45:00 AM 3.6 38.48 0.319 6.86 73.27 0.45
3/22/2021 5:00:00 AM 3.59 38.462 0.32 6.86 73.25 0.26
3/22/2021 5:15:00 AM 3.58 38.444 0.321 6.86 73.19 0.24
3/22/2021 5:30:00 AM 3.58 38.444 0.321 6.86 73.29 0.37
3/22/2021 5:45:00 AM 3.58 38.444 0.317 6.86 73.24 0.46
3/22/2021 6:00:00 AM 3.58 38.444 0.322 6.86 73.25 0.32
3/22/2021 6:15:00 AM 3.58 38.444 0.319 6.86 73.15 0.31
3/22/2021 6:30:00 AM 3.58 38.444 0.315 6.86 73.32 0.27
3/22/2021 6:45:00 AM 3.58 38.444 0.317 6.86 73.24 0.27
3/22/2021 7:00:00 AM 3.59 38.462 0.314 6.86 73.01 0.3
3/22/2021 7:15:00 AM 3.59 38.462 0.311 6.86 73.13 0.43
3/22/2021 7:30:00 AM 3.6 38.48 0.312 6.86 72.98 0.49
3/22/2021 7:45:00 AM 3.61 38.498 0.307 6.87 73.05 0.33
3/22/2021 8:00:00 AM 3.62 38.516 0.305 6.87 72.96 0.34
3/22/2021 8:15:00 AM 3.63 38.534 0.305 6.87 73 0.38
3/22/2021 8:30:00 AM 3.65 38.57 0.3 6.87 73.08 0.36
3/22/2021 8:45:00 AM 3.66 38.588 0.3 6.87 73 0.38
3/22/2021 9:00:00 AM 3.69 38.642 0.302 6.88 73.09 0.38
3/22/2021 9:15:00 AM 3.71 38.678 0.299 6.88 73.09 0.29
3/22/2021 9:30:00 AM 3.74 38.732 0.297 6.88 73.06 0.29
3/22/2021 9:45:00 AM 3.77 38.786 0.302 6.88 72.97 0.28
3/22/2021 10:00:00 AM 3.81 38.858 0.301 6.88 72.93 0.3
3/22/2021 10:15:00 AM 3.85 38.93 0.298 6.88 72.83 0.26
3/22/2021 10:30:00 AM 3.9 39.02 0.299 6.87 72.76 0.24
3/22/2021 10:45:00 AM 3.96 39.128 0.299 6.87 72.75 0.24
3/22/2021 11:00:00 AM 4.01 39.218 0.303 6.87 72.89 0.23
3/22/2021 11:15:00 AM 4.08 39.344 0.303 6.87 72.94 0.23
3/22/2021 11:30:00 AM 4.15 39.47 0.302 6.87 72.96 0.23
3/22/2021 11:45:00 AM 4.22 39.596 0.301 6.86 72.8 0.23
3/22/2021 12:00:00 PM 4.29 39.722 0.305 6.86 72.69 0.23
3/22/2021 12:15:00 PM 4.37 39.866 0.299 6.86 72.6 0.23
3/22/2021 12:30:00 PM 4.45 40.01 0.301 6.86 72.61 0.23
3/22/2021 12:45:00 PM 4.53 40.154 0.303 6.86 72.71 0.23
3/22/2021 1:00:00 PM 4.61 40.298 0.301 6.85 72.7 0.23
3/22/2021 1:15:00 PM 4.69 40.442 0.303 6.85 72.79 0.23
3/22/2021 1:30:00 PM 4.76 40.568 0.303 6.85 72.68 0.23
3/22/2021 1:45:00 PM 4.84 40.712 0.302 6.85 72.61 0.23
3/22/2021 2:00:00 PM 4.91 40.838 0.301 6.85 72.73 0.23
3/22/2021 2:15:00 PM 4.98 40.964 0.301 6.85 72.73 0.23
3/22/2021 2:30:00 PM 5.04 41.072 0.302 6.84 72.67 0.23
3/22/2021 2:45:00 PM 5.1 41.18 0.304 6.84 72.68 0.23
3/22/2021 3:00:00 PM 5.15 41.27 0.302 6.84 72.53 0.23
3/22/2021 3:15:00 PM 5.2 41.36 0.302 6.84 72.54 0.23
3/22/2021 3:30:00 PM 5.24 41.432 0.302 6.84 72.61 0.23
3/22/2021 3:45:00 PM 5.27 41.486 0.304 6.84 72.57 0.23
3/22/2021 4:00:00 PM 5.3 41.54 0.304 6.83 72.63 0.23
3/22/2021 4:15:00 PM 5.32 41.576 0.303 6.83 72.55 0.23
3/22/2021 4:30:00 PM 5.33 41.594 0.301 6.83 72.55 0.23
3/22/2021 4:45:00 PM 5.34 41.612 0.306 6.83 72.54 0.23
3/22/2021 5:00:00 PM 5.35 41.63 0.305 6.83 72.54 0.23
3/22/2021 5:15:00 PM 5.35 41.63 0.306 6.83 72.51 0.23
3/22/2021 5:30:00 PM 5.34 41.612 0.308 6.83 72.41 0.23
3/22/2021 5:45:00 PM 5.32 41.576 0.306 6.83 72.4 0.23
3/22/2021 6:00:00 PM 5.3 41.54 0.305 6.83 72.39 0.23
3/22/2021 6:15:00 PM 5.28 41.504 0.311 6.83 72.5 0.23
3/22/2021 6:30:00 PM 5.25 41.45 0.309 6.83 72.56 0.23
3/22/2021 6:45:00 PM 5.22 41.396 0.309 6.83 72.44 0.23
3/22/2021 7:00:00 PM 5.19 41.342 0.305 6.83 72.62 0.23
3/22/2021 7:15:00 PM 5.15 41.27 0.312 6.83 72.49 0.23
3/22/2021 7:30:00 PM 5.12 41.216 0.31 6.82 72.51 0.23
3/22/2021 7:45:00 PM 5.08 41.144 0.309 6.82 72.43 0.23
3/22/2021 8:00:00 PM 5.06 41.108 0.309 6.82 72.44 0.23
3/22/2021 8:15:00 PM 5.03 41.054 0.312 6.83 72.57 0.23
3/22/2021 8:30:00 PM 5.01 41.018 0.31 6.83 72.44 0.23
3/22/2021 8:45:00 PM 5 41 0.312 6.83 72.71 0.23
3/22/2021 9:00:00 PM 4.98 40.964 0.31 6.83 72.78 0.23
3/22/2021 9:15:00 PM 4.97 40.946 0.312 6.83 72.89 0.23
3/22/2021 9:30:00 PM 4.97 40.946 0.312 6.83 72.72 0.23
3/22/2021 9:45:00 PM 4.96 40.928 0.311 6.83 72.83 0.23
3/22/2021 10:00:00 PM 4.95 40.91 0.309 6.83 72.66 0.23
3/22/2021 10:15:00 PM 4.95 40.91 0.306 6.83 72.63 0.23
3/22/2021 10:30:00 PM 4.94 40.892 0.308 6.83 72.61 0.23
3/22/2021 10:45:00 PM 4.93 40.874 0.307 6.83 72.59 0.23
3/22/2021 11:00:00 PM 4.93 40.874 0.306 6.83 72.62 0.23
3/22/2021 11:15:00 PM 4.92 40.856 0.311 6.83 72.89 0.23
3/22/2021 11:30:00 PM 4.91 40.838 0.307 6.83 72.71 0.23
3/22/2021 11:45:00 PM 4.9 40.82 0.308 6.83 72.62 0.23
3/23/2021 12:00:00 AM 4.89 40.802 0.307 6.83 73.16 0.23
3/23/2021 12:15:00 AM 4.88 40.784 0.311 6.82 72.91 0.23
3/23/2021 12:30:00 AM 4.87 40.766 0.309 6.82 72.84 0.23
3/23/2021 12:45:00 AM 4.86 40.748 0.309 6.83 73.17 0.23
3/23/2021 1:00:00 AM 4.84 40.712 0.31 6.83 73.41 0.23
3/23/2021 1:15:00 AM 4.82 40.676 0.309 6.83 73.39 0.23
3/23/2021 1:30:00 AM 4.8 40.64 0.31 6.83 73.29 0.23
3/23/2021 1:45:00 AM 4.78 40.604 0.31 6.83 73.29 0.23
3/23/2021 2:00:00 AM 4.76 40.568 0.311 6.83 73.32 0.23
3/23/2021 2:15:00 AM 4.74 40.532 0.311 6.83 73.48 0.23
3/23/2021 2:30:00 AM 4.71 40.478 0.312 6.83 73.57 0.23
3/23/2021 2:45:00 AM 4.69 40.442 0.312 6.83 73.7 0.23
3/23/2021 3:00:00 AM 4.66 40.388 0.314 6.83 73.54 0.23
3/23/2021 3:15:00 AM 4.64 40.352 0.313 6.83 73.75 0.23
3/23/2021 3:30:00 AM 4.61 40.298 0.312 6.83 73.73 0.23
3/23/2021 3:45:00 AM 4.59 40.262 0.317 6.83 73.57 0.23
3/23/2021 4:00:00 AM 4.57 40.226 0.315 6.83 73.66 0.23
3/23/2021 4:15:00 AM 4.55 40.19 0.317 6.83 73.55 0.23
3/23/2021 4:30:00 AM 4.53 40.154 0.318 6.83 73.92 0.23
3/23/2021 4:45:00 AM 4.52 40.136 0.319 6.83 73.73 0.23
3/23/2021 5:00:00 AM 4.51 40.118 0.32 6.83 73.83 0.23
3/23/2021 5:15:00 AM 4.5 40.1 0.321 6.83 73.78 0.23
3/23/2021 5:30:00 AM 4.49 40.082 0.321 6.83 73.6 0.23
3/23/2021 5:45:00 AM 4.49 40.082 0.323 6.83 73.75 0.23
3/23/2021 6:00:00 AM 4.49 40.082 0.324 6.83 73.84 0.23
3/23/2021 6:15:00 AM 4.49 40.082 0.324 6.83 74.06 0.23
3/23/2021 6:30:00 AM 4.49 40.082 0.325 6.83 74.15 0.23
3/23/2021 6:45:00 AM 4.5 40.1 0.325 6.83 74.53 0.23
3/23/2021 7:00:00 AM 4.51 40.118 0.326 6.83 74.63 0.23
3/23/2021 7:15:00 AM 4.51 40.118 0.327 6.83 74.63 0.23
3/23/2021 7:30:00 AM 4.52 40.136 0.327 6.83 74.61 0.23
3/23/2021 7:45:00 AM 4.54 40.172 0.329 6.83 74.8 0.23
3/23/2021 8:00:00 AM 4.55 40.19 0.33 6.83 74.98 0.23
3/23/2021 8:15:00 AM 4.57 40.226 0.33 6.83 74.69 0.23
3/23/2021 8:30:00 AM 4.59 40.262 0.331 6.83 74.77 0.23
3/23/2021 8:45:00 AM 4.61 40.298 0.331 6.83 74.8 0.23
3/23/2021 9:00:00 AM 4.64 40.352 0.332 6.83 74.84 0.23
3/23/2021 9:15:00 AM 4.67 40.406 0.333 6.83 74.76 0.23
3/23/2021 9:30:00 AM 4.71 40.478 0.333 6.83 74.85 0.23
3/23/2021 9:45:00 AM 4.75 40.55 0.334 6.83 74.85 0.23
3/23/2021 10:00:00 AM 4.79 40.622 0.334 6.83 74.94 0.23
3/23/2021 10:15:00 AM 4.84 40.712 0.335 6.83 75.01 0.23
3/23/2021 10:30:00 AM 4.9 40.82 0.334 6.83 74.96 0.23
3/23/2021 10:45:00 AM 4.96 40.928 0.335 6.83 75.23 0.23
3/23/2021 11:00:00 AM 5.02 41.036 0.337 6.83 75.1 0.23
3/23/2021 11:15:00 AM 5.09 41.162 0.337 6.83 75.49 0.23
3/23/2021 11:30:00 AM 5.17 41.306 0.337 6.83 75.7 0.23
3/23/2021 11:45:00 AM 5.24 41.432 0.338 6.83 75.82 0.23
3/23/2021 12:00:00 PM 5.33 41.594 0.338 6.83 76.03 0.23
3/23/2021 12:15:00 PM 5.41 41.738 0.339 6.83 76.22 0.23
3/23/2021 12:30:00 PM 5.49 41.882 0.339 6.83 76.25 0.23
3/23/2021 12:45:00 PM 5.57 42.026 0.34 6.83 76.21 0.23
3/23/2021 1:00:00 PM 5.64 42.152 0.341 6.83 76.39 0.23
3/23/2021 1:15:00 PM 5.72 42.296 0.342 6.83 76.41 0.22
3/23/2021 1:30:00 PM 5.79 42.422 0.343 6.83 76.85 0.22
3/23/2021 1:45:00 PM 5.86 42.548 0.344 6.83 77.23 0.22
3/23/2021 2:00:00 PM 5.92 42.656 0.345 6.82 76.99 0.22
3/23/2021 2:15:00 PM 5.98 42.764 0.345 6.82 77.36 0.22
3/23/2021 2:30:00 PM 6.04 42.872 0.346 6.82 77.12 0.22
3/23/2021 2:45:00 PM 6.09 42.962 0.347 6.82 77.39 0.22
3/23/2021 3:00:00 PM 6.14 43.052 0.347 6.82 77.11 0.22
3/23/2021 3:15:00 PM 6.17 43.106 0.349 6.82 77.33 0.22
3/23/2021 3:30:00 PM 6.2 43.16 0.35 6.81 77.43 0.22
3/23/2021 3:45:00 PM 6.22 43.196 0.35 6.82 77.33 0.22
3/23/2021 4:00:00 PM 6.22 43.196 0.352 6.81 77.58 0.22
3/23/2021 4:15:00 PM 6.23 43.214 0.352 6.81 78 0.22
3/23/2021 4:30:00 PM 6.22 43.196 0.352 6.81 78.27 0.22
3/23/2021 4:45:00 PM 6.21 43.178 0.353 6.81 78.54 0.22
3/23/2021 5:00:00 PM 6.19 43.142 0.352 6.81 78.52 0.22
3/23/2021 5:15:00 PM 6.17 43.106 0.353 6.8 78.72 0.22
3/23/2021 5:30:00 PM 6.15 43.07 0.354 6.8 78.6 0.22
3/23/2021 5:45:00 PM 6.12 43.016 0.355 6.8 78.78 0.22
3/23/2021 6:00:00 PM 6.09 42.962 0.356 6.8 78.91 0.22
3/23/2021 6:15:00 PM 6.06 42.908 0.356 6.8 78.66 0.22
3/23/2021 6:30:00 PM 6.03 42.854 0.356 6.8 79.09 0.22
3/23/2021 6:45:00 PM 6 42.8 0.357 6.8 79.08 0.22
3/23/2021 7:00:00 PM 5.97 42.746 0.356 6.8 79.37 0.22
3/23/2021 7:15:00 PM 5.95 42.71 0.357 6.8 79.38 0.22
3/23/2021 7:30:00 PM 5.93 42.674 0.358 6.8 79.21 0.22
3/23/2021 7:45:00 PM 5.91 42.638 0.358 6.8 79.65 0.22
3/23/2021 8:00:00 PM 5.89 42.602 0.359 6.8 79.63 0.22
3/23/2021 8:15:00 PM 5.88 42.584 0.36 6.8 79.55 0.22
3/23/2021 8:30:00 PM 5.87 42.566 0.36 6.8 79.49 0.22
3/23/2021 8:45:00 PM 5.86 42.548 0.36 6.8 79.79 0.22
3/23/2021 9:00:00 PM 5.85 42.53 0.362 6.8 80.02 0.22
3/23/2021 9:15:00 PM 5.84 42.512 0.362 6.8 80.14 0.22
3/23/2021 9:30:00 PM 5.83 42.494 0.363 6.8 80.25 0.22
3/23/2021 9:45:00 PM 5.83 42.494 0.363 6.8 80.54 0.22
3/23/2021 10:00:00 PM 5.83 42.494 0.363 6.8 80.29 0.22
3/23/2021 10:15:00 PM 5.83 42.494 0.362 6.8 80.13 0.22
3/23/2021 10:30:00 PM 5.83 42.494 0.362 6.8 80.25 0.22
3/23/2021 10:45:00 PM 5.82 42.476 0.364 6.8 80.31 0.22
3/23/2021 11:00:00 PM 5.82 42.476 0.364 6.8 80.59 0.22
3/23/2021 11:15:00 PM 5.82 42.476 0.365 6.8 80.51 0.22
3/23/2021 11:30:00 PM 5.82 42.476 0.365 6.8 80.27 0.22
3/23/2021 11:45:00 PM 5.82 42.476 0.366 6.8 80.47 0.22
3/24/2021 12:00:00 AM 5.81 42.458 0.365 6.8 80.56 0.22
3/24/2021 12:15:00 AM 5.81 42.458 0.365 6.8 80.26 0.22
3/24/2021 12:30:00 AM 5.8 42.44 0.365 6.8 80.64 0.22
3/24/2021 12:45:00 AM 5.79 42.422 0.365 6.8 80.52 0.22
3/24/2021 1:00:00 AM 5.78 42.404 0.366 6.8 80.67 0.22
3/24/2021 1:15:00 AM 5.77 42.386 0.366 6.8 80.75 0.22
3/24/2021 1:30:00 AM 5.75 42.35 0.367 6.8 81.04 0.22
3/24/2021 1:45:00 AM 5.74 42.332 0.367 6.8 80.57 0.22
3/24/2021 2:00:00 AM 5.73 42.314 0.367 6.8 80.45 0.22
3/24/2021 2:15:00 AM 5.72 42.296 0.367 6.8 81.04 0.22
3/24/2021 2:30:00 AM 5.7 42.26 0.366 6.8 81.19 0.22
3/24/2021 2:45:00 AM 5.69 42.242 0.368 6.8 81.49 0.22
3/24/2021 3:00:00 AM 5.68 42.224 0.367 6.8 81.51 0.22
3/24/2021 3:15:00 AM 5.67 42.206 0.368 6.8 81.65 0.22
3/24/2021 3:30:00 AM 5.66 42.188 0.368 6.8 81.98 0.22
3/24/2021 3:45:00 AM 5.65 42.17 0.366 6.8 81.73 0.22
3/24/2021 4:00:00 AM 5.65 42.17 0.367 6.8 81.93 0.22
3/24/2021 4:15:00 AM 5.64 42.152 0.366 6.8 82.14 0.22
3/24/2021 4:30:00 AM 5.64 42.152 0.366 6.8 82.43 0.22
3/24/2021 4:45:00 AM 5.65 42.17 0.367 6.8 82.54 0.23
3/24/2021 5:00:00 AM 5.65 42.17 0.366 6.8 83.02 0.22
3/24/2021 5:15:00 AM 5.65 42.17 0.368 6.8 82.53 0.22
3/24/2021 5:30:00 AM 5.66 42.188 0.366 6.8 82.82 0.22
3/24/2021 5:45:00 AM 5.67 42.206 0.369 6.8 82.82 0.22
3/24/2021 6:00:00 AM 5.68 42.224 0.367 6.8 82.98 0.22
3/24/2021 6:15:00 AM 5.69 42.242 0.368 6.8 83.09 0.22
3/24/2021 6:30:00 AM 5.71 42.278 0.367 6.8 83.17 0.22
3/24/2021 6:45:00 AM 5.73 42.314 0.368 6.8 83.23 0.22
3/24/2021 7:00:00 AM 5.75 42.35 0.367 6.8 83.39 0.22
3/24/2021 7:15:00 AM 5.78 42.404 0.367 6.8 83.69 0.22
3/24/2021 7:30:00 AM 5.8 42.44 0.368 6.8 83.56 0.22
3/24/2021 7:45:00 AM 5.83 42.494 0.367 6.8 83.34 0.22
3/24/2021 8:00:00 AM 5.86 42.548 0.368 6.8 83.41 0.22
3/24/2021 8:15:00 AM 5.89 42.602 0.367 6.8 83.56 0.22
3/24/2021 8:30:00 AM 5.93 42.674 0.368 6.8 83.78 0.22
3/24/2021 8:45:00 AM 5.96 42.728 0.367 6.8 83.28 0.22
3/24/2021 9:00:00 AM 5.99 42.782 0.366 6.8 83.42 0.22
3/24/2021 9:15:00 AM 6.01 42.818 0.365 6.8 83.43 0.22
3/24/2021 9:30:00 AM 6.04 42.872 0.365 6.79 83.14 0.22
3/24/2021 9:45:00 AM 6.07 42.926 0.364 6.79 83.33 0.22
3/24/2021 10:00:00 AM 6.1 42.98 0.364 6.79 83.19 0.22
3/24/2021 10:15:00 AM 6.13 43.034 0.365 6.79 83.72 0.22
3/24/2021 10:30:00 AM 6.15 43.07 0.364 6.79 83.74 0.22
3/24/2021 10:45:00 AM 6.18 43.124 0.365 6.79 84.08 0.22
3/24/2021 11:00:00 AM 6.2 43.16 0.365 6.79 83.95 0.22
3/24/2021 11:15:00 AM 6.22 43.196 0.364 6.79 84.26 0.22
3/24/2021 11:30:00 AM 6.23 43.214 0.365 6.79 84.49 0.22
3/24/2021 11:45:00 AM 6.25 43.25 0.365 6.79 84.61 0.22
3/24/2021 12:00:00 PM 6.27 43.286 0.364 6.79 84.63 0.22
3/24/2021 12:15:00 PM 6.28 43.304 0.366 6.79 84.71 0.22
3/24/2021 12:30:00 PM 6.3 43.34 0.366 6.8 84.42 0.22
3/24/2021 12:45:00 PM 6.31 43.358 0.366 6.8 84.57 0.22
3/24/2021 1:00:00 PM 6.33 43.394 0.366 6.8 84.47 0.22
3/24/2021 1:15:00 PM 6.35 43.43 0.367 6.8 84.65 0.22
3/24/2021 1:30:00 PM 6.36 43.448 0.367 6.8 84.25 0.22
3/24/2021 1:45:00 PM 6.37 43.466 0.368 6.8 84.31 0.22
3/24/2021 2:00:00 PM 6.39 43.502 0.368 6.8 84.27 0.22
3/24/2021 2:15:00 PM 6.39 43.502 0.368 6.8 84.33 0.22
3/24/2021 2:30:00 PM 6.4 43.52 0.368 6.8 84.1 0.22
3/24/2021 2:45:00 PM 6.4 43.52 0.369 6.81 84.11 0.22
3/24/2021 3:00:00 PM 6.39 43.502 0.369 6.81 84.18 0.22
3/24/2021 3:15:00 PM 6.38 43.484 0.37 6.81 84.24 0.22
3/24/2021 3:30:00 PM 6.37 43.466 0.369 6.81 84.31 0.22
3/24/2021 3:45:00 PM 6.36 43.448 0.369 6.81 84.2 0.22
3/24/2021 4:00:00 PM 6.35 43.43 0.371 6.8 84.65 0.22
3/24/2021 4:15:00 PM 6.33 43.394 0.371 6.8 84.57 0.22
3/24/2021 4:30:00 PM 6.31 43.358 0.37 6.8 84.57 0.22
3/24/2021 4:45:00 PM 6.28 43.304 0.371 6.8 85.05 0.22
3/24/2021 5:00:00 PM 6.26 43.268 0.373 6.8 84.85 0.22
3/24/2021 5:15:00 PM 6.24 43.232 0.372 6.8 84.77 0.22
3/24/2021 5:30:00 PM 6.21 43.178 0.372 6.8 84.35 0.22
3/24/2021 5:45:00 PM 6.2 43.16 0.372 6.8 84.49 0.22
3/24/2021 6:00:00 PM 6.18 43.124 0.371 6.8 84.42 0.22
3/24/2021 6:15:00 PM 6.17 43.106 0.372 6.81 84.77 0.22
3/24/2021 6:30:00 PM 6.17 43.106 0.372 6.8 84.44 0.22
3/24/2021 6:45:00 PM 6.16 43.088 0.372 6.8 84.68 0.22
3/24/2021 7:00:00 PM 6.16 43.088 0.371 6.81 84.68 0.22
3/24/2021 7:15:00 PM 6.15 43.07 0.37 6.81 84.82 0.22
3/24/2021 7:30:00 PM 6.14 43.052 0.371 6.81 84.79 0.22
3/24/2021 7:45:00 PM 6.14 43.052 0.37 6.81 84.87 0.22
3/24/2021 8:00:00 PM 6.13 43.034 0.369 6.81 84.84 0.22
3/24/2021 8:15:00 PM 6.13 43.034 0.369 6.82 84.74 0.22
3/24/2021 8:30:00 PM 6.13 43.034 0.366 6.82 84.69 0.22
3/24/2021 8:45:00 PM 6.13 43.034 0.367 6.83 84.74 0.22
3/24/2021 9:00:00 PM 6.13 43.034 0.365 6.83 84.65 0.22
3/24/2021 9:15:00 PM 6.14 43.052 0.364 6.83 85.19 0.22
3/24/2021 9:30:00 PM 6.14 43.052 0.365 6.83 85.12 0.22
3/24/2021 9:45:00 PM 6.15 43.07 0.365 6.83 84.41 0.22
3/24/2021 10:00:00 PM 6.16 43.088 0.366 6.83 84.45 0.22
3/24/2021 10:15:00 PM 6.17 43.106 0.367 6.83 84.45 0.22
3/24/2021 10:30:00 PM 6.18 43.124 0.368 6.83 84.63 0.22
3/24/2021 10:45:00 PM 6.18 43.124 0.369 6.83 84.39 0.22
3/24/2021 11:00:00 PM 6.2 43.16 0.37 6.83 84.33 0.22
3/24/2021 11:15:00 PM 6.21 43.178 0.369 6.83 84.42 0.22
3/24/2021 11:30:00 PM 6.22 43.196 0.37 6.83 84.5 0.22
3/24/2021 11:45:00 PM 6.23 43.214 0.371 6.83 84.46 0.22
3/25/2021 12:00:00 AM 6.23 43.214 0.371 6.83 84.43 0.22
3/25/2021 12:15:00 AM 6.24 43.232 0.371 6.83 84.49 0.22
3/25/2021 12:30:00 AM 6.25 43.25 0.37 6.83 84.63 0.22
3/25/2021 12:45:00 AM 6.25 43.25 0.371 6.83 84.72 0.22
3/25/2021 1:00:00 AM 6.26 43.268 0.372 6.83 84.45 0.22
3/25/2021 1:15:00 AM 6.26 43.268 0.372 6.83 84.14 0.22
3/25/2021 1:30:00 AM 6.27 43.286 0.372 6.83 83.99 0.22
3/25/2021 1:45:00 AM 6.28 43.304 0.373 6.83 84.39 0.22
3/25/2021 2:00:00 AM 6.29 43.322 0.374 6.84 84.57 0.22
3/25/2021 2:15:00 AM 6.3 43.34 0.374 6.84 84.47 0.22
3/25/2021 2:30:00 AM 6.3 43.34 0.373 6.84 83.92 0.22
3/25/2021 2:45:00 AM 6.31 43.358 0.374 6.84 84.16 0.22
3/25/2021 3:00:00 AM 6.32 43.376 0.374 6.84 84.4 0.22
3/25/2021 3:15:00 AM 6.33 43.394 0.375 6.85 84.37 0.22
3/25/2021 3:30:00 AM 6.35 43.43 0.377 6.85 84.48 0.22
3/25/2021 3:45:00 AM 6.36 43.448 0.378 6.85 84.57 0.22
3/25/2021 4:00:00 AM 6.37 43.466 0.379 6.85 84.81 0.22
3/25/2021 4:15:00 AM 6.39 43.502 0.379 6.85 84.55 0.22
3/25/2021 4:30:00 AM 6.4 43.52 0.381 6.86 85.04 0.22
3/25/2021 4:45:00 AM 6.42 43.556 0.382 6.86 85.19 0.22
3/25/2021 5:00:00 AM 6.43 43.574 0.382 6.86 84.85 0.22
3/25/2021 5:15:00 AM -99999.99 -179968 -99999.99 -99999.99 -99999.99 -99999.99
3/25/2021 5:30:00 AM -99999.99 -179968 -99999.99 -99999.99 -99999.99 -99999.99
3/25/2021 5:45:00 AM -99999.99 -179968 -99999.99 -99999.99 -99999.99 -99999.99
3/25/2021 6:00:00 AM -99999.99 -179968 -99999.99 -99999.99 -99999.99 -99999.99
3/25/2021 6:15:00 AM -99999.99 -179968 -99999.99 -99999.99 -99999.99 -99999.99
3/25/2021 6:30:00 AM -99999.99 -179968 -99999.99 -99999.99 -99999.99 -99999.99
3/25/2021 6:45:00 AM -99999.99 -179968 -99999.99 -99999.99 -99999.99 -99999.99
3/25/2021 7:00:00 AM 6.56 43.808 0.391 6.87 84.5 0.22
3/25/2021 7:15:00 AM 6.57 43.826 0.39 6.86 84.8 0.22
3/25/2021 7:30:00 AM 6.58 43.844 0.39 6.86 84.99 0.22
3/25/2021 7:45:00 AM 6.59 43.862 0.391 6.87 84.97 0.22
3/25/2021 8:00:00 AM 6.61 43.898 0.39 6.87 85.22 0.22
3/25/2021 8:15:00 AM 6.62 43.916 0.392 6.87 84.97 0.22
3/25/2021 8:30:00 AM 6.63 43.934 0.392 6.87 85.07 0.22
3/25/2021 8:45:00 AM 6.65 43.97 0.394 6.87 84.98 0.22
3/25/2021 9:00:00 AM 6.66 43.988 0.394 6.87 84.73 0.22
3/25/2021 9:15:00 AM 6.68 44.024 0.396 6.87 85.08 0.22
3/25/2021 9:30:00 AM 6.69 44.042 0.396 6.87 85.68 0.22
3/25/2021 9:45:00 AM 6.71 44.078 0.398 6.87 85.43 0.22
3/25/2021 10:00:00 AM 6.73 44.114 0.4 6.87 85.23 0.22
3/25/2021 10:15:00 AM 6.75 44.15 0.402 6.87 85.02 0.22
3/25/2021 10:30:00 AM 6.77 44.186 0.403 6.87 85 0.22
3/25/2021 10:45:00 AM 6.8 44.24 0.405 6.87 84.72 0.22
3/25/2021 11:00:00 AM 6.83 44.294 0.406 6.88 85.04 0.22
3/25/2021 11:15:00 AM 6.88 44.384 0.408 6.88 84.89 0.22
3/25/2021 11:30:00 AM 6.92 44.456 0.41 6.88 85.11 0.22
3/25/2021 11:45:00 AM 6.97 44.546 0.412 6.88 84.91 0.22
3/25/2021 12:00:00 PM 7.01 44.618 0.413 6.88 84.65 0.22
3/25/2021 12:15:00 PM 7.07 44.726 0.414 6.88 84.85 0.22
3/25/2021 12:30:00 PM 7.12 44.816 0.415 6.88 85.32 0.22
3/25/2021 12:45:00 PM 7.18 44.924 0.417 6.88 84.98 0.22
3/25/2021 1:00:00 PM 7.25 45.05 0.417 6.88 84.68 0.22
3/25/2021 1:15:00 PM 7.31 45.158 0.418 6.88 84.62 0.22
3/25/2021 1:30:00 PM 7.38 45.284 0.419 6.88 84.9 0.22
3/25/2021 1:45:00 PM 7.44 45.392 0.42 6.88 84.69 0.22
3/25/2021 2:00:00 PM 7.51 45.518 0.42 6.88 84.83 0.21
3/25/2021 2:15:00 PM 7.57 45.626 0.421 6.88 85.03 0.22
3/25/2021 2:30:00 PM 7.63 45.734 0.421 6.88 85.49 0.21
3/25/2021 2:45:00 PM 7.68 45.824 0.422 6.88 85.1 0.21
3/25/2021 3:00:00 PM 7.73 45.914 0.422 6.88 85.23 0.21
3/25/2021 3:15:00 PM 7.77 45.986 0.422 6.88 85.34 0.21
3/25/2021 3:30:00 PM 7.82 46.076 0.423 6.89 85.46 0.21
3/25/2021 3:45:00 PM 7.85 46.13 0.423 6.89 84.96 0.21
3/25/2021 4:00:00 PM 7.88 46.184 0.425 6.89 85.24 0.21
3/25/2021 4:15:00 PM 7.91 46.238 0.427 6.89 85.02 0.21
3/25/2021 4:30:00 PM 7.92 46.256 0.429 6.89 85.06 0.21
3/25/2021 4:45:00 PM 7.93 46.274 0.431 6.89 85.38 0.21
3/25/2021 5:00:00 PM 7.94 46.292 0.433 6.89 85.35 0.21
3/25/2021 5:15:00 PM 7.94 46.292 0.436 6.89 84.97 0.21
3/25/2021 5:30:00 PM 7.94 46.292 0.438 6.89 84.94 0.21
3/25/2021 5:45:00 PM 7.94 46.292 0.44 6.89 84.82 0.21
3/25/2021 6:00:00 PM 7.94 46.292 0.442 6.89 84.96 0.21
3/25/2021 6:15:00 PM 7.95 46.31 0.444 6.89 85.36 0.21
3/25/2021 6:30:00 PM 7.95 46.31 0.446 6.89 85.28 0.21
3/25/2021 6:45:00 PM 7.95 46.31 0.449 6.89 85.34 0.21
3/25/2021 7:00:00 PM 7.96 46.328 0.451 6.89 84.91 0.21
3/25/2021 7:15:00 PM 7.96 46.328 0.451 6.89 85.41 0.21
3/25/2021 7:30:00 PM 7.96 46.328 0.452 6.89 85.32 0.21
3/25/2021 7:45:00 PM 7.97 46.346 0.453 6.89 85.56 0.21
3/25/2021 8:00:00 PM 7.98 46.364 0.454 6.9 85.26 0.21
3/25/2021 8:15:00 PM 7.98 46.364 0.455 6.9 85.12 0.21
3/25/2021 8:30:00 PM 7.99 46.382 0.455 6.9 85.24 0.21
3/25/2021 8:45:00 PM 8 46.4 0.456 6.9 85.4 0.21
3/25/2021 9:00:00 PM 8.01 46.418 0.457 6.9 85.51 0.21
3/25/2021 9:15:00 PM 8.02 46.436 0.458 6.9 85.4 0.21
3/25/2021 9:30:00 PM 8.03 46.454 0.46 6.89 85.17 0.21
3/25/2021 9:45:00 PM 8.04 46.472 0.461 6.9 85.12 0.21
3/25/2021 10:00:00 PM 8.05 46.49 0.463 6.9 85.69 0.21
3/25/2021 10:15:00 PM 8.06 46.508 0.463 6.9 85.61 0.21
3/25/2021 10:30:00 PM 8.07 46.526 0.465 6.91 85.7 0.21
3/25/2021 10:45:00 PM 8.08 46.544 0.465 6.91 85.55 0.21
3/25/2021 11:00:00 PM 8.09 46.562 0.466 6.91 85.58 0.21
3/25/2021 11:15:00 PM 8.09 46.562 0.467 6.91 85.49 0.21
3/25/2021 11:30:00 PM 8.1 46.58 0.469 6.91 85.88 0.21
3/25/2021 11:45:00 PM 8.11 46.598 0.47 6.91 85.73 0.21
3/26/2021 12:00:00 AM 8.11 46.598 0.472 6.91 85.96 0.21
3/26/2021 12:15:00 AM 8.11 46.598 0.472 6.91 86.08 0.21
3/26/2021 12:30:00 AM 8.11 46.598 0.474 6.91 85.85 0.21
3/26/2021 12:45:00 AM 8.11 46.598 0.476 6.91 85.52 0.21
3/26/2021 1:00:00 AM 8.1 46.58 0.478 6.91 86.11 0.21
3/26/2021 1:15:00 AM 8.09 46.562 0.479 6.91 86.06 0.21
3/26/2021 1:30:00 AM 8.09 46.562 0.48 6.91 86.02 0.21
3/26/2021 1:45:00 AM 8.08 46.544 0.482 6.91 85.97 0.21
3/26/2021 2:00:00 AM 8.07 46.526 0.484 6.91 85.96 0.21
3/26/2021 2:15:00 AM 8.06 46.508 0.486 6.91 85.92 0.21
3/26/2021 2:30:00 AM 8.05 46.49 0.488 6.91 85.9 0.21
3/26/2021 2:45:00 AM 8.04 46.472 0.489 6.91 86.18 0.21
3/26/2021 3:00:00 AM 8.04 46.472 0.49 6.92 85.91 0.21
3/26/2021 3:15:00 AM 8.03 46.454 0.491 6.92 85.78 0.21
3/26/2021 3:30:00 AM 8.03 46.454 0.493 6.91 85.51 0.21
3/26/2021 3:45:00 AM 8.03 46.454 0.494 6.92 85.56 0.21
3/26/2021 4:00:00 AM 8.03 46.454 0.496 6.92 85.53 0.21
3/26/2021 4:15:00 AM 8.03 46.454 0.497 6.92 85.33 0.21
3/26/2021 4:30:00 AM 8.04 46.472 0.498 6.91 85.79 0.21
3/26/2021 4:45:00 AM 8.05 46.49 0.499 6.91 85.52 0.21
3/26/2021 5:00:00 AM 8.06 46.508 0.5 6.91 85.8 0.21
3/26/2021 5:15:00 AM 8.07 46.526 0.501 6.91 85.95 0.21
3/26/2021 5:30:00 AM 8.08 46.544 0.503 6.92 86.31 0.21
3/26/2021 5:45:00 AM 8.1 46.58 0.503 6.92 86.21 0.21
3/26/2021 6:00:00 AM 8.11 46.598 0.503 6.92 86.19 0.21
3/26/2021 6:15:00 AM 8.13 46.634 0.504 6.92 86 0.21
3/26/2021 6:30:00 AM 8.15 46.67 0.504 6.92 86.15 0.21
3/26/2021 6:45:00 AM 8.17 46.706 0.505 6.92 86.63 0.21
3/26/2021 7:00:00 AM 8.19 46.742 0.505 6.92 86.36 0.21
3/26/2021 7:15:00 AM 8.21 46.778 0.505 6.92 86.32 0.21
3/26/2021 7:30:00 AM 8.24 46.832 0.505 6.92 86.13 0.21
3/26/2021 7:45:00 AM 8.26 46.868 0.506 6.92 86.52 0.21
3/26/2021 8:00:00 AM 8.29 46.922 0.506 6.92 86.5 0.21
3/26/2021 8:15:00 AM 8.32 46.976 0.506 6.92 86.42 0.21
3/26/2021 8:30:00 AM 8.34 47.012 0.507 6.92 86.27 0.21
3/26/2021 8:45:00 AM 8.37 47.066 0.507 6.92 86.56 0.21
3/26/2021 9:00:00 AM 8.41 47.138 0.508 6.92 86.37 0.21
3/26/2021 9:15:00 AM 8.44 47.192 0.508 6.92 86.47 0.21
3/26/2021 9:30:00 AM 8.47 47.246 0.509 6.92 86.46 0.21
3/26/2021 9:45:00 AM 8.52 47.336 0.51 6.92 86.13 0.21
3/26/2021 10:00:00 AM 8.57 47.426 0.51 6.93 85.97 0.21
3/26/2021 10:15:00 AM 8.63 47.534 0.51 6.93 86.25 0.21
3/26/2021 10:30:00 AM 8.69 47.642 0.511 6.93 86.4 0.21
3/26/2021 10:45:00 AM 8.75 47.75 0.511 6.93 86.14 0.21
3/26/2021 11:00:00 AM 8.78 47.804 0.511 6.93 86.47 0.21
3/26/2021 11:15:00 AM 8.83 47.894 0.511 6.93 86.46 0.21
3/26/2021 11:30:00 AM 8.89 48.002 0.511 6.93 86.51 0.21
3/26/2021 11:45:00 AM 8.94 48.092 0.512 6.93 86.37 0.21
3/26/2021 12:00:00 PM 8.98 48.164 0.513 6.93 86.39 0.21
3/26/2021 12:15:00 PM 8.99 48.182 0.513 6.92 86.83 0.21
3/26/2021 12:30:00 PM 8.99 48.182 0.513 6.92 86.72 0.21
3/26/2021 12:45:00 PM 9 48.2 0.513 6.92 86.84 0.21
3/26/2021 1:00:00 PM 9.01 48.218 0.513 6.92 86.63 0.21
3/26/2021 1:15:00 PM 9.02 48.236 0.513 6.92 86.81 0.21
3/26/2021 1:30:00 PM 9.03 48.254 0.514 6.92 86.72 0.21
3/26/2021 1:45:00 PM 9.04 48.272 0.515 6.93 86.85 0.21
3/26/2021 2:00:00 PM 9.06 48.308 0.515 6.93 87.01 0.21
3/26/2021 2:15:00 PM 9.09 48.362 0.515 6.93 86.88 0.21
3/26/2021 2:30:00 PM 9.12 48.416 0.515 6.93 87.16 0.21
3/26/2021 2:45:00 PM 9.15 48.47 0.514 6.93 87.61 0.21
3/26/2021 3:00:00 PM 9.18 48.524 0.511 6.93 87.78 0.21
3/26/2021 3:15:00 PM 9.18 48.524 0.509 6.94 87.84 0.21
3/26/2021 3:30:00 PM 9.18 48.524 0.504 6.94 88.06 0.21
3/26/2021 3:45:00 PM 9.19 48.542 0.521 6.97 86.3 0.21
3/26/2021 4:00:00 PM 9.2 48.56 0.541 6.98 81.16 0.21
3/26/2021 4:15:00 PM 9.21 48.578 0.55 6.98 80.89 0.21
3/26/2021 4:30:00 PM 9.22 48.596 0.557 6.97 80.69 0.21
3/26/2021 4:45:00 PM 9.21 48.578 0.562 6.96 80.33 0.2
3/26/2021 5:00:00 PM 9.21 48.578 0.566 6.95 80.19 0.21
3/26/2021 5:15:00 PM 9.2 48.56 0.57 6.95 80.52 0.24
3/26/2021 5:30:00 PM 9.2 48.56 0.573 6.95 80.41 0.23
3/26/2021 5:45:00 PM 9.19 48.542 0.576 6.94 81.19 0.28
3/26/2021 6:00:00 PM 9.19 48.542 0.579 6.94 81.56 0.29
3/26/2021 6:15:00 PM 9.18 48.524 0.579 6.94 81.61 0.26
3/26/2021 6:30:00 PM 9.18 48.524 0.582 6.94 82.16 0.3
3/26/2021 6:45:00 PM 9.18 48.524 0.585 6.94 82.69 0.36
3/26/2021 7:00:00 PM 9.18 48.524 0.587 6.94 82.64 0.35
3/26/2021 7:15:00 PM 9.18 48.524 0.588 6.94 82.48 0.36
3/26/2021 7:30:00 PM 9.18 48.524 0.59 6.94 82.59 0.42
3/26/2021 7:45:00 PM 9.18 48.524 0.59 6.94 82.79 0.32
3/26/2021 8:00:00 PM 9.18 48.524 0.592 6.94 82.49 0.35
3/26/2021 8:15:00 PM 9.18 48.524 0.593 6.94 82.15 0.4
3/26/2021 8:30:00 PM 9.18 48.524 0.594 6.94 82.76 0.31
3/26/2021 8:45:00 PM 9.18 48.524 0.595 6.93 82.58 0.27
3/26/2021 9:00:00 PM 9.18 48.524 0.596 6.93 83.16 0.27
3/26/2021 9:15:00 PM 9.18 48.524 0.596 6.93 82.91 0.22
3/26/2021 9:30:00 PM 9.18 48.524 0.597 6.93 82.83 0.21
3/26/2021 9:45:00 PM 9.18 48.524 0.597 6.93 83.16 0.21
3/26/2021 10:00:00 PM 9.19 48.542 0.597 6.93 82.85 0.22
3/26/2021 10:15:00 PM 9.19 48.542 0.597 6.93 83.61 0.21
3/26/2021 10:30:00 PM 9.2 48.56 0.596 6.93 83.33 0.21
3/26/2021 10:45:00 PM 9.2 48.56 0.598 6.93 83.07 0.21
3/26/2021 11:00:00 PM 9.2 48.56 0.597 6.93 83.29 0.21
3/26/2021 11:15:00 PM 9.2 48.56 0.597 6.93 83.1 0.21
3/26/2021 11:30:00 PM 9.19 48.542 0.596 6.93 83.36 0.21
3/26/2021 11:45:00 PM 9.19 48.542 0.597 6.93 83.73 0.21
3/27/2021 12:00:00 AM 9.18 48.524 0.597 6.93 83.86 0.21
3/27/2021 12:15:00 AM 9.17 48.506 0.598 6.93 83.35 0.21
3/27/2021 12:30:00 AM 9.16 48.488 0.597 6.93 83.72 0.21
3/27/2021 12:45:00 AM 9.15 48.47 0.597 6.93 84.09 0.21
3/27/2021 1:00:00 AM 9.14 48.452 0.597 6.93 83.63 0.21
3/27/2021 1:15:00 AM 9.13 48.434 0.598 6.93 83.83 0.21
3/27/2021 1:30:00 AM 9.12 48.416 0.597 6.93 83.8 0.21
3/27/2021 1:45:00 AM 9.1 48.38 0.597 6.93 83.96 0.21
3/27/2021 2:00:00 AM 9.09 48.362 0.597 6.93 83.89 0.22
3/27/2021 2:15:00 AM 9.08 48.344 0.597 6.93 83.91 0.21
3/27/2021 2:30:00 AM 9.07 48.326 0.596 6.93 84.07 0.21
3/27/2021 2:45:00 AM 9.05 48.29 0.595 6.93 84.43 0.21
3/27/2021 3:00:00 AM 9.04 48.272 0.595 6.93 84.93 0.22
3/27/2021 3:15:00 AM 9.04 48.272 0.594 6.93 84.45 0.21
3/27/2021 3:30:00 AM 9.04 48.272 0.594 6.93 84.72 0.22
3/27/2021 3:45:00 AM 9.04 48.272 0.594 6.93 84.78 0.21
3/27/2021 4:00:00 AM 9.04 48.272 0.594 6.93 84.74 0.21
3/27/2021 4:15:00 AM 9.04 48.272 0.594 6.93 84.42 0.21
3/27/2021 4:30:00 AM 9.03 48.254 0.595 6.93 84.7 0.21
3/27/2021 4:45:00 AM 9.03 48.254 0.595 6.93 84.25 0.22
3/27/2021 5:00:00 AM 9.03 48.254 0.594 6.93 84.42 0.21
3/27/2021 5:15:00 AM 9.03 48.254 0.593 6.93 84.71 0.21
3/27/2021 5:30:00 AM 9.02 48.236 0.593 6.93 84.38 0.21
3/27/2021 5:45:00 AM 9.02 48.236 0.591 6.93 84.84 0.21
3/27/2021 6:00:00 AM 9.02 48.236 0.591 6.93 84.93 0.21
3/27/2021 6:15:00 AM 9.01 48.218 0.59 6.93 84.61 0.21
3/27/2021 6:30:00 AM 9.01 48.218 0.59 6.94 84.13 0.25
3/27/2021 6:45:00 AM 9 48.2 0.59 6.93 84.37 0.23
3/27/2021 7:00:00 AM 9 48.2 0.591 6.93 83.85 0.5
3/27/2021 7:15:00 AM 8.99 48.182 0.592 6.93 84.38 0.52
3/27/2021 7:30:00 AM 8.98 48.164 0.591 6.93 84.2 0.56
3/27/2021 7:45:00 AM 8.97 48.146 0.592 6.93 84.26 0.58
3/27/2021 8:00:00 AM 8.96 48.128 0.593 6.93 83.68 0.58
3/27/2021 8:15:00 AM 8.95 48.11 0.593 6.93 83.73 0.65
3/27/2021 8:30:00 AM 8.94 48.092 0.593 6.93 83.94 0.64
3/27/2021 8:45:00 AM 8.94 48.092 0.594 6.93 83.85 0.68
3/27/2021 9:00:00 AM 8.93 48.074 0.594 6.93 83.82 0.65
3/27/2021 9:15:00 AM 8.93 48.074 0.594 6.92 84.2 0.73
3/27/2021 9:30:00 AM 8.92 48.056 0.594 6.92 84.46 0.77
3/27/2021 9:45:00 AM 8.92 48.056 0.595 6.93 84.38 0.79
3/27/2021 10:00:00 AM 8.91 48.038 0.594 6.92 84.18 0.96
3/27/2021 10:15:00 AM 8.91 48.038 0.595 6.92 84.65 0.99
3/27/2021 10:30:00 AM 8.9 48.02 0.595 6.93 84.45 1.02
3/27/2021 10:45:00 AM 8.9 48.02 0.595 6.93 84.33 1.08
3/27/2021 11:00:00 AM 8.91 48.038 0.595 6.93 84.38 1.08
3/27/2021 11:15:00 AM 8.91 48.038 0.597 6.92 84.63 1.11
3/27/2021 11:30:00 AM 8.91 48.038 0.597 6.92 84.02 1.19
3/27/2021 11:45:00 AM 8.91 48.038 0.596 6.93 84.12 1.11
3/27/2021 12:00:00 PM 8.93 48.074 0.596 6.92 84.34 1.08
3/27/2021 12:15:00 PM 8.96 48.128 0.595 6.93 84.27 1.08
3/27/2021 12:30:00 PM 9 48.2 0.595 6.92 83.81 1.12
3/27/2021 12:45:00 PM 9.05 48.29 0.594 6.93 83.93 1.11
3/27/2021 1:00:00 PM 9.13 48.434 0.594 6.93 83.88 1.17
3/27/2021 1:15:00 PM 9.21 48.578 0.593 6.93 84.19 1.11
3/27/2021 1:30:00 PM 9.29 48.722 0.592 6.93 83.68 1.06
3/27/2021 1:45:00 PM 9.37 48.866 0.591 6.93 83.9 1.01
3/27/2021 2:00:00 PM 9.42 48.956 0.592 6.93 83.32 1.19
3/27/2021 2:15:00 PM 9.48 49.064 0.594 6.92 83.79 1.27
3/27/2021 2:30:00 PM 9.54 49.172 0.594 6.93 83.55 1.23
3/27/2021 2:45:00 PM 9.6 49.28 0.593 6.92 83.66 1.1
3/27/2021 3:00:00 PM 9.65 49.37 0.594 6.92 83.51 1.12
3/27/2021 3:15:00 PM 9.68 49.424 0.594 6.92 83.48 1.18
3/27/2021 3:30:00 PM 9.71 49.478 0.594 6.92 83.37 1.14
3/27/2021 3:45:00 PM 9.73 49.514 0.593 6.92 83.3 0.93
3/27/2021 4:00:00 PM 9.75 49.55 0.592 6.92 83.55 1
3/27/2021 4:15:00 PM 9.76 49.568 0.591 6.92 83.54 0.98
3/27/2021 4:30:00 PM 9.76 49.568 0.59 6.92 83.68 0.75
3/27/2021 4:45:00 PM 9.74 49.532 0.59 6.92 83.81 0.75
3/27/2021 5:00:00 PM 9.73 49.514 0.59 6.92 83.55 0.73
3/27/2021 5:15:00 PM 9.71 49.478 0.591 6.92 83.3 0.59
3/27/2021 5:30:00 PM 9.71 49.478 0.591 6.92 83.61 0.54
3/27/2021 5:45:00 PM 9.72 49.496 0.591 6.92 83.87 0.47
3/27/2021 6:00:00 PM 9.75 49.55 0.59 6.92 83.45 0.39
3/27/2021 6:15:00 PM 9.78 49.604 0.59 6.92 83.44 0.38
3/27/2021 6:30:00 PM 9.81 49.658 0.59 6.92 83.99 0.41
3/27/2021 6:45:00 PM 9.83 49.694 0.59 6.92 83.67 0.38
3/27/2021 7:00:00 PM 9.84 49.712 0.59 6.92 83.81 0.43
3/27/2021 7:15:00 PM 9.85 49.73 0.59 6.92 83.8 0.39
3/27/2021 7:30:00 PM 9.84 49.712 0.59 6.92 84.02 0.57
3/27/2021 7:45:00 PM 9.84 49.712 0.59 6.92 83.93 0.6
3/27/2021 8:00:00 PM 9.83 49.694 0.59 6.92 84.03 0.49
3/27/2021 8:15:00 PM 9.82 49.676 0.59 6.92 84.47 0.5
3/27/2021 8:30:00 PM 9.8 49.64 0.589 6.92 84.05 0.48
3/27/2021 8:45:00 PM 9.79 49.622 0.589 6.92 83.89 0.42
3/27/2021 9:00:00 PM 9.78 49.604 0.589 6.92 84.31 0.53
3/27/2021 9:15:00 PM 9.77 49.586 0.589 6.92 84.37 0.46
3/27/2021 9:30:00 PM 9.77 49.586 0.589 6.92 84.6 0.48
3/27/2021 9:45:00 PM 9.78 49.604 0.587 6.92 84.26 0.41
3/27/2021 10:00:00 PM 9.78 49.604 0.588 6.92 84.05 0.43
3/27/2021 10:15:00 PM 9.79 49.622 0.587 6.92 84.15 0.58
3/27/2021 10:30:00 PM 9.79 49.622 0.585 6.92 84.05 0.51
3/27/2021 10:45:00 PM 9.8 49.64 0.585 6.92 83.86 0.59
3/27/2021 11:00:00 PM 9.8 49.64 0.583 6.92 83.96 0.42
3/27/2021 11:15:00 PM 9.79 49.622 0.581 6.92 84.31 0.39
3/27/2021 11:30:00 PM 9.79 49.622 0.58 6.92 84.32 0.36
3/27/2021 11:45:00 PM 9.78 49.604 0.578 6.92 84.51 0.42
3/28/2021 12:00:00 AM 9.77 49.586 0.575 6.92 84.05 0.44
3/28/2021 12:15:00 AM 9.75 49.55 0.574 6.92 84.22 0.49
3/28/2021 12:30:00 AM 9.74 49.532 0.573 6.92 84.11 0.47
3/28/2021 12:45:00 AM 9.73 49.514 0.573 6.92 84.06 0.52
3/28/2021 1:00:00 AM 9.72 49.496 0.572 6.92 84.16 0.5
3/28/2021 1:15:00 AM 9.71 49.478 0.57 6.92 84.3 0.51
3/28/2021 1:30:00 AM 9.7 49.46 0.567 6.92 84.46 0.58
3/28/2021 1:45:00 AM 9.69 49.442 0.567 6.93 84.26 0.49
3/28/2021 2:00:00 AM 9.68 49.424 0.564 6.93 84.41 0.64
3/28/2021 2:15:00 AM 9.68 49.424 0.56 6.93 84.47 0.52
3/28/2021 2:30:00 AM 9.67 49.406 0.558 6.93 84.59 0.55
3/28/2021 2:45:00 AM 9.66 49.388 0.558 6.93 84.24 0.61
3/28/2021 3:00:00 AM 9.65 49.37 0.556 6.93 84.14 0.66
3/28/2021 3:15:00 AM 9.63 49.334 0.554 6.93 84.27 0.69
3/28/2021 3:30:00 AM 9.62 49.316 0.555 6.94 84.21 0.65
3/28/2021 3:45:00 AM 9.6 49.28 0.553 6.94 84.12 0.8
3/28/2021 4:00:00 AM 9.58 49.244 0.553 6.94 84.33 1.15
3/28/2021 4:15:00 AM 9.57 49.226 0.549 6.94 84.38 1.21
3/28/2021 4:30:00 AM 9.55 49.19 0.547 6.94 84.6 1.31
3/28/2021 4:45:00 AM 9.53 49.154 0.548 6.94 84.51 1.34
3/28/2021 5:00:00 AM 9.51 49.118 0.547 6.94 84.6 1.34
3/28/2021 5:15:00 AM 9.5 49.1 0.547 6.94 84.66 1.5
3/28/2021 5:30:00 AM 9.48 49.064 0.547 6.94 84.59 1.47
3/28/2021 5:45:00 AM 9.47 49.046 0.543 6.94 84.65 1.48
3/28/2021 6:00:00 AM 9.46 49.028 0.544 6.94 84.7 1.72
3/28/2021 6:15:00 AM 9.45 49.01 0.544 6.94 84.91 1.72
3/28/2021 6:30:00 AM 9.45 49.01 0.545 6.94 84.72 1.74
3/28/2021 6:45:00 AM 9.44 48.992 0.547 6.95 85.14 1.92
3/28/2021 7:00:00 AM 9.44 48.992 0.543 6.94 84.65 1.97
3/28/2021 7:15:00 AM 9.44 48.992 0.543 6.94 84.86 3.94
3/28/2021 7:30:00 AM 9.43 48.974 0.542 6.95 85.28 6.69
3/28/2021 7:45:00 AM 9.43 48.974 0.54 6.95 85.25 6.93
3/28/2021 8:00:00 AM 9.42 48.956 0.539 6.95 85 7.69
3/28/2021 8:15:00 AM 9.42 48.956 0.539 6.95 84.99 8.13
3/28/2021 8:30:00 AM 9.42 48.956 0.539 6.95 84.75 8.02
3/28/2021 8:45:00 AM 9.41 48.938 0.539 6.95 84.91 8.23
3/28/2021 9:00:00 AM 9.41 48.938 0.536 6.95 84.89 8.15
3/28/2021 9:15:00 AM 9.4 48.92 0.533 6.95 84.83 7.78
3/28/2021 9:30:00 AM 9.4 48.92 0.531 6.95 84.72 7.78
3/28/2021 9:45:00 AM 9.4 48.92 0.532 6.95 84.81 8
3/28/2021 10:00:00 AM 9.4 48.92 0.53 6.95 84.74 7.97
3/28/2021 10:15:00 AM 9.4 48.92 0.528 6.95 84.73 7.96
3/28/2021 10:30:00 AM 9.4 48.92 0.527 6.95 84.83 8.19
3/28/2021 10:45:00 AM 9.4 48.92 0.524 6.95 84.38 8.24
3/28/2021 11:00:00 AM 9.4 48.92 0.523 6.95 84.03 8.19
3/28/2021 11:15:00 AM 9.4 48.92 0.522 6.95 84.65 8.25
3/28/2021 11:30:00 AM 9.39 48.902 0.522 6.95 84.71 8.18
3/28/2021 11:45:00 AM 9.39 48.902 0.521 6.95 84.74 8.34
3/28/2021 12:00:00 PM 9.39 48.902 0.52 6.95 84.76 8.23
3/28/2021 12:15:00 PM 9.38 48.884 0.517 6.95 84.87 7.98
3/28/2021 12:30:00 PM 9.38 48.884 0.515 6.95 84.65 8.05
3/28/2021 12:45:00 PM 9.38 48.884 0.512 6.95 84.83 7.49
3/28/2021 1:00:00 PM 9.39 48.902 0.532 6.95 82.55 8.78
3/28/2021 1:15:00 PM 9.39 48.902 0.55 6.94 82.88 9.08
3/28/2021 1:30:00 PM 9.39 48.902 0.557 6.94 83.56 8.74
3/28/2021 1:45:00 PM 9.39 48.902 0.561 6.95 83.38 8.72
3/28/2021 2:00:00 PM 9.39 48.902 0.562 6.95 83.41 8.75
3/28/2021 2:15:00 PM 9.4 48.92 0.562 6.95 83.64 8.8
3/28/2021 2:30:00 PM 9.41 48.938 0.563 6.95 83.63 8.51
3/28/2021 2:45:00 PM 9.43 48.974 0.564 6.95 83.66 8.95
3/28/2021 3:00:00 PM 9.43 48.974 0.565 6.95 83.69 8.95
3/28/2021 3:15:00 PM 9.44 48.992 0.565 6.95 83.87 8.85
3/28/2021 3:30:00 PM 9.45 49.01 0.564 6.95 83.99 8.55
3/28/2021 3:45:00 PM 9.46 49.028 0.563 6.96 83.98 9.29
3/28/2021 4:00:00 PM 9.47 49.046 0.562 6.96 83.99 8.72
3/28/2021 4:15:00 PM 9.46 49.028 0.562 6.96 83.65 8.69
3/28/2021 4:30:00 PM 9.46 49.028 0.562 6.97 83.74 8.77
3/28/2021 4:45:00 PM 9.45 49.01 0.56 6.97 83.9 8.75
3/28/2021 5:00:00 PM 9.45 49.01 0.56 6.97 84.1 8.74
3/28/2021 5:15:00 PM 9.44 48.992 0.559 6.97 83.84 8.73
3/28/2021 5:30:00 PM 9.43 48.974 0.558 6.97 83.91 8.96
3/28/2021 5:45:00 PM 9.42 48.956 0.557 6.97 83.86 8.9
3/28/2021 6:00:00 PM 9.4 48.92 0.555 6.97 83.82 8.81
3/28/2021 6:15:00 PM 9.38 48.884 0.554 6.97 83.49 9.12
3/28/2021 6:30:00 PM 9.36 48.848 0.55 6.98 83.42 8.84
3/28/2021 6:45:00 PM 9.34 48.812 0.55 6.97 83.45 8.58
3/28/2021 7:00:00 PM 9.31 48.758 0.548 6.98 83.49 8.33
3/28/2021 7:15:00 PM 9.28 48.704 0.545 6.98 83.71 8.57
3/28/2021 7:30:00 PM 9.25 48.65 0.541 6.98 83.74 8.54
3/28/2021 7:45:00 PM 9.23 48.614 0.538 6.98 84.22 7.57
3/28/2021 8:00:00 PM 9.2 48.56 0.559 6.99 81.61 8.71
3/28/2021 8:15:00 PM 9.17 48.506 0.576 6.98 82.07 9.12
3/28/2021 8:30:00 PM 9.15 48.47 0.582 6.97 82.45 9.32
3/28/2021 8:45:00 PM 9.12 48.416 0.586 6.97 81.93 9.27
3/28/2021 9:00:00 PM 9.1 48.38 0.588 6.97 82.32 9.15
3/28/2021 9:15:00 PM 9.07 48.326 0.59 6.96 82.59 9.27
3/28/2021 9:30:00 PM 9.05 48.29 0.59 6.96 82.78 9.47
3/28/2021 9:45:00 PM 9.03 48.254 0.591 6.96 83.1 9.33
3/28/2021 10:00:00 PM 9.01 48.218 0.592 6.96 83.52 8.77
3/28/2021 10:15:00 PM 8.99 48.182 0.591 6.97 83.71 8.89
3/28/2021 10:30:00 PM 8.97 48.146 0.592 6.96 83.7 8.49
3/28/2021 10:45:00 PM 8.95 48.11 0.592 6.96 83.8 7.98
3/28/2021 11:00:00 PM 8.93 48.074 0.591 6.96 83.69 8.79
3/28/2021 11:15:00 PM 8.89 48.002 0.591 6.96 83.78 8.49
3/28/2021 11:30:00 PM 8.86 47.948 0.589 6.96 83.47 8.86
3/28/2021 11:45:00 PM 8.83 47.894 0.59 6.96 83.59 7.6
3/29/2021 12:00:00 AM 8.8 47.84 0.589 6.96 83.61 7.74
3/29/2021 12:15:00 AM 8.77 47.786 0.588 6.96 83.56 7.98
3/29/2021 12:30:00 AM 8.74 47.732 0.585 6.96 83.44 7.8
3/29/2021 12:45:00 AM 8.73 47.714 0.584 6.96 83.71 8.05
3/29/2021 1:00:00 AM 8.7 47.66 0.581 6.96 83.5 7.88
3/29/2021 1:15:00 AM 8.67 47.606 0.58 6.96 83.7 7.73
3/29/2021 1:30:00 AM 8.64 47.552 0.577 6.96 83.49 7.58
3/29/2021 1:45:00 AM 8.61 47.498 0.576 6.96 83.43 8.17
3/29/2021 2:00:00 AM 8.57 47.426 0.572 6.96 83.62 7.67
3/29/2021 2:15:00 AM 8.54 47.372 0.57 6.96 83.81 7.73
3/29/2021 2:30:00 AM 8.5 47.3 0.568 6.96 83.68 7.81
3/29/2021 2:45:00 AM 8.46 47.228 0.566 6.96 83.63 8.53
3/29/2021 3:00:00 AM 8.42 47.156 0.563 6.96 83.55 8.29
3/29/2021 3:15:00 AM 8.39 47.102 0.561 6.96 83.71 8.36
3/29/2021 3:30:00 AM 8.35 47.03 0.559 6.96 83.86 8.44
3/29/2021 3:45:00 AM 8.32 46.976 0.556 6.95 83.82 8.85
3/29/2021 4:00:00 AM 8.28 46.904 0.555 6.95 83.91 8.34
3/29/2021 4:15:00 AM 8.25 46.85 0.551 6.95 83.72 8.25
3/29/2021 4:30:00 AM 8.22 46.796 0.549 6.95 83.44 8.59
3/29/2021 4:45:00 AM 8.19 46.742 0.547 6.95 83.74 8.61
3/29/2021 5:00:00 AM 8.16 46.688 0.546 6.95 83.81 8.7
3/29/2021 5:15:00 AM 8.14 46.652 0.543 6.95 83.4 7.37
3/29/2021 5:30:00 AM 8.12 46.616 0.541 6.95 83.45 7.31
3/29/2021 5:45:00 AM 8.1 46.58 0.538 6.94 83.56 7.25
3/29/2021 6:00:00 AM 8.08 46.544 0.535 6.95 83.77 6.96
3/29/2021 6:15:00 AM 8.06 46.508 0.532 6.95 83.84 7.5
3/29/2021 6:30:00 AM 8.04 46.472 0.529 6.94 83.39 7.58
3/29/2021 6:45:00 AM 8.01 46.418 0.525 6.94 83.62 6.73
3/29/2021 7:00:00 AM 7.99 46.382 0.522 6.94 83.37 7.64
3/29/2021 7:15:00 AM 7.97 46.346 0.533 6.94 82.55 9.49
3/29/2021 7:30:00 AM 7.95 46.31 0.56 6.97 80.83 9.5
3/29/2021 7:45:00 AM 7.93 46.274 0.566 6.96 81.44 9.81
3/29/2021 8:00:00 AM 7.9 46.22 0.567 6.96 81.63 10.01
3/29/2021 8:15:00 AM 7.88 46.184 0.567 6.95 81.97 9.83
3/29/2021 8:30:00 AM 7.86 46.148 0.567 6.95 82.3 9.92
3/29/2021 8:45:00 AM 7.84 46.112 0.567 6.95 82.81 10.14
3/29/2021 9:00:00 AM 7.82 46.076 0.565 6.94 82.89 10.02
3/29/2021 9:15:00 AM 7.8 46.04 0.564 6.95 83.26 10.08
3/29/2021 9:30:00 AM 7.79 46.022 0.562 6.94 83.45 10.02
3/29/2021 9:45:00 AM 7.78 46.004 0.558 6.94 83.6 9.84
3/29/2021 10:00:00 AM 7.78 46.004 0.556 6.94 83.74 9.9
3/29/2021 10:15:00 AM 7.78 46.004 0.554 6.94 83.71 9.97
3/29/2021 10:30:00 AM 7.77 45.986 0.55 6.94 83.66 9.93
3/29/2021 10:45:00 AM 7.76 45.968 0.543 6.94 83.44 9.94
3/29/2021 11:00:00 AM 7.76 45.968 0.539 6.94 83.71 10.11
3/29/2021 11:15:00 AM 7.78 46.004 0.534 6.94 83.86 9.52
3/29/2021 11:30:00 AM 7.8 46.04 0.53 6.95 83.98 9.56
3/29/2021 11:45:00 AM 7.82 46.076 0.524 6.95 83.57 8.9
3/29/2021 12:00:00 PM 7.82 46.076 0.517 6.95 83.88 9.9
3/29/2021 12:15:00 PM 7.81 46.058 0.516 6.96 81.89 10.07
3/29/2021 12:30:00 PM 7.82 46.076 0.529 6.96 82.18 10.49
3/29/2021 12:45:00 PM 7.84 46.112 0.529 6.95 82.15 10.31
3/29/2021 1:00:00 PM 7.87 46.166 0.525 6.95 82.31 10.6
3/29/2021 1:15:00 PM 7.92 46.256 0.528 6.95 82.57 10.59
3/29/2021 1:30:00 PM 7.98 46.364 0.522 6.95 82.62 10.71
3/29/2021 1:45:00 PM 8.05 46.49 0.52 6.95 82.77 10.66
3/29/2021 2:00:00 PM 8.11 46.598 0.516 6.95 83.04 10.63
3/29/2021 2:15:00 PM 8.18 46.724 0.514 6.95 83.03 10.78
3/29/2021 2:30:00 PM 8.25 46.85 0.51 6.96 83.43 10.74
3/29/2021 2:45:00 PM 8.33 46.994 0.506 6.96 83.34 10.5
3/29/2021 3:00:00 PM 8.39 47.102 0.501 6.96 83 10.47
3/29/2021 3:15:00 PM 8.44 47.192 0.496 6.96 83.37 10.67
3/29/2021 3:30:00 PM 8.49 47.282 0.491 6.96 83.44 10.66
3/29/2021 3:45:00 PM 8.52 47.336 0.488 6.96 83.54 10.6
3/29/2021 4:00:00 PM 8.55 47.39 0.48 6.95 83.55 10.67
3/29/2021 4:15:00 PM 8.57 47.426 0.472 6.95 83.72 10.72
3/29/2021 4:30:00 PM 8.58 47.444 0.476 6.96 82.17 10.66
3/29/2021 4:45:00 PM 8.59 47.462 0.481 6.95 82.4 10.82
3/29/2021 5:00:00 PM 8.59 47.462 0.482 6.95 82.71 10.84
3/29/2021 5:15:00 PM 8.58 47.444 0.479 6.95 82.97 11
3/29/2021 5:30:00 PM 8.55 47.39 0.475 6.95 83.09 11.13
3/29/2021 5:45:00 PM 8.52 47.336 0.471 6.95 83.27 11.12
3/29/2021 6:00:00 PM 8.49 47.282 0.468 6.95 83.28 11.11
3/29/2021 6:15:00 PM 8.45 47.21 0.466 6.95 83.19 11.14
3/29/2021 6:30:00 PM 8.4 47.12 0.462 6.95 83.27 11.08
3/29/2021 6:45:00 PM 8.35 47.03 0.459 6.95 83.3 11.14
3/29/2021 7:00:00 PM 8.3 46.94 0.457 6.95 83.31 11.1
3/29/2021 7:15:00 PM 8.25 46.85 0.455 6.95 83.39 11.09
3/29/2021 7:30:00 PM 8.2 46.76 0.451 6.95 83.67 11.12
3/29/2021 7:45:00 PM 8.16 46.688 0.447 6.95 83.38 11.1
3/29/2021 8:00:00 PM 8.12 46.616 0.443 6.95 83.54 11.1
3/29/2021 8:15:00 PM 8.08 46.544 0.439 6.95 83.71 11.01
3/29/2021 8:30:00 PM 8.05 46.49 0.434 6.95 83.93 11.08
3/29/2021 8:45:00 PM 8.03 46.454 0.439 6.96 81.44 11.05
3/29/2021 9:00:00 PM 8 46.4 0.446 6.95 81.86 11
3/29/2021 9:15:00 PM 7.98 46.364 0.446 6.94 82.07 11.09
3/29/2021 9:30:00 PM 7.96 46.328 0.444 6.94 82.5 11.04
3/29/2021 9:45:00 PM 7.95 46.31 0.442 6.95 82.43 11.19
3/29/2021 10:00:00 PM 7.93 46.274 0.438 6.95 82.35 11.15
3/29/2021 10:15:00 PM 7.91 46.238 0.434 6.95 82.55 11.16
3/29/2021 10:30:00 PM 7.89 46.202 0.429 6.96 83.12 11.06
3/29/2021 10:45:00 PM 7.88 46.184 0.424 6.95 83.21 11.1
3/29/2021 11:00:00 PM 7.86 46.148 0.418 6.97 83.52 11.12
3/29/2021 11:15:00 PM 7.84 46.112 0.413 6.98 83.77 11.08
3/29/2021 11:30:00 PM 7.83 46.094 0.417 6.99 81.99 11.11
3/29/2021 11:45:00 PM 7.81 46.058 0.423 6.98 82.23 11.09
3/30/2021 12:00:00 AM 7.78 46.004 0.422 6.99 82.44 11.13
3/30/2021 12:15:00 AM 7.76 45.968 0.42 6.99 82.67 11.01
3/30/2021 12:30:00 AM 7.74 45.932 0.416 6.99 82.73 11.08
3/30/2021 12:45:00 AM 7.72 45.896 0.413 6.99 82.99 11.04
3/30/2021 1:00:00 AM 7.69 45.842 0.41 6.99 83 10.89
3/30/2021 1:15:00 AM 7.66 45.788 0.402 6.99 82.76 10.92
3/30/2021 1:30:00 AM 7.63 45.734 0.396 6.99 83.07 10.82
3/30/2021 1:45:00 AM 7.59 45.662 0.392 6.99 83.06 10.91
3/30/2021 2:00:00 AM 7.56 45.608 0.388 6.99 82 10.72
3/30/2021 2:15:00 AM 7.52 45.536 0.391 6.98 82.17 10.91
3/30/2021 2:30:00 AM 7.48 45.464 0.391 6.98 82.43 11.15
3/30/2021 2:45:00 AM 7.44 45.392 0.391 6.98 82.71 11.01
3/30/2021 3:00:00 AM 7.4 45.32 0.387 6.98 82.92 11.07
3/30/2021 3:15:00 AM 7.36 45.248 0.385 6.98 82.91 10.93
3/30/2021 3:30:00 AM 7.32 45.176 0.383 6.97 83.05 10.99
3/30/2021 3:45:00 AM 7.28 45.104 0.383 6.98 83.9 11.08
3/30/2021 4:00:00 AM 7.25 45.05 0.381 6.97 83.66 11.03
3/30/2021 4:15:00 AM 7.21 44.978 0.38 6.98 83.67 11.15
3/30/2021 4:30:00 AM 7.18 44.924 0.378 6.98 83.52 11.08
3/30/2021 4:45:00 AM 7.15 44.87 0.375 6.98 83.64 11.14
3/30/2021 5:00:00 AM 7.11 44.798 0.371 6.98 83.54 11.18
3/30/2021 5:15:00 AM 7.08 44.744 0.368 6.98 83.68 11.16
3/30/2021 5:30:00 AM 7.05 44.69 0.366 6.99 83.96 11.19
3/30/2021 5:45:00 AM 7.02 44.636 0.362 6.99 84.11 11.27
3/30/2021 6:00:00 AM 7 44.6 0.365 6.97 82.21 11.24
3/30/2021 6:15:00 AM 6.97 44.546 0.371 6.97 82.47 11.29
3/30/2021 6:30:00 AM 6.94 44.492 0.373 6.97 82.78 11.3
3/30/2021 6:45:00 AM 6.92 44.456 0.374 6.96 83.06 11.29
3/30/2021 7:00:00 AM 6.9 44.42 0.371 6.96 83.45 11.26
3/30/2021 7:15:00 AM 6.88 44.384 0.371 6.96 83.67 11.31
3/30/2021 7:30:00 AM 6.86 44.348 0.371 6.95 83.61 11.29
3/30/2021 7:45:00 AM 6.85 44.33 0.367 6.95 83.97 11.26
3/30/2021 8:00:00 AM 6.84 44.312 0.366 6.95 83.99 11.32
3/30/2021 8:15:00 AM 6.83 44.294 0.364 6.95 84.25 11.28
3/30/2021 8:30:00 AM 6.83 44.294 0.36 6.94 84.25 11.33
3/30/2021 8:45:00 AM 6.84 44.312 0.358 6.94 84.35 11.34
3/30/2021 9:00:00 AM 6.87 44.366 0.351 6.93 82.71 11.24
3/30/2021 9:15:00 AM 6.89 44.402 0.352 6.93 83.16 11.26
3/30/2021 9:30:00 AM 6.92 44.456 0.353 6.92 83.6 11.28
3/30/2021 9:45:00 AM 6.95 44.51 0.352 6.92 84 11.31
3/30/2021 10:00:00 AM 6.99 44.582 0.35 6.92 84.26 11.35
3/30/2021 10:15:00 AM 7.04 44.672 0.347 6.93 84.38 11.35
3/30/2021 10:30:00 AM 7.09 44.762 0.346 6.93 84.3 11.36
3/30/2021 10:45:00 AM 7.15 44.87 0.344 6.94 84.19 11.34
3/30/2021 11:00:00 AM 7.21 44.978 0.343 6.94 84.62 11.37
3/30/2021 11:15:00 AM 7.28 45.104 0.34 6.93 84.96 11.42
3/30/2021 11:30:00 AM 7.35 45.23 0.336 6.93 85.1 11.38
3/30/2021 11:45:00 AM 7.43 45.374 0.337 6.94 82.85 11.18
3/30/2021 12:00:00 PM 7.51 45.518 0.345 6.93 82.96 11.41
3/30/2021 12:15:00 PM 7.6 45.68 0.345 6.93 83.32 11.47
3/30/2021 12:30:00 PM 7.68 45.824 0.344 6.93 83.31 11.49
3/30/2021 12:45:00 PM 7.75 45.95 0.343 6.92 83.59 11.47
3/30/2021 1:00:00 PM 7.83 46.094 0.339 6.92 83.64 11.48
3/30/2021 1:15:00 PM 7.92 46.256 0.333 6.92 82.62 11.34
3/30/2021 1:30:00 PM 7.99 46.382 0.34 6.93 82.81 11.46
3/30/2021 1:45:00 PM 8.07 46.526 0.34 6.92 82.88 11.41
3/30/2021 2:00:00 PM 8.14 46.652 0.342 6.92 82.71 11.51
3/30/2021 2:15:00 PM 8.21 46.778 0.341 6.91 83.34 11.46
3/30/2021 2:30:00 PM 8.28 46.904 0.327 6.93 82.53 11.26
3/30/2021 2:45:00 PM 8.34 47.012 0.334 6.93 82.39 11.54
3/30/2021 3:00:00 PM 8.39 47.102 0.336 6.91 82.72 11.54
3/30/2021 3:15:00 PM 8.44 47.192 0.337 6.92 82.88 11.51
3/30/2021 3:30:00 PM 8.48 47.264 0.336 6.92 82.83 11.52
3/30/2021 3:45:00 PM 8.51 47.318 0.336 6.91 83.09 11.53
3/30/2021 4:00:00 PM 8.54 47.372 0.334 6.91 83.3 11.49
3/30/2021 4:15:00 PM 8.55 47.39 0.334 6.91 83.2 11.46
3/30/2021 4:30:00 PM 8.56 47.408 0.331 6.91 83.49 11.48
3/30/2021 4:45:00 PM 8.57 47.426 0.32 6.93 81.35 11.18
3/30/2021 5:00:00 PM 8.57 47.426 0.324 6.94 81.28 11.23
3/30/2021 5:15:00 PM 8.56 47.408 0.325 6.93 81.27 11.32
3/30/2021 5:30:00 PM 8.54 47.372 0.326 6.93 81.31 11.48
3/30/2021 5:45:00 PM 8.51 47.318 0.325 6.92 81.46 11.24
3/30/2021 6:00:00 PM 8.49 47.282 0.323 6.92 81.76 11.42
3/30/2021 6:15:00 PM 8.46 47.228 0.321 6.92 81.92 11.37
3/30/2021 6:30:00 PM 8.43 47.174 0.318 6.92 81.92 11.48
3/30/2021 6:45:00 PM 8.4 47.12 0.314 6.92 82.14 11.42
3/30/2021 7:00:00 PM 8.36 47.048 0.311 6.92 82.29 11.47
3/30/2021 7:15:00 PM 8.32 46.976 0.303 6.92 81.94 11.35
3/30/2021 7:30:00 PM 8.28 46.904 0.31 6.92 82.08 11.31
3/30/2021 7:45:00 PM 8.25 46.85 0.313 6.93 82.32 11.45
3/30/2021 8:00:00 PM 8.22 46.796 0.312 6.93 82.58 11.36
3/30/2021 8:15:00 PM 8.2 46.76 0.311 6.93 82.93 11.34
3/30/2021 8:30:00 PM 8.18 46.724 0.31 6.93 83.19 11.31
3/30/2021 8:45:00 PM 8.16 46.688 0.307 6.93 83.4 11.22
3/30/2021 9:00:00 PM 8.15 46.67 0.304 6.93 83.44 11.4
3/30/2021 9:15:00 PM 8.14 46.652 0.298 6.94 83.92 11.36
3/30/2021 9:30:00 PM 8.14 46.652 0.292 6.95 83.2 11.37
3/30/2021 9:45:00 PM 8.13 46.634 0.297 6.95 83.45 11.4
3/30/2021 10:00:00 PM 8.12 46.616 0.294 6.95 83.24 11.4
3/30/2021 10:15:00 PM 8.12 46.616 0.294 6.95 83.68 11.32
3/30/2021 10:30:00 PM 8.11 46.598 0.29 6.95 84.08 11.43
3/30/2021 10:45:00 PM 8.11 46.598 0.288 6.94 82.4 11.21
3/30/2021 11:00:00 PM 8.1 46.58 0.293 6.94 82.82 11.46
3/30/2021 11:15:00 PM 8.09 46.562 0.295 6.94 82.82 11.46
3/30/2021 11:30:00 PM 8.08 46.544 0.292 6.94 82.89 11.41
3/30/2021 11:45:00 PM 8.07 46.526 0.288 6.94 83.36 11.38
3/31/2021 12:00:00 AM 8.06 46.508 0.275 6.94 83.57 11.29
3/31/2021 12:15:00 AM 8.05 46.49 0.282 6.95 81.34 11.34
3/31/2021 12:30:00 AM 8.04 46.472 0.287 6.95 81.72 11.43
3/31/2021 12:45:00 AM 8.02 46.436 0.285 6.95 82.07 11.44
3/31/2021 1:00:00 AM 8 46.4 0.286 6.95 82.55 11.46
3/31/2021 1:15:00 AM 7.98 46.364 0.287 6.95 82.6 11.46
3/31/2021 1:30:00 AM 7.96 46.328 0.284 6.95 83.1 11.43
3/31/2021 1:45:00 AM 7.94 46.292 0.273 6.95 82.04 11.35
3/31/2021 2:00:00 AM 7.92 46.256 0.274 6.96 81.1 11.31
3/31/2021 2:15:00 AM 7.89 46.202 0.28 6.96 81.16 11.36
3/31/2021 2:30:00 AM 7.87 46.166 0.267 6.97 80.96 11.36
3/31/2021 2:45:00 AM 7.85 46.13 0.272 6.96 81.31 11.4
3/31/2021 3:00:00 AM 7.82 46.076 0.27 6.97 81.43 11.41
3/31/2021 3:15:00 AM 7.8 46.04 0.261 6.97 80.95 11.38
3/31/2021 3:30:00 AM 7.78 46.004 0.253 6.98 80.88 11.25
3/31/2021 3:45:00 AM 7.76 45.968 0.257 6.9 80.16 11.3
3/31/2021 4:00:00 AM 7.74 45.932 0.258 6.91 80 11.26
3/31/2021 4:15:00 AM 7.72 45.896 0.258 6.88 79.73 11.34
3/31/2021 4:30:00 AM 7.71 45.878 0.256 6.89 79.98 11.33
3/31/2021 4:45:00 AM 7.69 45.842 0.256 6.89 79.72 11.34
3/31/2021 5:00:00 AM 7.68 45.824 0.256 6.86 79.15 11.33
3/31/2021 5:15:00 AM 7.68 45.824 0.26 6.87 78.8 11.19
3/31/2021 5:30:00 AM 7.67 45.806 0.258 6.89 78.51 11.32
3/31/2021 5:45:00 AM 7.67 45.806 0.257 6.92 77.91 11.27
3/31/2021 6:00:00 AM 7.67 45.806 0.262 6.93 77.77 11.33
3/31/2021 6:15:00 AM 7.68 45.824 0.277 6.95 77.38 11.24
3/31/2021 6:30:00 AM 7.68 45.824 0.28 6.91 77.71 11.27
3/31/2021 6:45:00 AM 7.69 45.842 0.284 6.9 78.38 11.26
3/31/2021 7:00:00 AM 7.7 45.86 0.286 6.89 78.67 11.26
3/31/2021 7:15:00 AM 7.72 45.896 0.288 6.89 78.87 11.27
3/31/2021 7:30:00 AM 7.73 45.914 0.289 6.89 79.23 11.29
3/31/2021 7:45:00 AM 7.75 45.95 0.29 6.89 79.45 11.28
3/31/2021 8:00:00 AM 7.78 46.004 0.291 6.89 79.42 11.29
3/31/2021 8:15:00 AM 7.8 46.04 0.291 6.9 79.83 11.29
3/31/2021 8:30:00 AM 7.83 46.094 0.293 6.9 80.19 11.27
3/31/2021 8:45:00 AM 7.86 46.148 0.295 6.91 80.24 11.25
3/31/2021 9:00:00 AM 7.89 46.202 0.296 6.92 79.85 10.99
3/31/2021 9:15:00 AM 7.93 46.274 0.297 6.91 80.13 11.27
3/31/2021 9:30:00 AM 7.96 46.328 0.298 6.91 80.15 11.29
3/31/2021 9:45:00 AM 7.99 46.382 0.298 6.92 80.22 11.28
3/31/2021 10:00:00 AM 8.02 46.436 0.298 6.93 80.24 11.3
3/31/2021 10:15:00 AM 8.06 46.508 0.299 6.95 80.66 11.29
3/31/2021 10:30:00 AM 8.1 46.58 0.299 6.96 80.63 11.3
3/31/2021 10:45:00 AM 8.13 46.634 0.298 6.97 80.74 11.32
3/31/2021 11:00:00 AM 8.17 46.706 0.296 6.97 80.46 11.3
3/31/2021 11:15:00 AM 8.19 46.742 0.293 6.98 80.77 11.3
3/31/2021 11:30:00 AM 8.22 46.796 0.285 6.99 81.45 10.92
3/31/2021 11:45:00 AM 8.25 46.85 0.292 7 79.47 11.25
3/31/2021 12:00:00 PM 8.27 46.886 0.301 7.02 79.63